Provisional Data: Hunts Run near Cameron, PA


Please select a monitoring station.
Please select start date.
Please select start date.

Toggle Unit: C/F Toggle Unit: C/F
Sample Time Temperature (C) Temperature (F) Specific Conductivity (mS/cm) pH   Turbidity (NTU+) DO (mg/L)
12/23/2022 12:00:00 AM 2.58 36.644 0.031 6.61 2.81 13.37
12/23/2022 12:15:00 AM 2.59 36.662 0.031 6.61 2.6 13.36
12/23/2022 12:30:00 AM 2.59 36.662 0.031 6.61 3.31 13.36
12/23/2022 12:45:00 AM 2.6 36.68 0.031 6.61 2.82 13.35
12/23/2022 1:00:00 AM 2.61 36.698 0.03 6.61 3.14 13.34
12/23/2022 1:15:00 AM 2.62 36.716 0.03 6.61 3.33 13.34
12/23/2022 1:30:00 AM 2.62 36.716 0.03 6.61 3.49 13.33
12/23/2022 1:45:00 AM 2.63 36.734 0.03 6.6 3.92 13.33
12/23/2022 2:00:00 AM 2.63 36.734 0.03 6.6 4.52 13.32
12/23/2022 2:15:00 AM 2.64 36.752 0.03 6.6 4.83 13.31
12/23/2022 2:30:00 AM 2.65 36.77 0.03 6.6 5.62 13.3
12/23/2022 2:45:00 AM 2.66 36.788 0.03 6.59 6.48 13.29
12/23/2022 3:00:00 AM 2.67 36.806 0.03 6.59 6.11 13.29
12/23/2022 3:15:00 AM 2.68 36.824 0.029 6.58 6.57 13.28
12/23/2022 3:30:00 AM 2.7 36.86 0.029 6.58 6.52 13.28
12/23/2022 3:45:00 AM 2.72 36.896 0.029 6.57 7.01 13.27
12/23/2022 4:00:00 AM 2.73 36.914 0.029 6.57 7.6 13.26
12/23/2022 4:15:00 AM 2.76 36.968 0.029 6.56 7.7 13.25
12/23/2022 4:30:00 AM 2.78 37.004 0.028 6.57 7.7 13.24
12/23/2022 4:45:00 AM 2.8 37.04 0.028 6.56 7.63 13.23
12/23/2022 5:00:00 AM 2.82 37.076 0.028 6.55 8.24 13.22
12/23/2022 5:15:00 AM 2.83 37.094 0.028 6.54 8.12 13.21
12/23/2022 5:30:00 AM 2.85 37.13 0.028 6.54 8.06 13.2
12/23/2022 5:45:00 AM 2.87 37.166 0.028 6.54 8.89 13.18
12/23/2022 6:00:00 AM 2.89 37.202 0.027 6.53 7.77 13.17
12/23/2022 6:15:00 AM 2.92 37.256 0.027 6.53 7.68 13.16
12/23/2022 6:30:00 AM 2.95 37.31 0.027 6.51 7.93 13.14
12/23/2022 6:45:00 AM 2.99 37.382 0.027 6.52 7.94 13.12
12/23/2022 7:00:00 AM 3.03 37.454 0.027 6.51 7.92 13.1
12/23/2022 7:15:00 AM 3.06 37.508 0.027 6.5 7.59 13.09
12/23/2022 7:30:00 AM 3.09 37.562 0.027 6.5 7.68 13.08
12/23/2022 7:45:00 AM 3.12 37.616 0.027 6.5 7.62 13.06
12/23/2022 8:00:00 AM 3.15 37.67 0.027 6.51 7.45 13.05
12/23/2022 8:15:00 AM 3.17 37.706 0.027 6.5 7.68 13.05
12/23/2022 8:30:00 AM 3.18 37.724 0.027 6.51 7.43 13.05
12/23/2022 8:45:00 AM 3.16 37.688 0.027 6.5 7.41 13.06
12/23/2022 9:00:00 AM 3.17 37.706 0.027 6.51 7.4 13.09
12/23/2022 9:15:00 AM 3.09 37.562 0.027 6.52 7.77 13.1
12/23/2022 9:30:00 AM 3.04 37.472 0.027 6.52 7.41 13.14
12/23/2022 9:45:00 AM 3.02 37.436 0.027 6.53 8.45 13.19
12/23/2022 10:00:00 AM 2.97 37.346 0.027 6.52 7.26 13.22
12/23/2022 10:15:00 AM 2.91 37.238 0.027 6.52 7.13 13.25
12/23/2022 10:30:00 AM 2.85 37.13 0.027 6.53 7.07 13.28
12/23/2022 10:45:00 AM 2.77 36.986 0.027 6.53 7.47 13.32
12/23/2022 11:00:00 AM 2.7 36.86 0.027 6.53 7.61 13.35
12/23/2022 11:15:00 AM 2.63 36.734 0.027 6.53 8.05 13.39
12/23/2022 11:30:00 AM 2.56 36.608 0.027 6.53 6.85 13.43
12/23/2022 11:45:00 AM 2.47 36.446 0.027 6.53 7.07 13.46
12/23/2022 12:00:00 PM 2.38 36.284 0.027 6.52 6.71 13.49
12/23/2022 12:15:00 PM 2.3 36.14 0.027 6.54 6.57 13.53
12/23/2022 12:30:00 PM 2.24 36.032 0.027 6.53 8.34 13.56
12/23/2022 12:45:00 PM 2.19 35.942 0.027 6.53 6.87 13.59
12/23/2022 1:00:00 PM 2.11 35.798 0.027 6.54 6.93 13.62
12/23/2022 1:15:00 PM 2.04 35.672 0.027 6.53 6.77 13.64
12/23/2022 1:30:00 PM 1.99 35.582 0.027 6.54 6.46 13.67
12/23/2022 1:45:00 PM 1.91 35.438 0.027 6.54 6.97 13.7
12/23/2022 2:00:00 PM 1.84 35.312 0.027 6.54 6.69 13.72
12/23/2022 2:15:00 PM 1.74 35.132 0.027 6.54 6.6 13.75
12/23/2022 2:30:00 PM 1.67 35.006 0.027 6.54 6.4 13.78
12/23/2022 2:45:00 PM 1.57 34.826 0.027 6.54 6.77 13.8
12/23/2022 3:00:00 PM 1.49 34.682 0.027 6.54 6.76 13.82
12/23/2022 3:15:00 PM 1.4 34.52 0.027 6.53 6.3 13.84
12/23/2022 3:30:00 PM 1.32 34.376 0.027 6.53 6.1 13.87
12/23/2022 3:45:00 PM 1.24 34.232 0.027 6.52 6.02 13.9
12/23/2022 4:00:00 PM 1.14 34.052 0.027 6.52 6.02 13.93
12/23/2022 4:15:00 PM 1.06 33.908 0.027 6.52 5.66 13.96
12/23/2022 4:30:00 PM 0.97 33.746 0.028 6.52 5.69 13.98
12/23/2022 4:45:00 PM 0.89 33.602 0.028 6.51 5.39 14.01
12/23/2022 5:00:00 PM 0.83 33.494 0.028 6.5 7 14.03
12/23/2022 5:15:00 PM 0.75 33.35 0.028 6.5 5.24 14.05
12/23/2022 5:30:00 PM 0.67 33.206 0.028 6.5 4.99 14.08
12/23/2022 5:45:00 PM 0.61 33.098 0.028 6.49 5.47 14.11
12/23/2022 6:00:00 PM 0.55 32.99 0.028 6.48 5.57 14.13
12/23/2022 6:15:00 PM 0.49 32.882 0.028 6.49 5.21 14.15
12/23/2022 6:30:00 PM 0.45 32.81 0.028 6.49 5.46 14.18
12/23/2022 6:45:00 PM 0.41 32.738 0.028 6.48 4.8 14.2
12/23/2022 7:00:00 PM 0.34 32.612 0.028 6.48 4.94 14.22
12/23/2022 7:15:00 PM 0.3 32.54 0.028 6.47 4.6 14.24
12/23/2022 7:30:00 PM 0.26 32.468 0.028 6.47 4.72 14.26
12/23/2022 7:45:00 PM 0.24 32.432 0.028 6.46 4.94 14.27
12/23/2022 8:00:00 PM 0.23 32.414 0.028 6.46 4.89 14.28
12/23/2022 8:15:00 PM 0.22 32.396 0.028 6.46 4.5 14.29
12/23/2022 8:30:00 PM 0.22 32.396 0.028 6.46 4.7 14.29
12/23/2022 8:45:00 PM 0.21 32.378 0.029 6.46 4.43 14.29
12/23/2022 9:00:00 PM 0.21 32.378 0.029 6.46 4.6 14.3
12/23/2022 9:15:00 PM 0.22 32.396 0.029 6.47 4.47 14.3
12/23/2022 9:30:00 PM 0.22 32.396 0.029 6.46 5.02 14.3
12/23/2022 9:45:00 PM 0.22 32.396 0.029 6.47 4.23 14.3
12/23/2022 10:00:00 PM 0.21 32.378 0.029 6.47 4.58 14.3
12/23/2022 10:15:00 PM 0.22 32.396 0.029 6.47 4.16 14.3
12/23/2022 10:30:00 PM 0.23 32.414 0.029 6.47 5.1 14.3
12/23/2022 10:45:00 PM 0.23 32.414 0.029 6.47 4.21 14.3
12/23/2022 11:00:00 PM 0.24 32.432 0.029 6.46 4.35 14.3
12/23/2022 11:15:00 PM 0.24 32.432 0.029 6.46 4.3 14.3
12/23/2022 11:30:00 PM 0.24 32.432 0.029 6.47 5.39 14.3
12/23/2022 11:45:00 PM 0.25 32.45 0.029 6.47 4.31 14.3
12/24/2022 12:00:00 AM 0.26 32.468 0.029 6.48 4.01 14.3
12/24/2022 12:15:00 AM 0.25 32.45 0.029 6.48 4.04 14.31
12/24/2022 12:30:00 AM 0.25 32.45 0.029 6.48 3.92 14.31
12/24/2022 12:45:00 AM 0.25 32.45 0.029 6.48 5.05 14.31
12/24/2022 1:00:00 AM 0.24 32.432 0.029 6.48 4.43 14.31
12/24/2022 1:15:00 AM 0.24 32.432 0.029 6.49 3.76 14.31
12/24/2022 1:30:00 AM 0.25 32.45 0.029 6.49 3.72 14.31
12/24/2022 1:45:00 AM 0.26 32.468 0.029 6.49 3.79 14.31
12/24/2022 2:00:00 AM 0.26 32.468 0.029 6.49 4.63 14.31
12/24/2022 2:15:00 AM 0.26 32.468 0.029 6.5 3.59 14.31
12/24/2022 2:30:00 AM 0.26 32.468 0.029 6.5 3.61 14.31
12/24/2022 2:45:00 AM 0.26 32.468 0.029 6.5 3.67 14.31
12/24/2022 3:00:00 AM 0.27 32.486 0.03 6.5 3.66 14.32
12/24/2022 3:15:00 AM 0.27 32.486 0.03 6.5 3.55 14.32
12/24/2022 3:30:00 AM 0.28 32.504 0.03 6.5 3.48 14.31
12/24/2022 3:45:00 AM 0.28 32.504 0.03 6.5 3.45 14.32
12/24/2022 4:00:00 AM 0.28 32.504 0.03 6.5 3.49 14.31
12/24/2022 4:15:00 AM 0.28 32.504 0.03 6.51 3.71 14.31
12/24/2022 4:30:00 AM 0.29 32.522 0.03 6.5 3.54 14.32
12/24/2022 4:45:00 AM 0.29 32.522 0.03 6.51 3.51 14.31
12/24/2022 5:00:00 AM 0.3 32.54 0.03 6.51 3.64 14.31
12/24/2022 5:15:00 AM 0.29 32.522 0.03 6.5 3.46 14.31
12/24/2022 5:30:00 AM 0.3 32.54 0.03 6.51 3.71 14.31
12/24/2022 5:45:00 AM 0.31 32.558 0.03 6.5 3.62 14.3
12/24/2022 6:00:00 AM 0.31 32.558 0.03 6.51 3.58 14.31
12/24/2022 6:15:00 AM 0.31 32.558 0.03 6.5 3.35 14.31
12/24/2022 6:30:00 AM 0.31 32.558 0.03 6.51 3.33 14.31
12/24/2022 6:45:00 AM 0.31 32.558 0.03 6.51 3.88 14.31
12/24/2022 7:00:00 AM 0.31 32.558 0.03 6.51 3.57 14.31
12/24/2022 7:15:00 AM 0.32 32.576 0.03 6.51 3.31 14.31
12/24/2022 7:30:00 AM 0.31 32.558 0.03 6.51 3.67 14.31
12/24/2022 7:45:00 AM 0.32 32.576 0.03 6.51 4.51 14.31
12/24/2022 8:00:00 AM 0.32 32.576 0.03 6.53 4.25 14.33
12/24/2022 8:15:00 AM 0.33 32.594 0.03 6.51 3.29 14.34
12/24/2022 8:30:00 AM 0.34 32.612 0.03 6.51 3.37 14.35
12/24/2022 8:45:00 AM 0.37 32.666 0.03 6.53 3.13 14.36
12/24/2022 9:00:00 AM 0.35 32.63 0.03 6.53 3.16 14.38
12/24/2022 9:15:00 AM 0.37 32.666 0.03 6.51 2.97 14.37
12/24/2022 9:30:00 AM 0.4 32.72 0.03 6.53 2.95 14.38
12/24/2022 9:45:00 AM 0.42 32.756 0.03 6.54 3.87 14.38
12/24/2022 10:00:00 AM 0.43 32.774 0.029 6.53 2.9 14.38
12/24/2022 10:15:00 AM 0.46 32.828 0.029 6.54 2.91 14.39
12/24/2022 10:30:00 AM 0.47 32.846 0.029 6.53 3.58 14.39
12/24/2022 10:45:00 AM 0.5 32.9 0.029 6.54 2.94 14.38
12/24/2022 11:00:00 AM 0.53 32.954 0.029 6.54 2.87 14.38
12/24/2022 11:15:00 AM 0.55 32.99 0.029 6.55 3.77 14.38
12/24/2022 11:30:00 AM 0.54 32.972 0.029 6.53 3.1 14.36
12/24/2022 11:45:00 AM 0.57 33.026 0.029 6.55 4.02 14.36
12/24/2022 12:00:00 PM 0.59 33.062 0.029 6.54 4.05 14.36
12/24/2022 12:15:00 PM 0.61 33.098 0.029 6.53 3.66 14.35
12/24/2022 12:30:00 PM 0.64 33.152 0.029 6.54 2.94 14.35
12/24/2022 12:45:00 PM 0.65 33.17 0.029 6.54 2.94 14.34
12/24/2022 1:00:00 PM 0.66 33.188 0.029 6.54 3.32 14.33
12/24/2022 1:15:00 PM 0.67 33.206 0.029 6.54 2.88 14.33
12/24/2022 1:30:00 PM 0.66 33.188 0.029 6.54 3.08 14.32
12/24/2022 1:45:00 PM 0.64 33.152 0.029 6.53 3.27 14.32
12/24/2022 2:00:00 PM 0.68 33.224 0.029 6.54 3.25 14.32
12/24/2022 2:15:00 PM 0.67 33.206 0.029 6.53 2.9 14.31
12/24/2022 2:30:00 PM 0.69 33.242 0.029 6.53 3.77 14.31
12/24/2022 2:45:00 PM 0.68 33.224 0.029 6.53 3.18 14.31
12/24/2022 3:00:00 PM 0.67 33.206 0.029 6.53 3.13 14.3
12/24/2022 3:15:00 PM 0.67 33.206 0.029 6.53 3.11 14.3
12/24/2022 3:30:00 PM 0.65 33.17 0.029 6.53 3.39 14.3
12/24/2022 3:45:00 PM 0.63 33.134 0.029 6.52 3.6 14.3
12/24/2022 4:00:00 PM 0.62 33.116 0.029 6.53 3.43 14.3
12/24/2022 4:15:00 PM 0.6 33.08 0.029 6.52 3.48 14.29
12/24/2022 4:30:00 PM 0.58 33.044 0.029 6.52 2.96 14.28
12/24/2022 4:45:00 PM 0.57 33.026 0.029 6.51 3.45 14.28
12/24/2022 5:00:00 PM 0.55 32.99 0.029 6.5 3.35 14.27
12/24/2022 5:15:00 PM 0.55 32.99 0.029 6.5 3.28 14.26
12/24/2022 5:30:00 PM 0.54 32.972 0.029 6.5 3.02 14.25
12/24/2022 5:45:00 PM 0.53 32.954 0.029 6.5 3.28 14.25
12/24/2022 6:00:00 PM 0.53 32.954 0.029 6.5 3.19 14.25
12/24/2022 6:15:00 PM 0.54 32.972 0.029 6.5 2.99 14.24
12/24/2022 6:30:00 PM 0.54 32.972 0.029 6.5 3.38 14.24
12/24/2022 6:45:00 PM 0.56 33.008 0.029 6.5 3.23 14.24
12/24/2022 7:00:00 PM 0.58 33.044 0.029 6.51 3.06 14.24
12/24/2022 7:15:00 PM 0.59 33.062 0.029 6.5 3.16 14.24
12/24/2022 7:30:00 PM 0.59 33.062 0.029 6.51 3.25 14.24
12/24/2022 7:45:00 PM 0.59 33.062 0.029 6.5 2.74 14.25
12/24/2022 8:00:00 PM 0.59 33.062 0.029 6.5 2.81 14.25
12/24/2022 8:15:00 PM 0.6 33.08 0.029 6.5 2.6 14.25
12/24/2022 8:30:00 PM 0.6 33.08 0.029 6.5 2.59 14.25
12/24/2022 8:45:00 PM 0.61 33.098 0.029 6.51 2.52 14.25
12/24/2022 9:00:00 PM 0.61 33.098 0.029 6.51 2.5 14.25
12/24/2022 9:15:00 PM 0.62 33.116 0.029 6.5 2.62 14.25
12/24/2022 9:30:00 PM 0.63 33.134 0.029 6.5 2.53 14.25
12/24/2022 9:45:00 PM 0.63 33.134 0.029 6.5 2.43 14.25
12/24/2022 10:00:00 PM 0.63 33.134 0.029 6.5 2.58 14.25
12/24/2022 10:15:00 PM 0.63 33.134 0.029 6.5 2.48 14.25
12/24/2022 10:30:00 PM 0.63 33.134 0.029 6.51 2.68 14.25
12/24/2022 10:45:00 PM 0.63 33.134 0.029 6.49 2.47 14.25
12/24/2022 11:00:00 PM 0.63 33.134 0.029 6.51 2.55 14.25
12/24/2022 11:15:00 PM 0.65 33.17 0.029 6.5 2.53 14.24
12/24/2022 11:30:00 PM 0.65 33.17 0.029 6.5 2.46 14.24
12/24/2022 11:45:00 PM 0.66 33.188 0.029 6.5 2.68 14.24
12/25/2022 12:00:00 AM 0.67 33.206 0.029 6.5 2.74 14.23
12/25/2022 12:15:00 AM 0.68 33.224 0.029 6.51 2.75 14.22
12/25/2022 12:30:00 AM 0.7 33.26 0.029 6.51 2.55 14.21
12/25/2022 12:45:00 AM 0.71 33.278 0.029 6.5 2.63 14.21
12/25/2022 1:00:00 AM 0.72 33.296 0.029 6.51 2.38 14.2
12/25/2022 1:15:00 AM 0.74 33.332 0.029 6.51 2.46 14.2
12/25/2022 1:30:00 AM 0.75 33.35 0.029 6.51 2.36 14.19
12/25/2022 1:45:00 AM 0.75 33.35 0.029 6.51 2.79 14.19
12/25/2022 2:00:00 AM 0.76 33.368 0.029 6.51 2.34 14.19
12/25/2022 2:15:00 AM 0.76 33.368 0.029 6.51 2.37 14.19
12/25/2022 2:30:00 AM 0.78 33.404 0.029 6.5 2.38 14.19
12/25/2022 2:45:00 AM 0.78 33.404 0.029 6.51 2.36 14.18
12/25/2022 3:00:00 AM 0.79 33.422 0.029 6.51 2.32 14.18
12/25/2022 3:15:00 AM 0.79 33.422 0.029 6.5 2.57 14.18
12/25/2022 3:30:00 AM 0.8 33.44 0.029 6.51 2.49 14.17
12/25/2022 3:45:00 AM 0.81 33.458 0.029 6.51 4.4 14.17
12/25/2022 4:00:00 AM 0.82 33.476 0.029 6.5 2.29 14.17
12/25/2022 4:15:00 AM 0.86 33.548 0.029 6.51 2.57 14.15
12/25/2022 4:30:00 AM 0.89 33.602 0.029 6.51 2.25 14.14
12/25/2022 4:45:00 AM 0.91 33.638 0.029 6.51 2.41 14.14
12/25/2022 5:00:00 AM 0.93 33.674 0.029 6.5 2.23 14.12
12/25/2022 5:15:00 AM 0.95 33.71 0.029 6.51 2.39 14.12
12/25/2022 5:30:00 AM 0.97 33.746 0.029 6.51 2.49 14.11
12/25/2022 5:45:00 AM 0.98 33.764 0.029 6.5 2.29 14.1
12/25/2022 6:00:00 AM 1 33.8 0.029 6.5 2.25 14.1
12/25/2022 6:15:00 AM 1.01 33.818 0.029 6.5 2.17 14.1
12/25/2022 6:30:00 AM 1.02 33.836 0.029 6.52 2.46 14.1
12/25/2022 6:45:00 AM 1.03 33.854 0.029 6.51 2.34 14.09
12/25/2022 7:00:00 AM 1.04 33.872 0.029 6.51 2.24 14.09
12/25/2022 7:15:00 AM 1.05 33.89 0.029 6.51 2.55 14.09
12/25/2022 7:30:00 AM 1.06 33.908 0.029 6.51 2.36 14.09
12/25/2022 7:45:00 AM 1.08 33.944 0.029 6.5 2.34 14.09
12/25/2022 8:00:00 AM 1.09 33.962 0.029 6.51 2.37 14.09
12/25/2022 8:15:00 AM 1.11 33.998 0.029 6.52 2.31 14.09
12/25/2022 8:30:00 AM 1.12 34.016 0.029 6.51 2.28 14.1
12/25/2022 8:45:00 AM 1.13 34.034 0.029 6.52 2.24 14.11
12/25/2022 9:00:00 AM 1.15 34.07 0.029 6.52 2.2 14.13
12/25/2022 9:15:00 AM 1.17 34.106 0.029 6.53 2.56 14.14
12/25/2022 9:30:00 AM 1.2 34.16 0.029 6.53 2.08 14.14
12/25/2022 9:45:00 AM 1.22 34.196 0.029 6.53 2.24 14.15
12/25/2022 10:00:00 AM 1.25 34.25 0.029 6.55 2.14 14.15
12/25/2022 10:15:00 AM 1.28 34.304 0.029 6.55 2.12 14.14
12/25/2022 10:30:00 AM 1.31 34.358 0.029 6.55 2.15 14.14
12/25/2022 10:45:00 AM 1.34 34.412 0.029 6.56 2.14 14.13
12/25/2022 11:00:00 AM 1.37 34.466 0.029 6.54 2.12 14.12
12/25/2022 11:15:00 AM 1.4 34.52 0.029 6.56 2.21 14.12
12/25/2022 11:30:00 AM 1.43 34.574 0.029 6.55 2.15 14.11
12/25/2022 11:45:00 AM 1.47 34.646 0.029 6.56 2.95 14.11
12/25/2022 12:00:00 PM 1.51 34.718 0.029 6.56 2.79 14.1
12/25/2022 12:15:00 PM 1.54 34.772 0.029 6.56 2.19 14.09
12/25/2022 12:30:00 PM 1.58 34.844 0.029 6.57 2.24 14.07
12/25/2022 12:45:00 PM 1.6 34.88 0.029 6.55 2.17 14.06
12/25/2022 1:00:00 PM 1.62 34.916 0.029 6.56 2.19 14.05
12/25/2022 1:15:00 PM 1.66 34.988 0.029 6.56 2.09 14.04
12/25/2022 1:30:00 PM 1.67 35.006 0.029 6.56 2.02 14.03
12/25/2022 1:45:00 PM 1.67 35.006 0.029 6.56 2.24 14.02
12/25/2022 2:00:00 PM 1.68 35.024 0.029 6.56 2.24 14.02
12/25/2022 2:15:00 PM 1.69 35.042 0.029 6.56 2.07 14.01
12/25/2022 2:30:00 PM 1.69 35.042 0.029 6.56 2.25 14
12/25/2022 2:45:00 PM 1.69 35.042 0.029 6.57 1.95 14
12/25/2022 3:00:00 PM 1.69 35.042 0.029 6.55 2.16 14
12/25/2022 3:15:00 PM 1.69 35.042 0.029 6.55 2 14
12/25/2022 3:30:00 PM 1.68 35.024 0.029 6.55 2.3 14
12/25/2022 3:45:00 PM 1.68 35.024 0.029 6.55 2.15 14
12/25/2022 4:00:00 PM 1.66 34.988 0.029 6.54 2.13 13.99
12/25/2022 4:15:00 PM 1.65 34.97 0.029 6.55 2 13.98
12/25/2022 4:30:00 PM 1.64 34.952 0.029 6.54 2.08 13.98
12/25/2022 4:45:00 PM 1.63 34.934 0.029 6.54 2.05 13.96
12/25/2022 5:00:00 PM 1.62 34.916 0.029 6.53 2.13 13.95
12/25/2022 5:15:00 PM 1.61 34.898 0.029 6.53 1.96 13.95
12/25/2022 5:30:00 PM 1.6 34.88 0.029 6.53 1.88 13.94
12/25/2022 5:45:00 PM 1.6 34.88 0.029 6.53 2.11 13.95
12/25/2022 6:00:00 PM 1.59 34.862 0.029 6.52 2.13 13.95
12/25/2022 6:15:00 PM 1.58 34.844 0.029 6.53 2.14 13.96
12/25/2022 6:30:00 PM 1.58 34.844 0.029 6.53 2.15 13.96
12/25/2022 6:45:00 PM 1.57 34.826 0.029 6.53 2.07 13.96
12/25/2022 7:00:00 PM 1.56 34.808 0.029 6.52 2.13 13.97
12/25/2022 7:15:00 PM 1.56 34.808 0.029 6.53 2.11 13.97
12/25/2022 7:30:00 PM 1.54 34.772 0.029 6.51 2.05 13.98
12/25/2022 7:45:00 PM 1.53 34.754 0.029 6.52 2.13 13.98
12/25/2022 8:00:00 PM 1.52 34.736 0.029 6.53 2.09 13.99
12/25/2022 8:15:00 PM 1.51 34.718 0.029 6.52 2.07 13.99
12/25/2022 8:30:00 PM 1.5 34.7 0.029 6.51 2.09 14
12/25/2022 8:45:00 PM 1.48 34.664 0.029 6.52 2.05 14.01
12/25/2022 9:00:00 PM 1.47 34.646 0.029 6.52 2.12 14.01
12/25/2022 9:15:00 PM 1.47 34.646 0.029 6.52 2.1 14.01
12/25/2022 9:30:00 PM 1.45 34.61 0.029 6.52 2.04 14.02
12/25/2022 9:45:00 PM 1.44 34.592 0.029 6.51 2.12 14.02
12/25/2022 10:00:00 PM 1.43 34.574 0.029 6.52 1.97 14.03
12/25/2022 10:15:00 PM 1.42 34.556 0.029 6.52 2.08 14.03
12/25/2022 10:30:00 PM 1.42 34.556 0.029 6.51 2.04 14.04
12/25/2022 10:45:00 PM 1.41 34.538 0.029 6.51 2.09 14.04
12/25/2022 11:00:00 PM 1.4 34.52 0.029 6.51 2.07 14.05
12/25/2022 11:15:00 PM 1.39 34.502 0.029 6.51 2.07 14.06
12/25/2022 11:30:00 PM 1.37 34.466 0.029 6.51 2.03 14.06
12/25/2022 11:45:00 PM 1.36 34.448 0.029 6.52 2.04 14.07
12/26/2022 12:00:00 AM 1.35 34.43 0.029 6.51 2.04 14.08
12/26/2022 12:15:00 AM 1.34 34.412 0.029 6.51 1.99 14.08
12/26/2022 12:30:00 AM 1.33 34.394 0.029 6.51 1.99 14.08
12/26/2022 12:45:00 AM 1.33 34.394 0.029 6.52 2.03 14.09
12/26/2022 1:00:00 AM 1.32 34.376 0.029 6.5 1.99 14.09
12/26/2022 1:15:00 AM 1.31 34.358 0.029 6.5 2.02 14.09
12/26/2022 1:30:00 AM 1.3 34.34 0.029 6.51 1.97 14.1
12/26/2022 1:45:00 AM 1.28 34.304 0.029 6.5 2.03 14.11
12/26/2022 2:00:00 AM 1.28 34.304 0.029 6.51 2.03 14.11
12/26/2022 2:15:00 AM 1.27 34.286 0.029 6.51 2.03 14.12
12/26/2022 2:30:00 AM 1.27 34.286 0.029 6.52 1.93 14.12
12/26/2022 2:45:00 AM 1.27 34.286 0.029 6.49 1.98 14.12
12/26/2022 3:00:00 AM 1.26 34.268 0.029 6.5 1.98 14.13
12/26/2022 3:15:00 AM 1.26 34.268 0.029 6.5 1.97 14.13
12/26/2022 3:30:00 AM 1.25 34.25 0.029 6.5 2 14.13
12/26/2022 3:45:00 AM 1.25 34.25 0.029 6.5 1.99 14.14
12/26/2022 4:00:00 AM 1.24 34.232 0.029 6.52 1.96 14.14
12/26/2022 4:15:00 AM 1.23 34.214 0.029 6.5 1.96 14.14
12/26/2022 4:30:00 AM 1.23 34.214 0.029 6.5 1.95 14.15
12/26/2022 4:45:00 AM 1.21 34.178 0.029 6.5 1.97 14.15
12/26/2022 5:00:00 AM 1.21 34.178 0.029 6.5 1.99 14.16
12/26/2022 5:15:00 AM 1.2 34.16 0.029 6.5 2 14.16
12/26/2022 5:30:00 AM 1.18 34.124 0.029 6.5 2.03 14.17
12/26/2022 5:45:00 AM 1.18 34.124 0.029 6.5 1.93 14.17
12/26/2022 6:00:00 AM 1.17 34.106 0.029 6.5 1.9 14.18
12/26/2022 6:15:00 AM 1.16 34.088 0.029 6.5 1.9 14.18
12/26/2022 6:30:00 AM 1.15 34.07 0.029 6.5 1.96 14.2
12/26/2022 6:45:00 AM 1.15 34.07 0.029 6.5 1.92 14.2
12/26/2022 7:00:00 AM 1.14 34.052 0.029 6.5 1.91 14.2
12/26/2022 7:15:00 AM 1.13 34.034 0.029 6.5 1.95 14.21
12/26/2022 7:30:00 AM 1.12 34.016 0.029 6.49 1.91 14.22
12/26/2022 7:45:00 AM 1.1 33.98 0.029 6.5 1.93 14.22
12/26/2022 8:00:00 AM 1.09 33.962 0.029 6.5 1.88 14.24
12/26/2022 8:15:00 AM 1.1 33.98 0.029 6.5 1.95 14.25
12/26/2022 8:30:00 AM 1.11 33.998 0.029 6.5 2 14.27
12/26/2022 8:45:00 AM 1.11 33.998 0.029 6.52 1.91 14.29
12/26/2022 9:00:00 AM 1.13 34.034 0.029 6.53 1.94 14.3
12/26/2022 9:15:00 AM 1.15 34.07 0.029 6.53 1.88 14.32
12/26/2022 9:30:00 AM 1.18 34.124 0.029 6.52 1.86 14.32
12/26/2022 9:45:00 AM 1.2 34.16 0.029 6.53 1.87 14.32
12/26/2022 10:00:00 AM 1.22 34.196 0.029 6.53 1.84 14.32
12/26/2022 10:15:00 AM 1.25 34.25 0.029 6.54 1.79 14.32
12/26/2022 10:30:00 AM 1.29 34.322 0.029 6.54 1.9 14.31
12/26/2022 10:45:00 AM 1.32 34.376 0.029 6.54 1.8 14.3
12/26/2022 11:00:00 AM 1.36 34.448 0.029 6.54 1.86 14.29
12/26/2022 11:15:00 AM 1.39 34.502 0.029 6.55 1.87 14.28
12/26/2022 11:30:00 AM 1.44 34.592 0.029 6.54 1.8 14.27
12/26/2022 11:45:00 AM 1.47 34.646 0.029 6.54 1.85 14.26
12/26/2022 12:00:00 PM 1.51 34.718 0.029 6.54 1.83 14.24
12/26/2022 12:15:00 PM 1.55 34.79 0.029 6.55 1.83 14.23
12/26/2022 12:30:00 PM 1.57 34.826 0.029 6.54 1.81 14.21
12/26/2022 12:45:00 PM 1.59 34.862 0.029 6.53 1.82 14.2
12/26/2022 1:00:00 PM 1.62 34.916 0.029 6.55 1.83 14.19
12/26/2022 1:15:00 PM 1.64 34.952 0.029 6.54 1.93 14.18
12/26/2022 1:30:00 PM 1.66 34.988 0.029 6.55 1.85 14.17
12/26/2022 1:45:00 PM 1.67 35.006 0.029 6.55 1.84 14.17
12/26/2022 2:00:00 PM 1.69 35.042 0.029 6.55 1.79 14.15
12/26/2022 2:15:00 PM 1.7 35.06 0.029 6.56 1.79 14.14
12/26/2022 2:30:00 PM 1.71 35.078 0.029 6.52 1.78 14.13
12/26/2022 2:45:00 PM 1.71 35.078 0.029 6.56 1.82 14.12
12/26/2022 3:00:00 PM 1.72 35.096 0.029 6.51 1.83 14.12
12/26/2022 3:15:00 PM 1.73 35.114 0.029 6.55 1.81 14.11
12/26/2022 3:30:00 PM 1.72 35.096 0.029 6.54 1.83 14.1
12/26/2022 3:45:00 PM 1.73 35.114 0.029 6.54 1.74 14.09
12/26/2022 4:00:00 PM 1.73 35.114 0.029 6.54 2.08 14.08
12/26/2022 4:15:00 PM 1.73 35.114 0.029 6.53 1.79 14.06
12/26/2022 4:30:00 PM 1.72 35.096 0.029 6.53 1.83 14.05
12/26/2022 4:45:00 PM 1.71 35.078 0.029 6.52 1.81 14.03
12/26/2022 5:00:00 PM 1.71 35.078 0.029 6.52 1.79 14.02
12/26/2022 5:15:00 PM 1.7 35.06 0.029 6.51 1.79 14.02
12/26/2022 5:30:00 PM 1.69 35.042 0.029 6.51 1.81 14.01
12/26/2022 5:45:00 PM 1.69 35.042 0.029 6.51 1.83 14.01
12/26/2022 6:00:00 PM 1.68 35.024 0.029 6.52 1.9 14.01
12/26/2022 6:15:00 PM 1.68 35.024 0.029 6.51 1.86 14.02
12/26/2022 6:30:00 PM 1.66 34.988 0.029 6.51 1.79 14.02
12/26/2022 6:45:00 PM 1.65 34.97 0.029 6.51 1.82 14.03
12/26/2022 7:00:00 PM 1.65 34.97 0.029 6.51 1.87 14.03
12/26/2022 7:15:00 PM 1.65 34.97 0.029 6.51 1.77 14.03
12/26/2022 7:30:00 PM 1.64 34.952 0.029 6.51 1.85 14.03
12/26/2022 7:45:00 PM 1.63 34.934 0.029 6.51 1.82 14.04
12/26/2022 8:00:00 PM 1.62 34.916 0.029 6.51 1.82 14.04
12/26/2022 8:15:00 PM 1.6 34.88 0.029 6.51 1.74 14.04
12/26/2022 8:30:00 PM 1.6 34.88 0.029 6.51 1.79 14.05
12/26/2022 8:45:00 PM 1.6 34.88 0.029 6.51 1.77 14.05
12/26/2022 9:00:00 PM 1.6 34.88 0.029 6.51 1.75 14.05
12/26/2022 9:15:00 PM 1.59 34.862 0.029 6.51 1.8 14.05
12/26/2022 9:30:00 PM 1.59 34.862 0.029 6.51 1.77 14.05
12/26/2022 9:45:00 PM 1.6 34.88 0.029 6.52 1.74 14.05
12/26/2022 10:00:00 PM 1.6 34.88 0.029 6.51 1.75 14.06
12/26/2022 10:15:00 PM 1.6 34.88 0.029 6.51 1.79 14.05
12/26/2022 10:30:00 PM 1.6 34.88 0.029 6.51 1.74 14.05
12/26/2022 10:45:00 PM 1.6 34.88 0.029 6.51 1.91 14.05
12/26/2022 11:00:00 PM 1.61 34.898 0.029 6.51 1.79 14.05
12/26/2022 11:15:00 PM 1.61 34.898 0.029 6.51 1.7 14.05
12/26/2022 11:30:00 PM 1.61 34.898 0.029 6.51 1.8 14.04
12/26/2022 11:45:00 PM 1.62 34.916 0.029 6.5 2.23 14.04
12/27/2022 12:00:00 AM 1.62 34.916 0.029 6.51 1.78 14.04
12/27/2022 12:15:00 AM 1.62 34.916 0.029 6.52 1.77 14.04
12/27/2022 12:30:00 AM 1.63 34.934 0.029 6.51 1.75 14.04
12/27/2022 12:45:00 AM 1.63 34.934 0.029 6.52 1.74 14.04
12/27/2022 1:00:00 AM 1.63 34.934 0.029 6.52 1.67 14.04
12/27/2022 1:15:00 AM 1.63 34.934 0.029 6.51 1.78 14.03
12/27/2022 1:30:00 AM 1.64 34.952 0.029 6.51 1.79 14.03
12/27/2022 1:45:00 AM 1.64 34.952 0.029 6.52 1.77 14.03
12/27/2022 2:00:00 AM 1.64 34.952 0.029 6.51 1.75 14.03
12/27/2022 2:15:00 AM 1.64 34.952 0.029 6.5 1.91 14.03
12/27/2022 2:30:00 AM 1.64 34.952 0.029 6.51 1.73 14.03
12/27/2022 2:45:00 AM 1.63 34.934 0.029 6.51 1.75 14.03
12/27/2022 3:00:00 AM 1.63 34.934 0.029 6.51 1.74 14.03
12/27/2022 3:15:00 AM 1.63 34.934 0.029 6.51 1.68 14.03
12/27/2022 3:30:00 AM 1.63 34.934 0.029 6.51 1.7 14.03
12/27/2022 3:45:00 AM 1.64 34.952 0.029 6.51 1.73 14.03
12/27/2022 4:00:00 AM 1.65 34.97 0.029 6.51 1.65 14.03
12/27/2022 4:15:00 AM 1.65 34.97 0.029 6.51 1.73 14.03
12/27/2022 4:30:00 AM 1.65 34.97 0.029 6.51 1.73 14.03
12/27/2022 4:45:00 AM 1.65 34.97 0.029 6.51 1.7 14.02
12/27/2022 5:00:00 AM 1.66 34.988 0.029 6.51 1.7 14.03
12/27/2022 5:15:00 AM 1.66 34.988 0.029 6.52 1.78 14.03
12/27/2022 5:30:00 AM 1.66 34.988 0.029 6.51 1.71 14.03
12/27/2022 5:45:00 AM 1.66 34.988 0.029 6.51 1.7 14.03
12/27/2022 6:00:00 AM 1.67 35.006 0.029 6.52 1.67 14.03
12/27/2022 6:15:00 AM 1.67 35.006 0.029 6.51 1.73 14.03
12/27/2022 6:30:00 AM 1.67 35.006 0.029 6.5 1.64 14.03
12/27/2022 6:45:00 AM 1.68 35.024 0.029 6.51 1.67 14.03
12/27/2022 7:00:00 AM 1.68 35.024 0.029 6.51 1.7 14.03
12/27/2022 7:15:00 AM 1.69 35.042 0.029 6.5 1.75 14.03
12/27/2022 7:30:00 AM 1.69 35.042 0.029 6.51 1.63 14.03
12/27/2022 7:45:00 AM 1.7 35.06 0.029 6.51 1.73 14.03
12/27/2022 8:00:00 AM 1.7 35.06 0.029 6.51 1.7 14.04
12/27/2022 8:15:00 AM 1.71 35.078 0.029 6.51 1.68 14.05
12/27/2022 8:30:00 AM 1.72 35.096 0.029 6.51 1.66 14.06
12/27/2022 8:45:00 AM 1.73 35.114 0.029 6.51 1.78 14.08
12/27/2022 9:00:00 AM 1.75 35.15 0.029 6.52 1.68 14.09
12/27/2022 9:15:00 AM 1.76 35.168 0.029 6.52 1.72 14.1
12/27/2022 9:30:00 AM 1.78 35.204 0.029 6.52 1.72 14.1
12/27/2022 9:45:00 AM 1.8 35.24 0.029 6.52 1.63 14.11
12/27/2022 10:00:00 AM 1.82 35.276 0.029 6.52 1.65 14.11
12/27/2022 10:15:00 AM 1.85 35.33 0.029 6.53 1.63 14.12
12/27/2022 10:30:00 AM 1.88 35.384 0.029 6.53 1.66 14.12
12/27/2022 10:45:00 AM 1.9 35.42 0.029 6.53 1.61 14.12
12/27/2022 11:00:00 AM 1.93 35.474 0.029 6.53 1.65 14.11
12/27/2022 11:15:00 AM 1.96 35.528 0.029 6.54 1.67 14.1
12/27/2022 11:30:00 AM 1.98 35.564 0.029 6.53 1.65 14.1
12/27/2022 11:45:00 AM 2 35.6 0.029 6.54 1.7 14.09
12/27/2022 12:00:00 PM 2.03 35.654 0.029 6.53 1.62 14.08
12/27/2022 12:15:00 PM 2.05 35.69 0.029 6.54 1.64 14.07
12/27/2022 12:30:00 PM 2.08 35.744 0.029 6.54 1.58 14.07
12/27/2022 12:45:00 PM 2.1 35.78 0.029 6.54 1.62 14.05
12/27/2022 1:00:00 PM 2.12 35.816 0.029 6.54 1.63 14.04
12/27/2022 1:15:00 PM 2.14 35.852 0.029 6.54 1.66 14.03
12/27/2022 1:30:00 PM 2.15 35.87 0.029 6.53 1.68 14.01
12/27/2022 1:45:00 PM 2.16 35.888 0.029 6.53 1.63 14
12/27/2022 2:00:00 PM 2.17 35.906 0.029 6.53 1.59 13.99
12/27/2022 2:15:00 PM 2.18 35.924 0.029 6.53 1.66 13.98
12/27/2022 2:30:00 PM 2.2 35.96 0.029 6.52 1.61 13.96
12/27/2022 2:45:00 PM 2.21 35.978 0.029 6.54 1.57 13.96
12/27/2022 3:00:00 PM 2.22 35.996 0.029 6.52 1.64 13.95
12/27/2022 3:15:00 PM 2.23 36.014 0.029 6.53 1.6 13.95
12/27/2022 3:30:00 PM 2.24 36.032 0.029 6.53 1.65 13.93
12/27/2022 3:45:00 PM 2.24 36.032 0.029 6.52 1.69 13.93
12/27/2022 4:00:00 PM 2.25 36.05 0.029 6.53 1.59 13.92
12/27/2022 4:15:00 PM 2.25 36.05 0.029 6.52 1.62 13.9
12/27/2022 4:30:00 PM 2.25 36.05 0.029 6.52 1.6 13.88
12/27/2022 4:45:00 PM 2.26 36.068 0.029 6.51 1.61 13.86
12/27/2022 5:00:00 PM 2.26 36.068 0.029 6.51 1.61 13.85
12/27/2022 5:15:00 PM 2.26 36.068 0.029 6.5 1.66 13.83
12/27/2022 5:30:00 PM 2.26 36.068 0.029 6.5 1.62 13.82
12/27/2022 5:45:00 PM 2.26 36.068 0.029 6.5 1.68 13.81
12/27/2022 6:00:00 PM 2.27 36.086 0.029 6.5 1.67 13.82
12/27/2022 6:15:00 PM 2.27 36.086 0.029 6.51 1.66 13.82
12/27/2022 6:30:00 PM 2.27 36.086 0.029 6.5 1.66 13.82
12/27/2022 6:45:00 PM 2.28 36.104 0.029 6.5 1.62 13.81
12/27/2022 7:00:00 PM 2.28 36.104 0.029 6.5 1.68 13.81
12/27/2022 7:15:00 PM 2.29 36.122 0.029 6.5 1.69 13.81
12/27/2022 7:30:00 PM 2.29 36.122 0.029 6.5 1.62 13.8
12/27/2022 7:45:00 PM 2.3 36.14 0.029 6.5 2.16 13.81
12/27/2022 8:00:00 PM 2.3 36.14 0.029 6.51 1.64 13.81
12/27/2022 8:15:00 PM 2.3 36.14 0.029 6.51 1.62 13.8
12/27/2022 8:30:00 PM 2.31 36.158 0.029 6.51 1.75 13.8
12/27/2022 8:45:00 PM 2.32 36.176 0.029 6.51 1.75 13.8
12/27/2022 9:00:00 PM 2.32 36.176 0.029 6.49 1.61 13.79
12/27/2022 9:15:00 PM 2.32 36.176 0.029 6.51 1.62 13.79
12/27/2022 9:30:00 PM 2.33 36.194 0.029 6.49 1.6 13.78
12/27/2022 9:45:00 PM 2.33 36.194 0.029 6.5 1.6 13.78
12/27/2022 10:00:00 PM 2.34 36.212 0.029 6.51 1.63 13.78
12/27/2022 10:15:00 PM 2.34 36.212 0.029 6.5 1.61 13.78
12/27/2022 10:30:00 PM 2.34 36.212 0.029 6.5 1.66 13.78
12/27/2022 10:45:00 PM 2.35 36.23 0.029 6.5 1.59 13.78
12/27/2022 11:00:00 PM 2.35 36.23 0.029 6.51 1.58 13.77
12/27/2022 11:15:00 PM 2.35 36.23 0.029 6.5 1.64 13.77
12/27/2022 11:30:00 PM 2.36 36.248 0.029 6.5 1.7 13.77
12/27/2022 11:45:00 PM 2.36 36.248 0.029 6.5 1.68 13.76
12/28/2022 12:00:00 AM 2.37 36.266 0.029 6.51 1.62 13.76
12/28/2022 12:15:00 AM 2.37 36.266 0.029 6.51 1.61 13.75
12/28/2022 12:30:00 AM 2.37 36.266 0.029 6.51 1.63 13.75
12/28/2022 12:45:00 AM 2.38 36.284 0.029 6.52 1.69 13.75
12/28/2022 1:00:00 AM 2.38 36.284 0.029 6.49 1.64 13.75
12/28/2022 1:15:00 AM 2.38 36.284 0.029 6.51 1.6 13.74
12/28/2022 1:30:00 AM 2.39 36.302 0.029 6.51 1.65 13.74
12/28/2022 1:45:00 AM 2.39 36.302 0.029 6.51 1.58 13.74
12/28/2022 2:00:00 AM 2.4 36.32 0.029 6.51 1.53 13.74
12/28/2022 2:15:00 AM 2.4 36.32 0.029 6.5 1.58 13.74
12/28/2022 2:30:00 AM 2.4 36.32 0.029 6.5 1.63 13.73
12/28/2022 2:45:00 AM 2.4 36.32 0.029 6.51 1.53 13.73
12/28/2022 3:00:00 AM 2.4 36.32 0.029 6.51 1.65 13.73
12/28/2022 3:15:00 AM 2.38 36.284 0.029 6.49 1.67 13.73
12/28/2022 3:30:00 AM 2.36 36.248 0.029 6.5 1.63 13.74
12/28/2022 3:45:00 AM 2.34 36.212 0.029 6.5 1.6 13.75
12/28/2022 4:00:00 AM 2.33 36.194 0.029 6.5 1.67 13.75
12/28/2022 4:15:00 AM 2.31 36.158 0.029 6.5 1.63 13.76
12/28/2022 4:30:00 AM 2.29 36.122 0.029 6.5 1.74 13.76
12/28/2022 4:45:00 AM 2.27 36.086 0.029 6.5 1.59 13.77
12/28/2022 5:00:00 AM 2.25 36.05 0.029 6.5 1.61 13.78
12/28/2022 5:15:00 AM 2.23 36.014 0.029 6.49 1.64 13.78
12/28/2022 5:30:00 AM 2.21 35.978 0.029 6.5 1.57 13.8
12/28/2022 5:45:00 AM 2.18 35.924 0.03 6.51 1.63 13.81
12/28/2022 6:00:00 AM 2.16 35.888 0.03 6.5 1.77 13.82
12/28/2022 6:15:00 AM 2.15 35.87 0.03 6.5 1.64 13.83
12/28/2022 6:30:00 AM 2.13 35.834 0.03 6.51 1.52 13.83
12/28/2022 6:45:00 AM 2.11 35.798 0.03 6.5 1.59 13.84
12/28/2022 7:00:00 AM 2.08 35.744 0.03 6.49 1.63 13.85
12/28/2022 7:15:00 AM 2.06 35.708 0.03 6.5 1.55 13.86
12/28/2022 7:30:00 AM 2.03 35.654 0.03 6.49 1.56 13.87
12/28/2022 7:45:00 AM 2.01 35.618 0.03 6.51 1.57 13.89
12/28/2022 8:00:00 AM 1.99 35.582 0.03 6.49 1.61 13.91
12/28/2022 8:15:00 AM 1.98 35.564 0.03 6.5 1.53 13.94
12/28/2022 8:30:00 AM 1.96 35.528 0.029 6.51 1.64 13.97
12/28/2022 8:45:00 AM 1.95 35.51 0.029 6.53 1.59 14
12/28/2022 9:00:00 AM 1.96 35.528 0.029 6.52 1.55 14.03
12/28/2022 9:15:00 AM 1.98 35.564 0.029 6.53 1.57 14.05
12/28/2022 9:30:00 AM 1.98 35.564 0.029 6.54 1.7 14.06
12/28/2022 9:45:00 AM 1.98 35.564 0.029 6.53 1.51 14.06
12/28/2022 10:00:00 AM 2.02 35.636 0.029 6.53 1.59 14.06
12/28/2022 10:15:00 AM 2.09 35.762 0.029 6.54 1.49 14.07
12/28/2022 10:30:00 AM 2.1 35.78 0.029 6.55 1.58 14.05
12/28/2022 10:45:00 AM 2.16 35.888 0.029 6.54 1.55 14.05
12/28/2022 11:00:00 AM 2.22 35.996 0.029 6.54 1.55 14.03
12/28/2022 11:15:00 AM 2.28 36.104 0.029 6.56 1.55 14.02
12/28/2022 11:30:00 AM 2.34 36.212 0.029 6.51 1.59 13.99
12/28/2022 11:45:00 AM 2.4 36.32 0.029 6.55 1.57 13.97
12/28/2022 12:00:00 PM 2.44 36.392 0.029 6.55 1.53 13.93
12/28/2022 12:15:00 PM 2.53 36.554 0.029 6.55 1.56 13.91
12/28/2022 12:30:00 PM 2.63 36.734 0.029 6.55 1.52 13.88
12/28/2022 12:45:00 PM 2.71 36.878 0.029 6.55 1.48 13.85
12/28/2022 1:00:00 PM 2.78 37.004 0.029 6.55 1.53 13.83
12/28/2022 1:15:00 PM 2.85 37.13 0.029 6.56 1.48 13.8
12/28/2022 1:30:00 PM 2.93 37.274 0.029 6.56 1.56 13.77
12/28/2022 1:45:00 PM 3.01 37.418 0.029 6.56 1.52 13.75
12/28/2022 2:00:00 PM 3.04 37.472 0.029 6.56 1.58 13.73
12/28/2022 2:15:00 PM 3.09 37.562 0.029 6.56 1.58 13.71
12/28/2022 2:30:00 PM 3.13 37.634 0.029 6.57 1.54 13.69
12/28/2022 2:45:00 PM 3.18 37.724 0.029 6.56 1.49 13.68
12/28/2022 3:00:00 PM 3.22 37.796 0.029 6.57 1.49 13.66
12/28/2022 3:15:00 PM 3.24 37.832 0.029 6.56 1.46 13.64
12/28/2022 3:30:00 PM 3.25 37.85 0.029 6.56 1.55 13.62
12/28/2022 3:45:00 PM 3.25 37.85 0.029 6.54 1.57 13.61
12/28/2022 4:00:00 PM 3.24 37.832 0.029 6.56 1.56 13.6
12/28/2022 4:15:00 PM 3.23 37.814 0.029 6.55 1.5 13.58
12/28/2022 4:30:00 PM 3.21 37.778 0.029 6.54 1.61 13.56
12/28/2022 4:45:00 PM 3.2 37.76 0.029 6.53 1.56 13.53
12/28/2022 5:00:00 PM 3.17 37.706 0.029 6.54 1.54 13.51
12/28/2022 5:15:00 PM 3.15 37.67 0.029 6.51 1.5 13.5
12/28/2022 5:30:00 PM 3.13 37.634 0.029 6.51 1.52 13.49
12/28/2022 5:45:00 PM 3.11 37.598 0.029 6.52 1.58 13.5
12/28/2022 6:00:00 PM 3.08 37.544 0.029 6.51 1.56 13.5
12/28/2022 6:15:00 PM 3.06 37.508 0.029 6.51 1.59 13.51
12/28/2022 6:30:00 PM 3.05 37.49 0.029 6.52 1.54 13.51
12/28/2022 6:45:00 PM 3.02 37.436 0.029 6.52 1.62 13.52
12/28/2022 7:00:00 PM 3.01 37.418 0.029 6.52 1.56 13.53
12/28/2022 7:15:00 PM 2.99 37.382 0.03 6.51 1.53 13.52
12/28/2022 7:30:00 PM 2.97 37.346 0.03 6.51 1.59 13.53
12/28/2022 7:45:00 PM 2.95 37.31 0.03 6.52 1.64 13.54
12/28/2022 8:00:00 PM 2.93 37.274 0.03 6.51 1.53 13.55
12/28/2022 8:15:00 PM 2.91 37.238 0.03 6.51 1.53 13.56
12/28/2022 8:30:00 PM 2.89 37.202 0.03 6.51 1.85 13.57
12/28/2022 8:45:00 PM 2.87 37.166 0.03 6.51 1.76 13.57
12/28/2022 9:00:00 PM 2.85 37.13 0.03 6.51 1.63 13.57
12/28/2022 9:15:00 PM 2.83 37.094 0.03 6.51 1.62 13.58
12/28/2022 9:30:00 PM 2.81 37.058 0.03 6.51 2.06 13.59
12/28/2022 9:45:00 PM 2.79 37.022 0.03 6.5 1.59 13.59
12/28/2022 10:00:00 PM 2.77 36.986 0.03 6.5 1.63 13.6
12/28/2022 10:15:00 PM 2.75 36.95 0.03 6.5 1.57 13.61
12/28/2022 10:30:00 PM 2.73 36.914 0.03 6.51 1.59 13.61
12/28/2022 10:45:00 PM 2.7 36.86 0.03 6.5 1.51 13.62
12/28/2022 11:00:00 PM 2.68 36.824 0.03 6.51 1.59 13.63
12/28/2022 11:15:00 PM 2.66 36.788 0.03 6.51 1.64 13.63
12/28/2022 11:30:00 PM 2.64 36.752 0.03 6.51 1.59 13.65
12/28/2022 11:45:00 PM 2.62 36.716 0.03 6.51 1.62 13.65
12/29/2022 12:00:00 AM 2.61 36.698 0.03 6.51 1.59 13.66
12/29/2022 12:15:00 AM 2.59 36.662 0.03 6.5 1.56 13.66
12/29/2022 12:30:00 AM 2.57 36.626 0.03 6.51 1.54 13.67
12/29/2022 12:45:00 AM 2.54 36.572 0.03 6.5 1.57 13.68
12/29/2022 1:00:00 AM 2.52 36.536 0.03 6.51 1.61 13.69
12/29/2022 1:15:00 AM 2.5 36.5 0.03 6.5 1.65 13.69
12/29/2022 1:30:00 AM 2.47 36.446 0.03 6.5 1.54 13.7
12/29/2022 1:45:00 AM 2.45 36.41 0.03 6.51 1.53 13.71
12/29/2022 2:00:00 AM 2.43 36.374 0.03 6.5 1.55 13.72
12/29/2022 2:15:00 AM 2.41 36.338 0.03 6.5 1.52 13.73
12/29/2022 2:30:00 AM 2.38 36.284 0.03 6.49 1.58 13.74
12/29/2022 2:45:00 AM 2.36 36.248 0.03 6.5 1.64 13.74
12/29/2022 3:00:00 AM 2.33 36.194 0.03 6.5 1.52 13.75
12/29/2022 3:15:00 AM 2.31 36.158 0.03 6.5 1.59 13.77
12/29/2022 3:30:00 AM 2.28 36.104 0.03 6.5 1.54 13.78
12/29/2022 3:45:00 AM 2.25 36.05 0.03 6.5 1.57 13.79
12/29/2022 4:00:00 AM 2.22 35.996 0.03 6.49 1.61 13.8
12/29/2022 4:15:00 AM 2.19 35.942 0.03 6.5 1.52 13.81
12/29/2022 4:30:00 AM 2.16 35.888 0.03 6.5 1.57 13.82
12/29/2022 4:45:00 AM 2.13 35.834 0.03 6.51 1.57 13.83
12/29/2022 5:00:00 AM 2.11 35.798 0.03 6.49 1.55 13.85
12/29/2022 5:15:00 AM 2.07 35.726 0.03 6.5 1.5 13.86
12/29/2022 5:30:00 AM 2.05 35.69 0.03 6.49 1.47 13.87
12/29/2022 5:45:00 AM 2.01 35.618 0.03 6.5 1.54 13.89
12/29/2022 6:00:00 AM 1.98 35.564 0.03 6.5 1.53 13.9
12/29/2022 6:15:00 AM 1.95 35.51 0.03 6.5 1.52 13.91
12/29/2022 6:30:00 AM 1.92 35.456 0.03 6.5 1.63 13.92
12/29/2022 6:45:00 AM 1.89 35.402 0.03 6.5 1.51 13.94
12/29/2022 7:00:00 AM 1.86 35.348 0.03 6.49 1.79 13.95
12/29/2022 7:15:00 AM 1.83 35.294 0.03 6.5 1.71 13.96
12/29/2022 7:30:00 AM 1.8 35.24 0.03 6.5 1.51 13.97
12/29/2022 7:45:00 AM 1.77 35.186 0.03 6.5 1.52 13.99
12/29/2022 8:00:00 AM 1.74 35.132 0.03 6.51 1.55 14.02
12/29/2022 8:15:00 AM 1.72 35.096 0.03 6.5 1.53 14.05
12/29/2022 8:30:00 AM 1.69 35.042 0.03 6.52 1.49 14.08
12/29/2022 8:45:00 AM 1.68 35.024 0.03 6.5 1.59 14.11
12/29/2022 9:00:00 AM 1.66 34.988 0.03 6.52 1.53 14.13
12/29/2022 9:15:00 AM 1.65 34.97 0.03 6.53 1.48 14.15
12/29/2022 9:30:00 AM 1.64 34.952 0.03 6.54 1.44 14.16
12/29/2022 9:45:00 AM 1.65 34.97 0.03 6.48 1.48 14.18
12/29/2022 10:00:00 AM 1.68 35.024 0.03 6.53 1.51 14.19
12/29/2022 10:15:00 AM 1.74 35.132 0.03 6.54 1.48 14.2
12/29/2022 10:30:00 AM 1.77 35.186 0.03 6.54 1.47 14.2
12/29/2022 10:45:00 AM 1.86 35.348 0.03 6.54 1.57 14.19
12/29/2022 11:00:00 AM 1.94 35.492 0.03 6.55 1.43 14.17
12/29/2022 11:15:00 AM 2 35.6 0.03 6.55 1.53 14.15
12/29/2022 11:30:00 AM 2.06 35.708 0.03 6.56 1.4 14.14
12/29/2022 11:45:00 AM 2.13 35.834 0.03 6.55 1.48 14.11
12/29/2022 12:00:00 PM 2.2 35.96 0.03 6.55 1.46 14.07
12/29/2022 12:15:00 PM 2.26 36.068 0.03 6.55 1.45 14.03
12/29/2022 12:30:00 PM 2.34 36.212 0.029 6.56 1.47 14
12/29/2022 12:45:00 PM 2.42 36.356 0.029 6.55 1.56 13.98
12/29/2022 1:00:00 PM 2.52 36.536 0.029 6.55 1.45 13.95
12/29/2022 1:15:00 PM 2.59 36.662 0.029 6.55 1.49 13.92
12/29/2022 1:30:00 PM 2.63 36.734 0.029 6.56 1.43 13.9
12/29/2022 1:45:00 PM 2.73 36.914 0.029 6.55 1.69 13.86
12/29/2022 2:00:00 PM 2.82 37.076 0.029 6.56 1.46 13.83
12/29/2022 2:15:00 PM 2.92 37.256 0.029 6.56 1.5 13.79
12/29/2022 2:30:00 PM 2.98 37.364 0.029 6.55 1.41 13.76
12/29/2022 2:45:00 PM 3.03 37.454 0.029 6.56 1.43 13.73
12/29/2022 3:00:00 PM 3.07 37.526 0.029 6.55 1.45 13.7
12/29/2022 3:15:00 PM 3.08 37.544 0.029 6.55 1.51 13.68
12/29/2022 3:30:00 PM 3.12 37.616 0.029 6.56 1.48 13.66
12/29/2022 3:45:00 PM 3.15 37.67 0.029 6.55 1.48 13.63
12/29/2022 4:00:00 PM 3.16 37.688 0.029 6.55 1.5 13.6
12/29/2022 4:15:00 PM 3.18 37.724 0.03 6.54 1.46 13.56
12/29/2022 4:30:00 PM 3.2 37.76 0.03 6.54 1.47 13.54
12/29/2022 4:45:00 PM 3.21 37.778 0.03 6.53 1.43 13.52
12/29/2022 5:00:00 PM 3.2 37.76 0.03 6.54 1.47 13.5
12/29/2022 5:15:00 PM 3.18 37.724 0.03 6.53 1.45 13.48
12/29/2022 5:30:00 PM 3.17 37.706 0.03 6.52 4.04 13.47
12/29/2022 5:45:00 PM 3.16 37.688 0.03 6.51 1.58 13.47
12/29/2022 6:00:00 PM 3.18 37.724 0.03 6.52 1.45 13.47
12/29/2022 6:15:00 PM 3.2 37.76 0.03 6.51 1.46 13.46
12/29/2022 6:30:00 PM 3.21 37.778 0.03 6.51 1.48 13.46
12/29/2022 6:45:00 PM 3.21 37.778 0.03 6.51 1.49 13.46
12/29/2022 7:00:00 PM 3.22 37.796 0.03 6.51 1.46 13.46
12/29/2022 7:15:00 PM 3.23 37.814 0.03 6.51 1.53 13.46
12/29/2022 7:30:00 PM 3.24 37.832 0.03 6.51 1.5 13.45
12/29/2022 7:45:00 PM 3.25 37.85 0.03 6.52 1.57 13.45
12/29/2022 8:00:00 PM 3.26 37.868 0.03 6.51 1.53 13.45
12/29/2022 8:15:00 PM 3.28 37.904 0.03 6.51 1.6 13.44
12/29/2022 8:30:00 PM 3.29 37.922 0.03 6.51 1.49 13.44
12/29/2022 8:45:00 PM 3.3 37.94 0.03 6.51 1.51 13.43
12/29/2022 9:00:00 PM 3.31 37.958 0.03 6.5 1.51 13.43
12/29/2022 9:15:00 PM 3.33 37.994 0.03 6.51 1.49 13.43
12/29/2022 9:30:00 PM 3.34 38.012 0.03 6.51 1.62 13.43
12/29/2022 9:45:00 PM 3.35 38.03 0.03 6.5 1.57 13.42
12/29/2022 10:00:00 PM 3.35 38.03 0.03 6.5 1.52 13.42
12/29/2022 10:15:00 PM 3.37 38.066 0.03 6.5 1.58 13.42
12/29/2022 10:30:00 PM 3.38 38.084 0.03 6.5 1.5 13.42
12/29/2022 10:45:00 PM 3.39 38.102 0.03 6.5 1.6 13.42
12/29/2022 11:00:00 PM 3.4 38.12 0.03 6.5 1.51 13.41
12/29/2022 11:15:00 PM 3.4 38.12 0.03 6.49 1.53 13.41
12/29/2022 11:30:00 PM 3.41 38.138 0.03 6.5 1.52 13.4
12/29/2022 11:45:00 PM 3.42 38.156 0.03 6.5 1.51 13.4
12/30/2022 12:00:00 AM 3.43 38.174 0.03 6.5 1.55 13.4
12/30/2022 12:15:00 AM 3.44 38.192 0.03 6.5 1.52 13.39
12/30/2022 12:30:00 AM 3.45 38.21 0.03 6.5 1.53 13.39
12/30/2022 12:45:00 AM 3.46 38.228 0.03 6.5 1.49 13.39
12/30/2022 1:00:00 AM 3.46 38.228 0.03 6.5 1.53 13.39
12/30/2022 1:15:00 AM 3.47 38.246 0.03 6.5 1.52 13.38
12/30/2022 1:30:00 AM 3.48 38.264 0.03 6.51 1.56 13.38
12/30/2022 1:45:00 AM 3.49 38.282 0.03 6.5 1.52 13.38
12/30/2022 2:00:00 AM 3.5 38.3 0.03 6.5 1.54 13.38
12/30/2022 2:15:00 AM 3.51 38.318 0.03 6.5 1.46 13.37
12/30/2022 2:30:00 AM 3.51 38.318 0.03 6.5 1.52 13.37
12/30/2022 2:45:00 AM 3.52 38.336 0.03 6.51 1.47 13.37
12/30/2022 3:00:00 AM 3.53 38.354 0.03 6.5 1.56 13.37
12/30/2022 3:15:00 AM 3.53 38.354 0.03 6.51 1.54 13.37
12/30/2022 3:30:00 AM 3.52 38.336 0.03 6.51 1.55 13.37
12/30/2022 3:45:00 AM 3.52 38.336 0.03 6.5 1.52 13.36
12/30/2022 4:00:00 AM 3.53 38.354 0.03 6.51 1.52 13.36
12/30/2022 4:15:00 AM 3.54 38.372 0.03 6.5 1.56 13.36
12/30/2022 4:30:00 AM 3.54 38.372 0.03 6.5 1.5 13.36
12/30/2022 4:45:00 AM 3.55 38.39 0.03 6.51 1.52 13.36
12/30/2022 5:00:00 AM 3.56 38.408 0.03 6.5 1.5 13.35
12/30/2022 5:15:00 AM 3.56 38.408 0.03 6.5 1.55 13.35
12/30/2022 5:30:00 AM 3.57 38.426 0.03 6.49 1.45 13.35
12/30/2022 5:45:00 AM 3.58 38.444 0.03 6.5 1.45 13.34
12/30/2022 6:00:00 AM 3.58 38.444 0.03 6.5 1.54 13.35
12/30/2022 6:15:00 AM 3.59 38.462 0.03 6.5 1.48 13.34
12/30/2022 6:30:00 AM 3.6 38.48 0.03 6.5 1.53 13.34
12/30/2022 6:45:00 AM 3.61 38.498 0.03 6.49 1.55 13.34
12/30/2022 7:00:00 AM 3.61 38.498 0.03 6.5 1.47 13.34
12/30/2022 7:15:00 AM 3.62 38.516 0.03 6.5 1.51 13.33
12/30/2022 7:30:00 AM 3.62 38.516 0.03 6.49 1.62 13.33
12/30/2022 7:45:00 AM 3.62 38.516 0.03 6.49 1.55 13.34
12/30/2022 8:00:00 AM 3.63 38.534 0.03 6.5 1.48 13.35
12/30/2022 8:15:00 AM 3.64 38.552 0.03 6.5 1.71 13.36
12/30/2022 8:30:00 AM 3.66 38.588 0.03 6.51 1.52 13.38
12/30/2022 8:45:00 AM 3.67 38.606 0.03 6.52 1.52 13.39
12/30/2022 9:00:00 AM 3.68 38.624 0.03 6.52 1.5 13.39
12/30/2022 9:15:00 AM 3.7 38.66 0.029 6.53 1.55 13.42
12/30/2022 9:30:00 AM 3.73 38.714 0.03 6.53 1.42 13.43
12/30/2022 9:45:00 AM 3.76 38.768 0.029 6.55 1.53 13.46
12/30/2022 10:00:00 AM 3.79 38.822 0.029 6.55 1.54 13.47
12/30/2022 10:15:00 AM 3.82 38.876 0.029 6.55 1.48 13.47
12/30/2022 10:30:00 AM 3.82 38.876 0.029 6.56 1.48 13.47
12/30/2022 10:45:00 AM 3.85 38.93 0.029 6.56 1.46 13.46
12/30/2022 11:00:00 AM 3.91 39.038 0.029 6.57 1.46 13.46
12/30/2022 11:15:00 AM 4 39.2 0.029 6.56 1.46 13.46
12/30/2022 11:30:00 AM 4.07 39.326 0.029 6.56 1.44 13.44
12/30/2022 11:45:00 AM 4.09 39.362 0.029 6.57 1.51 13.43
12/30/2022 12:00:00 PM 4.1 39.38 0.029 6.57 1.57 13.41
12/30/2022 12:15:00 PM 4.16 39.488 0.029 6.57 1.55 13.4
12/30/2022 12:30:00 PM 4.21 39.578 0.029 6.57 1.56 13.37
12/30/2022 12:45:00 PM 4.25 39.65 0.029 6.57 1.68 13.36
12/30/2022 1:00:00 PM 4.28 39.704 0.029 6.57 1.57 13.34
12/30/2022 1:15:00 PM 4.32 39.776 0.029 6.58 1.84 13.33
12/30/2022 1:30:00 PM 4.36 39.848 0.029 6.57 1.52 13.31
12/30/2022 1:45:00 PM 4.4 39.92 0.029 6.58 1.53 13.3
12/30/2022 2:00:00 PM 4.45 40.01 0.029 6.58 2.06 13.29
12/30/2022 2:15:00 PM 4.52 40.136 0.029 6.58 1.48 13.27
12/30/2022 2:30:00 PM 4.52 40.136 0.029 6.58 1.51 13.25
12/30/2022 2:45:00 PM 4.55 40.19 0.029 6.57 1.54 13.24
12/30/2022 3:00:00 PM 4.53 40.154 0.029 6.59 1.58 13.23
12/30/2022 3:15:00 PM 4.52 40.136 0.029 6.58 1.53 13.21
12/30/2022 3:30:00 PM 4.52 40.136 0.029 6.58 1.53 13.2
12/30/2022 3:45:00 PM 4.51 40.118 0.029 6.58 1.62 13.19
12/30/2022 4:00:00 PM 4.47 40.046 0.029 6.57 1.63 13.18
12/30/2022 4:15:00 PM 4.44 39.992 0.029 6.57 1.65 13.17
12/30/2022 4:30:00 PM 4.41 39.938 0.029 6.55 1.68 13.15
12/30/2022 4:45:00 PM 4.37 39.866 0.029 6.55 1.74 13.12
12/30/2022 5:00:00 PM 4.33 39.794 0.029 6.54 1.9 13.11
12/30/2022 5:15:00 PM 4.3 39.74 0.029 6.53 1.82 13.1
12/30/2022 5:30:00 PM 4.27 39.686 0.029 6.52 1.89 13.09
12/30/2022 5:45:00 PM 4.24 39.632 0.029 6.52 1.9 13.1
12/30/2022 6:00:00 PM 4.2 39.56 0.029 6.52 1.94 13.11
12/30/2022 6:15:00 PM 4.18 39.524 0.029 6.51 2.09 13.12
12/30/2022 6:30:00 PM 4.15 39.47 0.029 6.51 1.95 13.13
12/30/2022 6:45:00 PM 4.12 39.416 0.029 6.51 1.96 13.13
12/30/2022 7:00:00 PM 4.09 39.362 0.029 6.51 1.93 13.15
12/30/2022 7:15:00 PM 4.07 39.326 0.029 6.51 2.11 13.15
12/30/2022 7:30:00 PM 4.05 39.29 0.029 6.51 1.92 13.16
12/30/2022 7:45:00 PM 4.03 39.254 0.029 6.51 1.89 13.17
12/30/2022 8:00:00 PM 4.01 39.218 0.029 6.5 1.9 13.17
12/30/2022 8:15:00 PM 3.99 39.182 0.029 6.49 1.9 13.17
12/30/2022 8:30:00 PM 3.96 39.128 0.029 6.5 1.94 13.18
12/30/2022 8:45:00 PM 3.94 39.092 0.029 6.5 1.89 13.19
12/30/2022 9:00:00 PM 3.93 39.074 0.029 6.5 1.86 13.2
12/30/2022 9:15:00 PM 3.91 39.038 0.029 6.5 1.84 13.2
12/30/2022 9:30:00 PM 3.88 38.984 0.029 6.5 1.82 13.21
12/30/2022 9:45:00 PM 3.86 38.948 0.029 6.49 1.91 13.21
12/30/2022 10:00:00 PM 3.84 38.912 0.029 6.49 1.79 13.22
12/30/2022 10:15:00 PM 3.83 38.894 0.029 6.49 1.8 13.22
12/30/2022 10:30:00 PM 3.81 38.858 0.029 6.5 1.93 13.23
12/30/2022 10:45:00 PM 3.79 38.822 0.029 6.49 1.89 13.23
12/30/2022 11:00:00 PM 3.79 38.822 0.029 6.51 1.84 13.24
12/30/2022 11:15:00 PM 3.77 38.786 0.029 6.49 1.82 13.24
12/30/2022 11:30:00 PM 3.76 38.768 0.029 6.48 1.89 13.24
12/30/2022 11:45:00 PM 3.75 38.75 0.029 6.49 1.78 13.25
12/31/2022 12:00:00 AM 3.73 38.714 0.029 6.49 1.73 13.25
12/31/2022 12:15:00 AM 3.73 38.714 0.029 6.49 1.78 13.25
12/31/2022 12:30:00 AM 3.72 38.696 0.029 6.49 1.8 13.25
12/31/2022 12:45:00 AM 3.71 38.678 0.029 6.49 1.76 13.26
12/31/2022 1:00:00 AM 3.7 38.66 0.029 6.49 1.75 13.26
12/31/2022 1:15:00 AM 3.7 38.66 0.029 6.49 1.74 13.26
12/31/2022 1:30:00 AM 3.7 38.66 0.029 6.49 1.78 13.26
12/31/2022 1:45:00 AM 3.69 38.642 0.029 6.49 1.74 13.26
12/31/2022 2:00:00 AM 3.69 38.642 0.029 6.48 1.76 13.25
12/31/2022 2:15:00 AM 3.68 38.624 0.029 6.48 1.71 13.25
12/31/2022 2:30:00 AM 3.67 38.606 0.029 6.49 1.62 13.25
12/31/2022 2:45:00 AM 3.66 38.588 0.029 6.49 1.65 13.25
12/31/2022 3:00:00 AM 3.65 38.57 0.029 6.48 1.6 13.26
12/31/2022 3:15:00 AM 3.64 38.552 0.029 6.48 2.49 13.26
12/31/2022 3:30:00 AM 3.64 38.552 0.029 6.48 1.69 13.26
12/31/2022 3:45:00 AM 3.63 38.534 0.029 6.48 1.63 13.27
12/31/2022 4:00:00 AM 3.63 38.534 0.029 6.49 1.64 13.27
12/31/2022 4:15:00 AM 3.62 38.516 0.029 6.48 1.63 13.27
12/31/2022 4:30:00 AM 3.62 38.516 0.029 6.48 1.59 13.26
12/31/2022 4:45:00 AM 3.61 38.498 0.029 6.49 1.65 13.27
12/31/2022 5:00:00 AM 3.61 38.498 0.029 6.49 1.6 13.27
12/31/2022 5:15:00 AM 3.6 38.48 0.029 6.49 1.68 13.27
12/31/2022 5:30:00 AM 3.59 38.462 0.029 6.49 1.68 13.27
12/31/2022 5:45:00 AM 3.59 38.462 0.029 6.49 1.69 13.26
12/31/2022 6:00:00 AM 3.59 38.462 0.029 6.49 1.6 13.26
12/31/2022 6:15:00 AM 3.59 38.462 0.029 6.49 1.66 13.27
12/31/2022 6:30:00 AM 3.6 38.48 0.029 6.49 1.88 13.26
12/31/2022 6:45:00 AM 3.6 38.48 0.029 6.49 1.53 13.26
12/31/2022 7:00:00 AM 3.62 38.516 0.029 6.49 1.59 13.26
12/31/2022 7:15:00 AM 3.62 38.516 0.029 6.5 1.58 13.25
12/31/2022 7:30:00 AM 3.63 38.534 0.029 6.5 1.55 13.25
12/31/2022 7:45:00 AM 3.64 38.552 0.029 6.5 1.53 13.25
12/31/2022 8:00:00 AM 3.65 38.57 0.029 6.5 1.54 13.25
12/31/2022 8:15:00 AM 3.66 38.588 0.029 6.51 1.54 13.27
12/31/2022 8:30:00 AM 3.68 38.624 0.029 6.52 1.55 13.28
12/31/2022 8:45:00 AM 3.69 38.642 0.029 6.52 1.55 13.3
12/31/2022 9:00:00 AM 3.71 38.678 0.029 6.54 1.54 13.32
12/31/2022 9:15:00 AM 3.73 38.714 0.029 6.54 1.53 13.34
12/31/2022 9:30:00 AM 3.76 38.768 0.029 6.54 1.54 13.34
12/31/2022 9:45:00 AM 3.79 38.822 0.029 6.55 1.5 13.35
12/31/2022 10:00:00 AM 3.83 38.894 0.029 6.55 1.59 13.36
12/31/2022 10:15:00 AM 3.87 38.966 0.029 6.56 1.48 13.36
12/31/2022 10:30:00 AM 3.91 39.038 0.029 6.57 1.51 13.35
12/31/2022 10:45:00 AM 3.97 39.146 0.029 6.57 1.55 13.35
12/31/2022 11:00:00 AM 4.02 39.236 0.029 6.58 1.53 13.34
12/31/2022 11:15:00 AM 4.07 39.326 0.029 6.58 1.48 13.32
12/31/2022 11:30:00 AM 4.13 39.434 0.029 6.58 1.57 13.3
12/31/2022 11:45:00 AM 4.18 39.524 0.029 6.59 1.5 13.28
12/31/2022 12:00:00 PM 4.21 39.578 0.029 6.58 1.56 13.25
12/31/2022 12:15:00 PM 4.24 39.632 0.029 6.58 1.55 13.22
12/31/2022 12:30:00 PM 4.27 39.686 0.029 6.58 1.57 13.19
12/31/2022 12:45:00 PM 4.29 39.722 0.029 6.58 1.54 13.17
12/31/2022 1:00:00 PM 4.31 39.758 0.029 6.58 1.6 13.14
12/31/2022 1:15:00 PM 4.34 39.812 0.029 6.58 1.57 13.13
12/31/2022 1:30:00 PM 4.36 39.848 0.029 6.58 1.55 13.13
12/31/2022 1:45:00 PM 4.39 39.902 0.029 6.58 1.61 13.12
12/31/2022 2:00:00 PM 4.42 39.956 0.029 6.59 1.57 13.11
12/31/2022 2:15:00 PM 4.43 39.974 0.029 6.58 1.59 13.09
12/31/2022 2:30:00 PM 4.45 40.01 0.029 6.57 1.66 13.06
12/31/2022 2:45:00 PM 4.46 40.028 0.029 6.57 1.68 13.05
12/31/2022 3:00:00 PM 4.48 40.064 0.029 6.58 1.62 13.04
12/31/2022 3:15:00 PM 4.49 40.082 0.029 6.58 1.7 13.02
12/31/2022 3:30:00 PM 4.49 40.082 0.029 6.57 1.67 13
12/31/2022 3:45:00 PM 4.5 40.1 0.029 6.56 1.79 12.97
12/31/2022 4:00:00 PM 4.51 40.118 0.029 6.56 1.76 12.95
12/31/2022 4:15:00 PM 4.51 40.118 0.029 6.55 1.85 12.94
12/31/2022 4:30:00 PM 4.51 40.118 0.029 6.55 1.85 12.93
12/31/2022 4:45:00 PM 4.52 40.136 0.029 6.54 2.04 12.92
12/31/2022 5:00:00 PM 4.52 40.136 0.029 6.54 1.93 12.91
12/31/2022 5:15:00 PM 4.53 40.154 0.029 6.54 2.01 12.9
12/31/2022 5:30:00 PM 4.53 40.154 0.029 6.54 1.96 12.9
12/31/2022 5:45:00 PM 4.53 40.154 0.029 6.54 1.98 12.89
12/31/2022 6:00:00 PM 4.54 40.172 0.029 6.54 1.97 12.89
12/31/2022 6:15:00 PM 4.54 40.172 0.029 6.53 2.11 12.89
12/31/2022 6:30:00 PM 4.54 40.172 0.029 6.53 2.19 12.89
12/31/2022 6:45:00 PM 4.54 40.172 0.029 6.53 2.08 12.89
12/31/2022 7:00:00 PM 4.55 40.19 0.029 6.54 2.24 12.88
12/31/2022 7:15:00 PM 4.55 40.19 0.029 6.54 2.24 12.88
12/31/2022 7:30:00 PM 4.55 40.19 0.029 6.53 2.24 12.89
12/31/2022 7:45:00 PM 4.55 40.19 0.029 6.53 2.25 12.88
12/31/2022 8:00:00 PM 4.56 40.208 0.029 6.53 2.31 12.89
12/31/2022 8:15:00 PM 4.56 40.208 0.029 6.54 2.4 12.89
12/31/2022 8:30:00 PM 4.56 40.208 0.029 6.53 2.4 12.89
12/31/2022 8:45:00 PM 4.57 40.226 0.029 6.53 2.5 12.89
12/31/2022 9:00:00 PM 4.58 40.244 0.029 6.53 2.39 12.89
12/31/2022 9:15:00 PM 4.58 40.244 0.029 6.53 2.42 12.89
12/31/2022 9:30:00 PM 4.59 40.262 0.029 6.53 2.83 12.88
12/31/2022 9:45:00 PM 4.59 40.262 0.029 6.53 2.6 12.88
12/31/2022 10:00:00 PM 4.6 40.28 0.029 6.52 2.6 12.89
12/31/2022 10:15:00 PM 4.6 40.28 0.029 6.51 2.54 12.88
12/31/2022 10:30:00 PM 4.61 40.298 0.029 6.51 2.69 12.89
12/31/2022 10:45:00 PM 4.61 40.298 0.029 6.52 2.61 12.89
12/31/2022 11:00:00 PM 4.61 40.298 0.029 6.51 2.85 12.89
12/31/2022 11:15:00 PM 4.62 40.316 0.029 6.51 2.61 12.89
12/31/2022 11:30:00 PM 4.62 40.316 0.029 6.51 2.53 12.89
12/31/2022 11:45:00 PM 4.63 40.334 0.029 6.51 2.64 12.89
1/1/2023 12:00:00 AM 4.63 40.334 0.029 6.5 2.58 12.89
1/1/2023 12:15:00 AM 4.63 40.334 0.029 6.5 2.68 12.89
1/1/2023 12:30:00 AM 4.64 40.352 0.029 6.51 2.76 12.89
1/1/2023 12:45:00 AM 4.64 40.352 0.028 6.5 2.99 12.89
1/1/2023 1:00:00 AM 4.64 40.352 0.028 6.51 2.73 12.89
1/1/2023 1:15:00 AM 4.64 40.352 0.028 6.51 2.79 12.89
1/1/2023 1:30:00 AM 4.65 40.37 0.028 6.51 2.7 12.9
1/1/2023 1:45:00 AM 4.65 40.37 0.028 6.51 2.74 12.9
1/1/2023 2:00:00 AM 4.64 40.352 0.028 6.5 2.75 12.9
1/1/2023 2:15:00 AM 4.65 40.37 0.028 6.51 2.81 12.9
1/1/2023 2:30:00 AM 4.66 40.388 0.028 6.51 2.76 12.9
1/1/2023 2:45:00 AM 4.66 40.388 0.028 6.51 2.81 12.9
1/1/2023 3:00:00 AM 4.67 40.406 0.028 6.51 3.12 12.9
1/1/2023 3:15:00 AM 4.67 40.406 0.028 6.51 2.81 12.9
1/1/2023 3:30:00 AM 4.68 40.424 0.028 6.51 2.79 12.9
1/1/2023 3:45:00 AM 4.69 40.442 0.028 6.51 2.85 12.9
1/1/2023 4:00:00 AM 4.7 40.46 0.028 6.51 2.86 12.9
1/1/2023 4:15:00 AM 4.7 40.46 0.028 6.51 2.85 12.9
1/1/2023 4:30:00 AM 4.7 40.46 0.028 6.5 2.89 12.9
1/1/2023 4:45:00 AM 4.7 40.46 0.028 6.5 2.97 12.9
1/1/2023 5:00:00 AM 4.7 40.46 0.028 6.51 2.82 12.9
1/1/2023 5:15:00 AM 4.7 40.46 0.028 6.51 2.72 12.9
1/1/2023 5:30:00 AM 4.7 40.46 0.028 6.51 2.93 12.91
1/1/2023 5:45:00 AM 4.71 40.478 0.028 6.51 2.89 12.91
1/1/2023 6:00:00 AM 4.71 40.478 0.028 6.51 2.93 12.91
1/1/2023 6:15:00 AM 4.71 40.478 0.028 6.51 2.99 12.91
1/1/2023 6:30:00 AM 4.72 40.496 0.028 6.51 2.88 12.91
1/1/2023 6:45:00 AM 4.72 40.496 0.028 6.51 2.96 12.91
1/1/2023 7:00:00 AM 4.72 40.496 0.028 6.5 3.03 12.91
1/1/2023 7:15:00 AM 4.72 40.496 0.028 6.51 2.95 12.91
1/1/2023 7:30:00 AM 4.73 40.514 0.028 6.51 3.01 12.91
1/1/2023 7:45:00 AM 4.74 40.532 0.028 6.52 2.97 12.92
1/1/2023 8:00:00 AM 4.74 40.532 0.028 6.51 3.03 12.93
1/1/2023 8:15:00 AM 4.75 40.55 0.028 6.52 3.08 12.94
1/1/2023 8:30:00 AM 4.76 40.568 0.028 6.52 3.02 12.95
1/1/2023 8:45:00 AM 4.77 40.586 0.028 6.52 3 12.97
1/1/2023 9:00:00 AM 4.79 40.622 0.028 6.53 3.02 12.99
1/1/2023 9:15:00 AM 4.81 40.658 0.028 6.54 3.2 13
1/1/2023 9:30:00 AM 4.84 40.712 0.028 6.55 2.98 13.01
1/1/2023 9:45:00 AM 4.86 40.748 0.028 6.55 2.98 13.01
1/1/2023 10:00:00 AM 4.9 40.82 0.028 6.55 2.94 13.01
1/1/2023 10:15:00 AM 4.94 40.892 0.028 6.56 2.92 13.01
1/1/2023 10:30:00 AM 4.98 40.964 0.028 6.57 2.85 13.01
1/1/2023 10:45:00 AM 5.01 41.018 0.028 6.57 2.88 13
1/1/2023 11:00:00 AM 5.05 41.09 0.028 6.58 2.85 13
1/1/2023 11:15:00 AM 5.09 41.162 0.028 6.58 3.26 12.99
1/1/2023 11:30:00 AM 5.14 41.252 0.028 6.58 3.03 12.98
1/1/2023 11:45:00 AM 5.19 41.342 0.028 6.58 2.91 12.97
1/1/2023 12:00:00 PM 5.21 41.378 0.028 6.58 2.95 12.95
1/1/2023 12:15:00 PM 5.24 41.432 0.028 6.58 2.78 12.94
1/1/2023 12:30:00 PM 5.28 41.504 0.028 6.58 3.26 12.92
1/1/2023 12:45:00 PM 5.3 41.54 0.028 6.58 2.94 12.9
1/1/2023 1:00:00 PM 5.33 41.594 0.028 6.58 3.03 12.88
1/1/2023 1:15:00 PM 5.37 41.666 0.028 6.58 2.94 12.88
1/1/2023 1:30:00 PM 5.41 41.738 0.028 6.58 3.04 12.87
1/1/2023 1:45:00 PM 5.43 41.774 0.028 6.58 3.05 12.85
1/1/2023 2:00:00 PM 5.46 41.828 0.028 6.58 3.5 12.84
1/1/2023 2:15:00 PM 5.49 41.882 0.028 6.58 3.13 12.83
1/1/2023 2:30:00 PM 5.52 41.936 0.028 6.58 3.1 12.82
1/1/2023 2:45:00 PM 5.53 41.954 0.028 6.58 3.07 12.81
1/1/2023 3:00:00 PM 5.54 41.972 0.028 6.57 3.31 12.79
1/1/2023 3:15:00 PM 5.55 41.99 0.028 6.57 3.29 12.77
1/1/2023 3:30:00 PM 5.56 42.008 0.028 6.57 3.15 12.75
1/1/2023 3:45:00 PM 5.57 42.026 0.028 6.55 3.45 12.72
1/1/2023 4:00:00 PM 5.57 42.026 0.028 6.54 3.3 12.71
1/1/2023 4:15:00 PM 5.57 42.026 0.028 6.54 3.22 12.7
1/1/2023 4:30:00 PM 5.57 42.026 0.028 6.52 3.55 12.69
1/1/2023 4:45:00 PM 5.56 42.008 0.028 6.52 3.64 12.67
1/1/2023 5:00:00 PM 5.56 42.008 0.028 6.53 3.35 12.66
1/1/2023 5:15:00 PM 5.55 41.99 0.028 6.52 3.88 12.66
1/1/2023 5:30:00 PM 5.55 41.99 0.028 6.52 3.58 12.66
1/1/2023 5:45:00 PM 5.54 41.972 0.028 6.51 3.6 12.66
1/1/2023 6:00:00 PM 5.54 41.972 0.028 6.51 3.65 12.67
1/1/2023 6:15:00 PM 5.53 41.954 0.028 6.51 3.63 12.67
1/1/2023 6:30:00 PM 5.53 41.954 0.028 6.51 3.59 12.67
1/1/2023 6:45:00 PM 5.53 41.954 0.028 6.5 3.41 12.67
1/1/2023 7:00:00 PM 5.53 41.954 0.028 6.5 3.5 12.68
1/1/2023 7:15:00 PM 5.53 41.954 0.028 6.5 3.64 12.68
1/1/2023 7:30:00 PM 5.52 41.936 0.028 6.49 3.52 12.68
1/1/2023 7:45:00 PM 5.52 41.936 0.028 6.5 3.45 12.69
1/1/2023 8:00:00 PM 5.52 41.936 0.028 6.49 3.86 12.69
1/1/2023 8:15:00 PM 5.52 41.936 0.028 6.48 3.58 12.69
1/1/2023 8:30:00 PM 5.52 41.936 0.028 6.49 3.57 12.69
1/1/2023 8:45:00 PM 5.52 41.936 0.028 6.48 3.46 12.69
1/1/2023 9:00:00 PM 5.52 41.936 0.028 6.48 3.49 12.69
1/1/2023 9:15:00 PM 5.52 41.936 0.028 6.48 3.51 12.69
1/1/2023 9:30:00 PM 5.51 41.918 0.028 6.48 3.49 12.69
1/1/2023 9:45:00 PM 5.51 41.918 0.028 6.48 3.85 12.7
1/1/2023 10:00:00 PM 5.51 41.918 0.028 6.48 3.54 12.69
1/1/2023 10:15:00 PM 5.51 41.918 0.028 6.48 3.43 12.7
1/1/2023 10:30:00 PM 5.5 41.9 0.028 6.48 3.62 12.7
1/1/2023 10:45:00 PM 5.5 41.9 0.028 6.48 3.53 12.7
1/1/2023 11:00:00 PM 5.5 41.9 0.028 6.48 3.38 12.7
1/1/2023 11:15:00 PM 5.49 41.882 0.028 6.49 3.48 12.71
1/1/2023 11:30:00 PM 5.48 41.864 0.028 6.48 3.39 12.71
1/1/2023 11:45:00 PM 5.48 41.864 0.028 6.49 3.51 12.71
1/2/2023 12:00:00 AM 5.48 41.864 0.028 6.48 3.6 12.71
1/2/2023 12:15:00 AM 5.47 41.846 0.028 6.48 3.42 12.71
1/2/2023 12:30:00 AM 5.47 41.846 0.028 6.49 3.26 12.71
1/2/2023 12:45:00 AM 5.47 41.846 0.028 6.49 3.26 12.71
1/2/2023 1:00:00 AM 5.47 41.846 0.028 6.48 3.28 12.71
1/2/2023 1:15:00 AM 5.47 41.846 0.027 6.48 3.15 12.72
1/2/2023 1:30:00 AM 5.47 41.846 0.027 6.47 3.3 12.72
1/2/2023 1:45:00 AM 5.47 41.846 0.027 6.47 3.41 12.72
1/2/2023 2:00:00 AM 5.47 41.846 0.027 6.47 3.31 12.72
1/2/2023 2:15:00 AM 5.46 41.828 0.027 6.47 3.24 12.72
1/2/2023 2:30:00 AM 5.46 41.828 0.027 6.47 3.43 12.72
1/2/2023 2:45:00 AM 5.46 41.828 0.027 6.47 3.23 12.72
1/2/2023 3:00:00 AM 5.46 41.828 0.027 6.47 3.16 12.73
1/2/2023 3:15:00 AM 5.46 41.828 0.027 6.47 3.13 12.73
1/2/2023 3:30:00 AM 5.46 41.828 0.027 6.47 3.19 12.73
1/2/2023 3:45:00 AM 5.46 41.828 0.027 6.46 3.23 12.73
1/2/2023 4:00:00 AM 5.45 41.81 0.027 6.47 3.12 12.73
1/2/2023 4:15:00 AM 5.45 41.81 0.027 6.46 3.17 12.73
1/2/2023 4:30:00 AM 5.45 41.81 0.027 6.46 3.23 12.73
1/2/2023 4:45:00 AM 5.43 41.774 0.027 6.46 2.96 12.73
1/2/2023 5:00:00 AM 5.43 41.774 0.027 6.45 3.2 12.73
1/2/2023 5:15:00 AM 5.43 41.774 0.027 6.46 3.09 12.74
1/2/2023 5:30:00 AM 5.43 41.774 0.027 6.45 3.14 12.74
1/2/2023 5:45:00 AM 5.42 41.756 0.027 6.45 3.24 12.74
1/2/2023 6:00:00 AM 5.42 41.756 0.027 6.45 3.01 12.75
1/2/2023 6:15:00 AM 5.42 41.756 0.027 6.46 3.5 12.75
1/2/2023 6:30:00 AM 5.41 41.738 0.027 6.45 2.94 12.75
1/2/2023 6:45:00 AM 5.41 41.738 0.027 6.45 2.99 12.75
1/2/2023 7:00:00 AM 5.41 41.738 0.027 6.46 3.46 12.75
1/2/2023 7:15:00 AM 5.4 41.72 0.027 6.45 3.22 12.75
1/2/2023 7:30:00 AM 5.39 41.702 0.027 6.46 2.97 12.76
1/2/2023 7:45:00 AM 5.38 41.684 0.027 6.46 2.78 12.76
1/2/2023 8:00:00 AM 5.38 41.684 0.027 6.46 2.83 12.78
1/2/2023 8:15:00 AM 5.39 41.702 0.027 6.46 2.99 12.8
1/2/2023 8:30:00 AM 5.39 41.702 0.027 6.47 2.87 12.82
1/2/2023 8:45:00 AM 5.41 41.738 0.027 6.47 2.75 12.83
1/2/2023 9:00:00 AM 5.43 41.774 0.027 6.48 2.72 12.84
1/2/2023 9:15:00 AM 5.45 41.81 0.027 6.48 2.88 12.85
1/2/2023 9:30:00 AM 5.48 41.864 0.027 6.49 2.7 12.85
1/2/2023 9:45:00 AM 5.51 41.918 0.027 6.49 2.68 12.86
1/2/2023 10:00:00 AM 5.54 41.972 0.027 6.49 2.64 12.85
1/2/2023 10:15:00 AM 5.59 42.062 0.027 6.49 2.83 12.85
1/2/2023 10:30:00 AM 5.64 42.152 0.027 6.5 2.7 12.85
1/2/2023 10:45:00 AM 5.7 42.26 0.027 6.51 2.73 12.84
1/2/2023 11:00:00 AM 5.77 42.386 0.027 6.52 2.75 12.82
1/2/2023 11:15:00 AM 5.82 42.476 0.027 6.52 2.7 12.8
1/2/2023 11:30:00 AM 5.88 42.584 0.027 6.52 2.58 12.78
1/2/2023 11:45:00 AM 5.93 42.674 0.027 6.52 2.9 12.76
1/2/2023 12:00:00 PM 5.97 42.746 0.027 6.52 2.76 12.74
1/2/2023 12:15:00 PM 6 42.8 0.027 6.52 2.62 12.71
1/2/2023 12:30:00 PM 6.04 42.872 0.027 6.51 3.07 12.69
1/2/2023 12:45:00 PM 6.08 42.944 0.027 6.51 2.6 12.69
1/2/2023 1:00:00 PM 6.11 42.998 0.027 6.52 2.7 12.67
1/2/2023 1:15:00 PM 6.13 43.034 0.027 6.52 2.51 12.66
1/2/2023 1:30:00 PM 6.16 43.088 0.027 6.52 3.06 12.65
1/2/2023 1:45:00 PM 6.18 43.124 0.027 6.52 2.67 12.63
1/2/2023 2:00:00 PM 6.21 43.178 0.027 6.51 2.65 12.63
1/2/2023 2:15:00 PM 6.23 43.214 0.027 6.51 2.64 12.61
1/2/2023 2:30:00 PM 6.25 43.25 0.027 6.51 2.89 12.59
1/2/2023 2:45:00 PM 6.27 43.286 0.027 6.51 3.22 12.59
1/2/2023 3:00:00 PM 6.29 43.322 0.027 6.51 2.77 12.57
1/2/2023 3:15:00 PM 6.3 43.34 0.027 6.51 3.34 12.54
1/2/2023 3:30:00 PM 6.32 43.376 0.027 6.5 3.34 12.54
1/2/2023 3:45:00 PM 6.33 43.394 0.027 6.5 2.84 12.53
1/2/2023 4:00:00 PM 6.33 43.394 0.027 6.49 2.99 12.51
1/2/2023 4:15:00 PM 6.34 43.412 0.027 6.49 2.77 12.5
1/2/2023 4:30:00 PM 6.34 43.412 0.027 6.49 3 12.48
1/2/2023 4:45:00 PM 6.34 43.412 0.027 6.48 3.04 12.47
1/2/2023 5:00:00 PM 6.34 43.412 0.027 6.47 3.38 12.46
1/2/2023 5:15:00 PM 6.34 43.412 0.027 6.47 3.17 12.46
1/2/2023 5:30:00 PM 6.33 43.394 0.027 6.47 2.9 12.46
1/2/2023 5:45:00 PM 6.33 43.394 0.027 6.46 3.02 12.46
1/2/2023 6:00:00 PM 6.32 43.376 0.027 6.46 3.02 12.46
1/2/2023 6:15:00 PM 6.32 43.376 0.027 6.46 3.48 12.46
1/2/2023 6:30:00 PM 6.31 43.358 0.027 6.46 2.99 12.46
1/2/2023 6:45:00 PM 6.31 43.358 0.027 6.46 3.16 12.47
1/2/2023 7:00:00 PM 6.3 43.34 0.027 6.46 2.76 12.47
1/2/2023 7:15:00 PM 6.29 43.322 0.027 6.45 10868.49 12.47
1/2/2023 7:30:00 PM 6.29 43.322 0.027 6.46 2.61 12.47
1/2/2023 7:45:00 PM 6.28 43.304 0.027 6.45 2.62 12.48
1/2/2023 8:00:00 PM 6.27 43.286 0.027 6.45 2.64 12.48
1/2/2023 8:15:00 PM 6.27 43.286 0.027 6.43 2.79 12.48
1/2/2023 8:30:00 PM 6.26 43.268 0.027 6.43 3.21 12.48
1/2/2023 8:45:00 PM 6.26 43.268 0.027 6.44 2.95 12.48
1/2/2023 9:00:00 PM 6.25 43.25 0.027 6.44 2.9 12.48
1/2/2023 9:15:00 PM 6.25 43.25 0.027 6.44 2.78 12.48
1/2/2023 9:30:00 PM 6.24 43.232 0.027 6.45 2.75 12.48
1/2/2023 9:45:00 PM 6.24 43.232 0.027 6.44 2.87 12.48
1/2/2023 10:00:00 PM 6.23 43.214 0.027 6.44 5.32 12.48
1/2/2023 10:15:00 PM 6.23 43.214 0.027 6.44 2.78 12.48
1/2/2023 10:30:00 PM 6.22 43.196 0.027 6.42 2.95 12.48
1/2/2023 10:45:00 PM 6.22 43.196 0.027 6.42 2.54 12.48
1/2/2023 11:00:00 PM 6.21 43.178 0.027 6.43 2.58 12.49
1/2/2023 11:15:00 PM 6.21 43.178 0.027 6.42 2.86 12.49
1/2/2023 11:30:00 PM 6.21 43.178 0.027 6.42 2.72 12.49
1/2/2023 11:45:00 PM 6.21 43.178 0.027 6.43 2.67 12.49
1/3/2023 12:00:00 AM 6.2 43.16 0.027 6.43 2.83 12.48
1/3/2023 12:15:00 AM 6.2 43.16 0.027 6.43 3.27 12.48
1/3/2023 12:30:00 AM 6.2 43.16 0.027 6.42 2.77 12.48
1/3/2023 12:45:00 AM 6.19 43.142 0.027 6.43 2.62 12.48
1/3/2023 1:00:00 AM 6.19 43.142 0.027 6.43 2.64 12.48
1/3/2023 1:15:00 AM 6.19 43.142 0.027 6.42 2.61 12.48
1/3/2023 1:30:00 AM 6.19 43.142 0.027 6.43 2.98 12.47
1/3/2023 1:45:00 AM 6.19 43.142 0.027 6.42 2.43 12.47
1/3/2023 2:00:00 AM 6.19 43.142 0.027 6.43 2.36 12.47
1/3/2023 2:15:00 AM 6.19 43.142 0.027 6.42 2.31 12.47
1/3/2023 2:30:00 AM 6.18 43.124 0.027 6.42 2.38 12.48
1/3/2023 2:45:00 AM 6.18 43.124 0.027 6.42 2.34 12.48
1/3/2023 3:00:00 AM 6.18 43.124 0.027 6.42 2.26 12.48
1/3/2023 3:15:00 AM 6.18 43.124 0.027 6.42 2.28 12.48
1/3/2023 3:30:00 AM 6.19 43.142 0.027 6.41 2.34 12.48
1/3/2023 3:45:00 AM 6.19 43.142 0.027 6.41 2.36 12.47
1/3/2023 4:00:00 AM 6.19 43.142 0.027 6.42 2.15 12.47
1/3/2023 4:15:00 AM 6.19 43.142 0.027 6.41 2.29 12.47
1/3/2023 4:30:00 AM 6.19 43.142 0.027 6.42 2.29 12.46
1/3/2023 4:45:00 AM 6.19 43.142 0.027 6.42 2.28 12.46
1/3/2023 5:00:00 AM 6.19 43.142 0.027 6.42 2.22 12.46
1/3/2023 5:15:00 AM 6.2 43.16 0.027 6.41 2.34 12.45
1/3/2023 5:30:00 AM 6.2 43.16 0.027 6.41 2.45 12.45
1/3/2023 5:45:00 AM 6.2 43.16 0.027 6.43 2.28 12.44
1/3/2023 6:00:00 AM 6.2 43.16 0.027 6.42 2.33 12.44
1/3/2023 6:15:00 AM 6.2 43.16 0.027 6.41 2.33 12.44
1/3/2023 6:30:00 AM 6.21 43.178 0.027 6.41 2.37 12.43
1/3/2023 6:45:00 AM 6.21 43.178 0.027 6.41 2.37 12.43
1/3/2023 7:00:00 AM 6.21 43.178 0.027 6.42 2.2 12.43
1/3/2023 7:15:00 AM 6.21 43.178 0.027 6.41 2.22 12.43
1/3/2023 7:30:00 AM 6.21 43.178 0.027 6.41 2.25 12.43
1/3/2023 7:45:00 AM 6.2 43.16 0.027 6.41 2.42 12.43
1/3/2023 8:00:00 AM 6.21 43.178 0.027 6.41 2.82 12.43
1/3/2023 8:15:00 AM 6.2 43.16 0.027 6.42 3.11 12.43
1/3/2023 8:30:00 AM 6.21 43.178 0.027 6.41 4.04 12.43
1/3/2023 8:45:00 AM 6.21 43.178 0.027 6.42 5.94 12.43
1/3/2023 9:00:00 AM 6.22 43.196 0.027 6.43 7.18 12.44
1/3/2023 9:15:00 AM 6.23 43.214 0.027 6.44 6.68 12.43
1/3/2023 9:30:00 AM 6.24 43.232 0.027 6.42 7.39 12.43
1/3/2023 9:45:00 AM 6.24 43.232 0.027 6.42 7.54 12.43
1/3/2023 10:00:00 AM 6.25 43.25 0.027 6.41 8.78 12.44
1/3/2023 10:15:00 AM 6.27 43.286 0.027 6.41 12.21 12.44
1/3/2023 10:30:00 AM 6.28 43.304 0.027 6.4 13.6 12.44
1/3/2023 10:45:00 AM 6.29 43.322 0.027 6.4 16.54 12.42
1/3/2023 11:00:00 AM 6.3 43.34 0.027 6.4 19.5 12.41
1/3/2023 11:15:00 AM 6.32 43.376 0.027 6.4 831.45 12.4
1/3/2023 11:30:00 AM 6.33 43.394 0.027 6.41 20.12 12.4
1/3/2023 11:45:00 AM 6.34 43.412 0.027 6.4 23.06 12.39
1/3/2023 12:00:00 PM 6.36 43.448 0.027 6.4 17.08 12.39
1/3/2023 12:15:00 PM 6.37 43.466 0.026 6.4 26.42 12.39
1/3/2023 12:30:00 PM 6.39 43.502 0.026 6.4 24.06 12.38
1/3/2023 12:45:00 PM 6.41 43.538 0.026 6.38 24.62 12.38
1/3/2023 1:00:00 PM 6.42 43.556 0.026 6.38 24.98 12.37
1/3/2023 1:15:00 PM 6.44 43.592 0.026 6.39 24.22 12.35
1/3/2023 1:30:00 PM 6.45 43.61 0.026 6.37 20.44 12.35
1/3/2023 1:45:00 PM 6.46 43.628 0.026 6.38 26.22 12.34
1/3/2023 2:00:00 PM 6.47 43.646 0.026 6.36 23.38 12.34
1/3/2023 2:15:00 PM 6.49 43.682 0.026 6.36 23.71 12.34
1/3/2023 2:30:00 PM 6.5 43.7 0.025 6.34 24.43 12.34
1/3/2023 2:45:00 PM 6.51 43.718 0.025 6.34 22.12 12.33
1/3/2023 3:00:00 PM 6.51 43.718 0.025 6.34 27.99 12.32
1/3/2023 3:15:00 PM 6.52 43.736 0.025 6.34 25.97 12.32
1/3/2023 3:30:00 PM 6.53 43.754 0.025 6.33 18.57 12.31
1/3/2023 3:45:00 PM 6.53 43.754 0.025 6.34 17.64 12.31
1/3/2023 4:00:00 PM 6.54 43.772 0.025 6.33 17.35 12.3
1/3/2023 4:15:00 PM 6.54 43.772 0.025 6.33 19.46 12.3
1/3/2023 4:30:00 PM 6.55 43.79 0.025 6.32 18.61 12.29
1/3/2023 4:45:00 PM 6.56 43.808 0.025 6.32 17.49 12.29
1/3/2023 5:00:00 PM 6.56 43.808 0.025 6.32 16.71 12.28
1/3/2023 5:15:00 PM 6.57 43.826 0.025 6.31 22 12.28
1/3/2023 5:30:00 PM 6.58 43.844 0.025 6.31 16.91 12.28
1/3/2023 5:45:00 PM 6.59 43.862 0.025 6.33 15.99 12.28
1/3/2023 6:00:00 PM 6.6 43.88 0.025 6.32 21 12.28
1/3/2023 6:15:00 PM 6.61 43.898 0.025 6.31 14.93 12.27
1/3/2023 6:30:00 PM 6.62 43.916 0.025 6.32 13.36 12.27
1/3/2023 6:45:00 PM 6.63 43.934 0.025 6.31 13.9 12.26
1/3/2023 7:00:00 PM 6.64 43.952 0.025 6.33 13.09 12.26
1/3/2023 7:15:00 PM 6.66 43.988 0.025 6.33 12.09 12.25
1/3/2023 7:30:00 PM 6.67 44.006 0.025 6.32 11.51 12.25
1/3/2023 7:45:00 PM 6.69 44.042 0.025 6.32 11.17 12.24
1/3/2023 8:00:00 PM 6.7 44.06 0.025 6.33 11.09 12.24
1/3/2023 8:15:00 PM 6.72 44.096 0.025 6.31 10.73 12.24
1/3/2023 8:30:00 PM 6.73 44.114 0.025 6.32 10.92 12.23
1/3/2023 8:45:00 PM 6.75 44.15 0.025 6.32 10.4 12.23
1/3/2023 9:00:00 PM 6.77 44.186 0.025 6.33 10.41 12.22
1/3/2023 9:15:00 PM 6.79 44.222 0.026 6.32 10.86 12.22
1/3/2023 9:30:00 PM 6.81 44.258 0.026 6.32 10.41 12.21
1/3/2023 9:45:00 PM 6.83 44.294 0.026 6.31 10.01 12.2
1/3/2023 10:00:00 PM 6.85 44.33 0.026 6.33 9.78 12.19
1/3/2023 10:15:00 PM 6.87 44.366 0.026 6.32 9.56 12.19
1/3/2023 10:30:00 PM 6.88 44.384 0.026 6.33 9.76 12.18
1/3/2023 10:45:00 PM 6.9 44.42 0.026 6.33 9.61 12.18
1/3/2023 11:00:00 PM 6.92 44.456 0.026 6.32 9.51 12.17
1/3/2023 11:15:00 PM 6.94 44.492 0.026 6.34 8.96 12.16
1/3/2023 11:30:00 PM 6.95 44.51 0.026 6.34 8.84 12.16
1/3/2023 11:45:00 PM 6.97 44.546 0.026 6.34 9.05 12.16
1/4/2023 12:00:00 AM 6.98 44.564 0.026 6.33 8.95 12.15
1/4/2023 12:15:00 AM 7 44.6 0.026 6.33 8.43 12.15
1/4/2023 12:30:00 AM 7.02 44.636 0.026 6.33 8.38 12.14
1/4/2023 12:45:00 AM 7.03 44.654 0.026 6.34 8.55 12.14
1/4/2023 1:00:00 AM 7.04 44.672 0.026 6.34 8.13 12.13
1/4/2023 1:15:00 AM 7.06 44.708 0.026 6.34 8.09 12.13
1/4/2023 1:30:00 AM 7.07 44.726 0.026 6.35 7.86 12.13
1/4/2023 1:45:00 AM 7.08 44.744 0.026 6.34 7.79 12.13
1/4/2023 2:00:00 AM 7.09 44.762 0.026 6.38 7.87 12.12
1/4/2023 2:15:00 AM 7.1 44.78 0.026 6.3 8.24 12.12
1/4/2023 2:30:00 AM 7.11 44.798 0.026 6.33 7.86 12.11
1/4/2023 2:45:00 AM 7.12 44.816 0.026 6.36 7.53 12.11
1/4/2023 3:00:00 AM 7.14 44.852 0.026 6.32 7.57 12.11
1/4/2023 3:15:00 AM 7.15 44.87 0.026 6.33 7.41 12.11
1/4/2023 3:30:00 AM 7.16 44.888 0.026 6.38 7.36 12.1
1/4/2023 3:45:00 AM 7.17 44.906 0.026 6.3 7.25 12.1
1/4/2023 4:00:00 AM 7.18 44.924 0.026 6.34 7.33 12.1
1/4/2023 4:15:00 AM 7.18 44.924 0.026 6.34 6.58 12.09
1/4/2023 4:30:00 AM 7.19 44.942 0.026 6.34 6.68 12.09
1/4/2023 4:45:00 AM 7.2 44.96 0.026 6.34 6.63 12.09
1/4/2023 5:00:00 AM 7.21 44.978 0.026 6.34 7 12.09
1/4/2023 5:15:00 AM 7.22 44.996 0.026 6.35 6.91 12.09
1/4/2023 5:30:00 AM 7.23 45.014 0.026 6.35 6.68 12.08
1/4/2023 5:45:00 AM 7.24 45.032 0.026 6.34 6.69 12.08
1/4/2023 6:00:00 AM 7.25 45.05 0.026 6.34 6.47 12.08
1/4/2023 6:15:00 AM 7.26 45.068 0.027 6.35 6.66 12.08
1/4/2023 6:30:00 AM 7.27 45.086 0.027 6.35 6.37 12.08
1/4/2023 6:45:00 AM 7.28 45.104 0.027 6.35 6.45 12.08
1/4/2023 7:00:00 AM 7.28 45.104 0.027 6.34 6.4 12.07
1/4/2023 7:15:00 AM 7.29 45.122 0.027 6.34 6.22 12.07
1/4/2023 7:30:00 AM 7.3 45.14 0.027 6.35 6.29 12.07
1/4/2023 7:45:00 AM 7.31 45.158 0.027 6.34 6.01 12.07
1/4/2023 8:00:00 AM 7.32 45.176 0.027 6.34 5.83 12.07
1/4/2023 8:15:00 AM 7.32 45.176 0.027 6.35 5.8 12.07
1/4/2023 8:30:00 AM 7.33 45.194 0.027 6.35 5.93 12.08
1/4/2023 8:45:00 AM 7.34 45.212 0.027 6.34 5.68 12.08
1/4/2023 9:00:00 AM 7.36 45.248 0.027 6.36 5.34 12.09
1/4/2023 9:15:00 AM 7.38 45.284 0.027 6.37 5.34 12.09
1/4/2023 9:30:00 AM 7.4 45.32 0.027 6.37 5.37 12.09
1/4/2023 9:45:00 AM 7.42 45.356 0.027 6.36 5.17 12.09
1/4/2023 10:00:00 AM 7.45 45.41 0.027 6.36 5.44 12.09
1/4/2023 10:15:00 AM 7.48 45.464 0.027 6.36 5.28 12.09
1/4/2023 10:30:00 AM 7.52 45.536 0.027 6.37 5.16 12.09
1/4/2023 10:45:00 AM 7.55 45.59 0.027 6.38 5.15 12.08
1/4/2023 11:00:00 AM 7.59 45.662 0.027 6.38 5.09 12.07
1/4/2023 11:15:00 AM 7.62 45.716 0.027 6.38 5.03 12.06
1/4/2023 11:30:00 AM 7.66 45.788 0.027 6.39 5.07 12.04
1/4/2023 11:45:00 AM 7.7 45.86 0.027 6.38 5.31 12.03
1/4/2023 12:00:00 PM 7.73 45.914 0.027 6.39 5.05 12.01
1/4/2023 12:15:00 PM 7.76 45.968 0.027 6.38 4.87 12
1/4/2023 12:30:00 PM 7.8 46.04 0.027 6.38 4.89 11.99
1/4/2023 12:45:00 PM 7.83 46.094 0.027 6.39 4.79 11.97
1/4/2023 1:00:00 PM 7.86 46.148 0.027 6.38 5.07 11.95
1/4/2023 1:15:00 PM 7.89 46.202 0.027 6.38 5 11.93
1/4/2023 1:30:00 PM 7.91 46.238 0.027 6.38 5.42 11.91
1/4/2023 1:45:00 PM 7.93 46.274 0.027 6.39 4.85 11.9
1/4/2023 2:00:00 PM 7.95 46.31 0.027 6.4 4.91 11.89
1/4/2023 2:15:00 PM 7.96 46.328 0.027 6.38 4.75 11.87
1/4/2023 2:30:00 PM 7.97 46.346 0.027 6.39 5.07 11.86
1/4/2023 2:45:00 PM 7.99 46.382 0.027 6.38 4.65 11.86
1/4/2023 3:00:00 PM 8 46.4 0.027 6.39 5.26 11.86
1/4/2023 3:15:00 PM 8.02 46.436 0.027 6.37 4.72 11.85
1/4/2023 3:30:00 PM 8.03 46.454 0.027 6.39 4.74 11.84
1/4/2023 3:45:00 PM 8.03 46.454 0.027 6.39 4.84 11.83
1/4/2023 4:00:00 PM 8.04 46.472 0.027 6.38 4.7 11.82
1/4/2023 4:15:00 PM 8.04 46.472 0.027 6.39 4.86 11.81
1/4/2023 4:30:00 PM 8.04 46.472 0.027 6.38 4.98 11.81
1/4/2023 4:45:00 PM 8.04 46.472 0.027 6.37 4.66 11.8
1/4/2023 5:00:00 PM 8.04 46.472 0.027 6.37 4.69 11.79
1/4/2023 5:15:00 PM 8.04 46.472 0.027 6.38 4.72 11.79
1/4/2023 5:30:00 PM 8.04 46.472 0.027 6.36 4.6 11.79
1/4/2023 5:45:00 PM 8.04 46.472 0.027 6.37 4.94 11.79
1/4/2023 6:00:00 PM 8.04 46.472 0.027 6.37 4.81 11.79
1/4/2023 6:15:00 PM 8.04 46.472 0.027 6.37 4.93 11.79
1/4/2023 6:30:00 PM 8.04 46.472 0.027 6.37 4.99 11.79
1/4/2023 6:45:00 PM 8.04 46.472 0.027 6.37 5.18 11.79
1/4/2023 7:00:00 PM 8.04 46.472 0.027 6.37 5.27 11.8
1/4/2023 7:15:00 PM 8.04 46.472 0.027 6.37 5.14 11.79
1/4/2023 7:30:00 PM 8.04 46.472 0.027 6.38 4.89 11.8
1/4/2023 7:45:00 PM 8.03 46.454 0.027 6.36 4.92 11.8
1/4/2023 8:00:00 PM 8.03 46.454 0.027 6.36 4.63 11.8
1/4/2023 8:15:00 PM 8.02 46.436 0.027 6.35 4.8 11.8
1/4/2023 8:30:00 PM 8 46.4 0.027 6.37 4.98 11.8
1/4/2023 8:45:00 PM 7.99 46.382 0.027 6.37 4.89 11.81
1/4/2023 9:00:00 PM 7.98 46.364 0.027 6.36 4.78 11.81
1/4/2023 9:15:00 PM 7.97 46.346 0.027 6.39 4.69 11.82
1/4/2023 9:30:00 PM 7.96 46.328 0.027 6.35 4.85 11.82
1/4/2023 9:45:00 PM 7.95 46.31 0.027 6.35 4.82 11.83
1/4/2023 10:00:00 PM 7.94 46.292 0.027 6.4 4.71 11.83
1/4/2023 10:15:00 PM 7.94 46.292 0.027 6.31 4.68 11.84
1/4/2023 10:30:00 PM 7.93 46.274 0.027 6.35 4.56 11.84
1/4/2023 10:45:00 PM 7.92 46.256 0.027 6.36 4.59 11.85
1/4/2023 11:00:00 PM 7.94 46.292 0.027 6.38 4.41 11.85
1/4/2023 11:15:00 PM 7.94 46.292 0.027 6.38 4.39 11.86
1/4/2023 11:30:00 PM 7.94 46.292 0.027 6.38 4.5 11.86
1/4/2023 11:45:00 PM 7.94 46.292 0.027 6.39 4.35 11.86
1/5/2023 12:00:00 AM 7.94 46.292 0.027 6.38 4.64 11.87
1/5/2023 12:15:00 AM 7.94 46.292 0.027 6.38 4.24 11.87
1/5/2023 12:30:00 AM 7.92 46.256 0.027 6.38 4.32 11.88
1/5/2023 12:45:00 AM 7.89 46.202 0.027 6.37 4.23 11.88
1/5/2023 1:00:00 AM 7.86 46.148 0.027 6.37 4.17 11.89
1/5/2023 1:15:00 AM 7.83 46.094 0.027 6.37 4.23 11.9
1/5/2023 1:30:00 AM 7.79 46.022 0.027 6.36 4.49 11.91
1/5/2023 1:45:00 AM 7.76 45.968 0.027 6.38 4.59 11.93
1/5/2023 2:00:00 AM 7.72 45.896 0.027 6.37 4.94 11.94
1/5/2023 2:15:00 AM 7.68 45.824 0.027 6.36 4.58 11.95
1/5/2023 2:30:00 AM 7.64 45.752 0.027 6.37 4.77 11.97
1/5/2023 2:45:00 AM 7.59 45.662 0.027 6.37 4.36 11.99
1/5/2023 3:00:00 AM 7.55 45.59 0.027 6.36 4.49 12
1/5/2023 3:15:00 AM 7.5 45.5 0.027 6.36 4.47 12.02
1/5/2023 3:30:00 AM 7.46 45.428 0.027 6.36 4.43 12.03
1/5/2023 3:45:00 AM 7.41 45.338 0.027 6.36 4.57 12.04
1/5/2023 4:00:00 AM 7.36 45.248 0.027 6.37 4.52 12.06
1/5/2023 4:15:00 AM 7.31 45.158 0.027 6.38 4.41 12.07
1/5/2023 4:30:00 AM 7.27 45.086 0.027 6.37 4.23 12.08
1/5/2023 4:45:00 AM 7.23 45.014 0.027 6.39 4.24 12.1
1/5/2023 5:00:00 AM 7.18 44.924 0.027 6.37 4.19 12.12
1/5/2023 5:15:00 AM 7.14 44.852 0.027 6.36 4.04 12.13
1/5/2023 5:30:00 AM 7.1 44.78 0.027 6.38 3.93 12.15
1/5/2023 5:45:00 AM 7.07 44.726 0.027 6.38 3.9 12.16
1/5/2023 6:00:00 AM 7.04 44.672 0.027 6.37 3.88 12.17
1/5/2023 6:15:00 AM 7.01 44.618 0.027 6.37 3.87 12.18
1/5/2023 6:30:00 AM 6.99 44.582 0.027 6.36 3.77 12.19
1/5/2023 6:45:00 AM 6.96 44.528 0.027 6.37 3.81 12.2
1/5/2023 7:00:00 AM 6.93 44.474 0.027 6.36 3.99 12.21
1/5/2023 7:15:00 AM 6.9 44.42 0.027 6.36 3.63 12.22
1/5/2023 7:30:00 AM 6.87 44.366 0.027 6.37 3.66 12.23
1/5/2023 7:45:00 AM 6.85 44.33 0.027 6.36 3.65 12.24
1/5/2023 8:00:00 AM 6.83 44.294 0.027 6.38 3.52 12.26
1/5/2023 8:15:00 AM 6.82 44.276 0.027 6.38 3.63 12.28
1/5/2023 8:30:00 AM 6.81 44.258 0.027 6.39 3.48 12.3
1/5/2023 8:45:00 AM 6.81 44.258 0.027 6.39 3.44 12.32
1/5/2023 9:00:00 AM 6.82 44.276 0.027 6.39 3.45 12.33
1/5/2023 9:15:00 AM 6.82 44.276 0.027 6.39 3.34 12.33
1/5/2023 9:30:00 AM 6.83 44.294 0.026 6.39 3.25 12.33
1/5/2023 9:45:00 AM 6.84 44.312 0.026 6.4 3.2 12.33
1/5/2023 10:00:00 AM 6.87 44.366 0.026 6.4 3.34 12.33
1/5/2023 10:15:00 AM 6.89 44.402 0.026 6.4 3.77 12.33
1/5/2023 10:30:00 AM 6.92 44.456 0.026 6.41 3.17 12.32
1/5/2023 10:45:00 AM 6.96 44.528 0.026 6.41 3.16 12.32
1/5/2023 11:00:00 AM 6.99 44.582 0.026 6.42 3.11 12.31
1/5/2023 11:15:00 AM 7.01 44.618 0.026 6.42 3.1 12.31
1/5/2023 11:30:00 AM 7.03 44.654 0.026 6.42 3.13 12.3
1/5/2023 11:45:00 AM 7.06 44.708 0.026 6.41 3.03 12.29
1/5/2023 12:00:00 PM 7.08 44.744 0.026 6.41 3.04 12.28
1/5/2023 12:15:00 PM 7.1 44.78 0.026 6.41 3.1 12.28
1/5/2023 12:30:00 PM 7.14 44.852 0.026 6.42 3.09 12.26
1/5/2023 12:45:00 PM 7.13 44.834 0.026 6.42 3.03 12.25
1/5/2023 1:00:00 PM 7.12 44.816 0.026 6.42 3.04 12.23
1/5/2023 1:15:00 PM 7.14 44.852 0.026 6.42 3.08 12.23
1/5/2023 1:30:00 PM 7.14 44.852 0.026 6.42 3.06 12.23
1/5/2023 1:45:00 PM 7.14 44.852 0.026 6.42 3.02 12.22
1/5/2023 2:00:00 PM 7.16 44.888 0.026 6.42 3.17 12.22
1/5/2023 2:15:00 PM 7.2 44.96 0.026 6.42 3.16 12.21
1/5/2023 2:30:00 PM 7.2 44.96 0.026 6.42 3.09 12.2
1/5/2023 2:45:00 PM 7.22 44.996 0.026 6.43 3.18 12.2
1/5/2023 3:00:00 PM 7.24 45.032 0.026 6.44 3.06 12.2
1/5/2023 3:15:00 PM 7.25 45.05 0.026 6.43 3.1 12.19
1/5/2023 3:30:00 PM 7.25 45.05 0.026 6.43 3.04 12.17
1/5/2023 3:45:00 PM 7.26 45.068 0.026 6.43 3.11 12.16
1/5/2023 4:00:00 PM 7.26 45.068 0.027 6.42 3.09 12.15
1/5/2023 4:15:00 PM 7.25 45.05 0.027 6.41 2.93 12.15
1/5/2023 4:30:00 PM 7.24 45.032 0.027 6.41 2.98 12.14
1/5/2023 4:45:00 PM 7.23 45.014 0.027 6.42 3.03 12.13
1/5/2023 5:00:00 PM 7.2 44.96 0.027 6.4 2.94 12.13
1/5/2023 5:15:00 PM 7.17 44.906 0.027 6.39 2.94 12.12
1/5/2023 5:30:00 PM 7.14 44.852 0.027 6.39 3.04 12.13
1/5/2023 5:45:00 PM 7.1 44.78 0.027 6.39 3.12 12.14
1/5/2023 6:00:00 PM 7.08 44.744 0.027 6.4 3 12.15
1/5/2023 6:15:00 PM 7.04 44.672 0.027 6.4 3.09 12.16
1/5/2023 6:30:00 PM 7.01 44.618 0.027 6.39 3.14 12.17
1/5/2023 6:45:00 PM 6.97 44.546 0.027 6.41 3.02 12.18
1/5/2023 7:00:00 PM 6.94 44.492 0.027 6.41 3.08 12.2
1/5/2023 7:15:00 PM 6.91 44.438 0.027 6.4 2.94 12.21
1/5/2023 7:30:00 PM 6.87 44.366 0.027 6.4 3.27 12.22
1/5/2023 7:45:00 PM 6.83 44.294 0.027 6.4 3.04 12.23
1/5/2023 8:00:00 PM 6.78 44.204 0.027 6.41 3.24 12.25
1/5/2023 8:15:00 PM 6.74 44.132 0.027 6.4 2.94 12.26
1/5/2023 8:30:00 PM 6.69 44.042 0.027 6.41 3.02 12.28
1/5/2023 8:45:00 PM 6.65 43.97 0.027 6.4 3.15 12.29
1/5/2023 9:00:00 PM 6.6 43.88 0.027 6.41 2.98 12.31
1/5/2023 9:15:00 PM 6.55 43.79 0.027 6.41 2.97 12.32
1/5/2023 9:30:00 PM 6.5 43.7 0.027 6.41 2.95 12.34
1/5/2023 9:45:00 PM 6.46 43.628 0.027 6.42 2.87 12.35
1/5/2023 10:00:00 PM 6.41 43.538 0.027 6.41 2.93 12.36
1/5/2023 10:15:00 PM 6.37 43.466 0.027 6.41 2.91 12.37
1/5/2023 10:30:00 PM 6.34 43.412 0.027 6.42 2.89 12.38
1/5/2023 10:45:00 PM 6.31 43.358 0.027 6.4 3 12.39
1/5/2023 11:00:00 PM 6.29 43.322 0.027 6.41 2.81 12.4
1/5/2023 11:15:00 PM 6.26 43.268 0.027 6.42 2.78 12.41
1/5/2023 11:30:00 PM 6.23 43.214 0.027 6.41 2.83 12.42
1/5/2023 11:45:00 PM 6.2 43.16 0.027 6.42 2.78 12.42
1/6/2023 12:00:00 AM 6.16 43.088 0.027 6.42 2.85 12.43
1/6/2023 12:15:00 AM 6.13 43.034 0.027 6.41 2.83 12.44
1/6/2023 12:30:00 AM 6.1 42.98 0.027 6.42 2.73 12.45
1/6/2023 12:45:00 AM 6.07 42.926 0.027 6.42 2.72 12.46
1/6/2023 1:00:00 AM 6.05 42.89 0.027 6.43 2.73 12.46
1/6/2023 1:15:00 AM 6.03 42.854 0.027 6.41 2.84 12.47
1/6/2023 1:30:00 AM 6.01 42.818 0.027 6.43 2.84 12.48
1/6/2023 1:45:00 AM 6 42.8 0.027 6.42 2.85 12.48
1/6/2023 2:00:00 AM 5.98 42.764 0.027 6.43 2.75 12.48
1/6/2023 2:15:00 AM 5.97 42.746 0.027 6.42 2.72 12.49
1/6/2023 2:30:00 AM 5.96 42.728 0.027 6.42 2.75 12.5
1/6/2023 2:45:00 AM 5.95 42.71 0.027 6.42 2.73 12.5
1/6/2023 3:00:00 AM 5.94 42.692 0.027 6.42 2.57 12.5
1/6/2023 3:15:00 AM 5.93 42.674 0.027 6.43 2.69 12.51
1/6/2023 3:30:00 AM 5.93 42.674 0.027 6.43 2.59 12.51
1/6/2023 3:45:00 AM 5.91 42.638 0.027 6.44 2.56 12.51
1/6/2023 4:00:00 AM 5.89 42.602 0.027 6.43 2.76 12.52
1/6/2023 4:15:00 AM 5.87 42.566 0.027 6.42 2.58 12.52
1/6/2023 4:30:00 AM 5.86 42.548 0.027 6.43 2.59 12.53
1/6/2023 4:45:00 AM 5.85 42.53 0.027 6.42 2.59 12.53
1/6/2023 5:00:00 AM 5.83 42.494 0.027 6.41 2.67 12.54
1/6/2023 5:15:00 AM 5.82 42.476 0.027 6.41 2.53 12.54
1/6/2023 5:30:00 AM 5.82 42.476 0.027 6.43 2.59 12.54
1/6/2023 5:45:00 AM 5.8 42.44 0.027 6.42 2.65 12.55
1/6/2023 6:00:00 AM 5.8 42.44 0.027 6.43 2.56 12.55
1/6/2023 6:15:00 AM 5.8 42.44 0.027 6.42 2.46 12.56
1/6/2023 6:30:00 AM 5.79 42.422 0.027 6.42 2.5 12.56
1/6/2023 6:45:00 AM 5.78 42.404 0.027 6.42 2.47 12.56
1/6/2023 7:00:00 AM 5.78 42.404 0.027 6.42 2.55 12.57
1/6/2023 7:15:00 AM 5.78 42.404 0.027 6.41 2.54 12.57
1/6/2023 7:30:00 AM 5.78 42.404 0.027 6.42 2.44 12.58
1/6/2023 7:45:00 AM 5.78 42.404 0.027 6.43 2.41 12.58
1/6/2023 8:00:00 AM 5.78 42.404 0.027 6.42 2.41 12.58
1/6/2023 8:15:00 AM 5.78 42.404 0.027 6.42 2.6 12.59
1/6/2023 8:30:00 AM 5.79 42.422 0.027 6.42 2.47 12.59
1/6/2023 8:45:00 AM 5.79 42.422 0.027 6.43 2.42 12.59
1/6/2023 9:00:00 AM 5.8 42.44 0.027 6.43 2.36 12.61
1/6/2023 9:15:00 AM 5.8 42.44 0.027 6.43 2.32 12.62
1/6/2023 9:30:00 AM 5.81 42.458 0.027 6.44 2.36 12.62
1/6/2023 9:45:00 AM 5.82 42.476 0.027 6.43 2.38 12.63
1/6/2023 10:00:00 AM 5.81 42.458 0.027 6.44 2.31 12.62
1/6/2023 10:15:00 AM 5.72 42.296 0.027 6.44 2.34 12.64
1/6/2023 10:30:00 AM 5.75 42.35 0.027 6.44 2.31 12.66
1/6/2023 10:45:00 AM 5.77 42.386 0.027 6.48 2.35 12.68
1/6/2023 11:00:00 AM 5.82 42.476 0.027 6.44 2.32 12.69
1/6/2023 11:15:00 AM 5.87 42.566 0.027 6.51 2.21 12.68
1/6/2023 11:30:00 AM 5.91 42.638 0.027 6.4 2.39 12.67
1/6/2023 11:45:00 AM 5.93 42.674 0.027 6.46 2.39 12.65
1/6/2023 12:00:00 PM 5.95 42.71 0.027 6.46 2.44 12.64
1/6/2023 12:15:00 PM 5.97 42.746 0.027 6.48 2.3 12.63
1/6/2023 12:30:00 PM 5.99 42.782 0.027 6.45 2.35 12.63
1/6/2023 12:45:00 PM 6.03 42.854 0.027 6.47 3.39 12.63
1/6/2023 1:00:00 PM 6.05 42.89 0.027 6.46 3.06 12.62
1/6/2023 1:15:00 PM 6.07 42.926 0.027 6.46 2.8 12.61
1/6/2023 1:30:00 PM 6.1 42.98 0.027 6.47 2.65 12.6
1/6/2023 1:45:00 PM 6.12 43.016 0.027 6.47 2.44 12.6
1/6/2023 2:00:00 PM 6.14 43.052 0.027 6.46 2.46 12.59
1/6/2023 2:15:00 PM 6.15 43.07 0.027 6.47 2.44 12.58
1/6/2023 2:30:00 PM 6.16 43.088 0.027 6.47 2.55 12.58
1/6/2023 2:45:00 PM 6.16 43.088 0.027 6.46 2.3 12.58
1/6/2023 3:00:00 PM 6.15 43.07 0.027 6.45 2.6 12.56
1/6/2023 3:15:00 PM 6.14 43.052 0.027 6.46 2.46 12.55
1/6/2023 3:30:00 PM 6.14 43.052 0.027 6.45 2.4 12.55
1/6/2023 3:45:00 PM 6.13 43.034 0.027 6.46 2.37 12.55
1/6/2023 4:00:00 PM 6.12 43.016 0.027 6.45 2.42 12.54
1/6/2023 4:15:00 PM 6.11 42.998 0.027 6.45 2.34 12.54
1/6/2023 4:30:00 PM 6.09 42.962 0.027 6.45 2.44 12.54
1/6/2023 4:45:00 PM 6.07 42.926 0.027 6.44 2.28 12.54
1/6/2023 5:00:00 PM 6.05 42.89 0.027 6.43 2.31 12.54
1/6/2023 5:15:00 PM 6.04 42.872 0.027 6.43 2.48 12.53
1/6/2023 5:30:00 PM 6.03 42.854 0.027 6.43 2.45 12.54
1/6/2023 5:45:00 PM 6.01 42.818 0.027 6.43 2.45 12.54
1/6/2023 6:00:00 PM 5.98 42.764 0.027 6.42 2.4 12.55
1/6/2023 6:15:00 PM 5.96 42.728 0.027 6.42 2.42 12.56
1/6/2023 6:30:00 PM 5.93 42.674 0.027 6.42 2.53 12.57
1/6/2023 6:45:00 PM 5.91 42.638 0.027 6.42 2.35 12.58
1/6/2023 7:00:00 PM 5.89 42.602 0.027 6.41 2.42 12.58
1/6/2023 7:15:00 PM 5.88 42.584 0.027 6.42 2.34 12.59
1/6/2023 7:30:00 PM 5.87 42.566 0.027 6.42 2.3 12.6
1/6/2023 7:45:00 PM 5.85 42.53 0.027 6.41 2.34 12.61
1/6/2023 8:00:00 PM 5.84 42.512 0.027 6.42 2.37 12.61
1/6/2023 8:15:00 PM 5.83 42.494 0.027 6.41 2.38 12.61
1/6/2023 8:30:00 PM 5.82 42.476 0.027 6.42 2.39 12.62
1/6/2023 8:45:00 PM 5.82 42.476 0.027 6.41 2.35 12.62
1/6/2023 9:00:00 PM 5.8 42.44 0.027 6.41 2.36 12.62
1/6/2023 9:15:00 PM 5.79 42.422 0.027 6.41 2.42 12.63
1/6/2023 9:30:00 PM 5.77 42.386 0.027 6.42 2.28 12.63
1/6/2023 9:45:00 PM 5.75 42.35 0.027 6.42 2.63 12.64
1/6/2023 10:00:00 PM 5.74 42.332 0.027 6.42 2.27 12.65
1/6/2023 10:15:00 PM 5.73 42.314 0.027 6.41 2.46 12.65
1/6/2023 10:30:00 PM 5.72 42.296 0.027 6.41 2.21 12.66
1/6/2023 10:45:00 PM 5.71 42.278 0.027 6.4 2.24 12.66
1/6/2023 11:00:00 PM 5.7 42.26 0.027 6.42 2.23 12.66
1/6/2023 11:15:00 PM 5.7 42.26 0.027 6.4 2.27 12.66
1/6/2023 11:30:00 PM 5.69 42.242 0.027 6.41 2.21 12.66
1/6/2023 11:45:00 PM 5.68 42.224 0.027 6.41 2.15 12.67
1/7/2023 12:00:00 AM 5.67 42.206 0.027 6.42 2.19 12.67
1/7/2023 12:15:00 AM 5.66 42.188 0.027 6.41 2.2 12.67
1/7/2023 12:30:00 AM 5.65 42.17 0.027 6.41 2.21 12.68
1/7/2023 12:45:00 AM 5.63 42.134 0.027 6.41 2.21 12.68
1/7/2023 1:00:00 AM 5.62 42.116 0.027 6.41 2.2 12.68
1/7/2023 1:15:00 AM 5.6 42.08 0.027 6.41 2.19 12.69
1/7/2023 1:30:00 AM 5.59 42.062 0.027 6.41 2.34 12.69
1/7/2023 1:45:00 AM 5.58 42.044 0.027 6.41 2.18 12.69
1/7/2023 2:00:00 AM 5.57 42.026 0.027 6.41 2.15 12.69
1/7/2023 2:15:00 AM 5.57 42.026 0.027 6.41 2.22 12.7
1/7/2023 2:30:00 AM 5.56 42.008 0.027 6.41 2.15 12.7
1/7/2023 2:45:00 AM 5.56 42.008 0.027 6.41 2.26 12.7
1/7/2023 3:00:00 AM 5.55 41.99 0.027 6.41 2.16 12.71
1/7/2023 3:15:00 AM 5.55 41.99 0.027 6.41 2.18 12.7
1/7/2023 3:30:00 AM 5.55 41.99 0.027 6.41 2.3 12.7
1/7/2023 3:45:00 AM 5.55 41.99 0.027 6.42 2.2 12.71
1/7/2023 4:00:00 AM 5.54 41.972 0.027 6.41 2.13 12.71
1/7/2023 4:15:00 AM 5.54 41.972 0.027 6.41 2.16 12.71
1/7/2023 4:30:00 AM 5.54 41.972 0.027 6.42 2.23 12.71
1/7/2023 4:45:00 AM 5.53 41.954 0.027 6.42 2.15 12.71
1/7/2023 5:00:00 AM 5.53 41.954 0.027 6.41 2.16 12.71
1/7/2023 5:15:00 AM 5.53 41.954 0.027 6.42 2.23 12.71
1/7/2023 5:30:00 AM 5.53 41.954 0.027 6.42 2.04 12.71
1/7/2023 5:45:00 AM 5.53 41.954 0.027 6.41 2.03 12.71
1/7/2023 6:00:00 AM 5.52 41.936 0.027 6.41 2.09 12.71
1/7/2023 6:15:00 AM 5.52 41.936 0.027 6.42 2.09 12.71
1/7/2023 6:30:00 AM 5.52 41.936 0.027 6.42 2.06 12.72
1/7/2023 6:45:00 AM 5.52 41.936 0.027 6.42 2.07 12.72
1/7/2023 7:00:00 AM 5.52 41.936 0.027 6.42 2.04 12.72
1/7/2023 7:15:00 AM 5.52 41.936 0.027 6.42 2.17 12.72
1/7/2023 7:30:00 AM 5.52 41.936 0.027 6.42 2.14 12.72
1/7/2023 7:45:00 AM 5.51 41.918 0.027 6.41 2.01 12.72
1/7/2023 8:00:00 AM 5.51 41.918 0.027 6.41 2.06 12.73
1/7/2023 8:15:00 AM 5.51 41.918 0.027 6.41 2.12 12.74
1/7/2023 8:30:00 AM 5.51 41.918 0.027 6.43 1.99 12.74
1/7/2023 8:45:00 AM 5.51 41.918 0.027 6.42 1.95 12.75
1/7/2023 9:00:00 AM 5.51 41.918 0.027 6.43 1.99 12.75
1/7/2023 9:15:00 AM 5.52 41.936 0.027 6.43 2 12.76
1/7/2023 9:30:00 AM 5.52 41.936 0.027 6.44 1.94 12.77
1/7/2023 9:45:00 AM 5.53 41.954 0.027 6.44 1.97 12.78
1/7/2023 10:00:00 AM 5.54 41.972 0.027 6.44 1.97 12.78
1/7/2023 10:15:00 AM 5.54 41.972 0.027 6.45 1.98 12.79
1/7/2023 10:30:00 AM 5.55 41.99 0.027 6.45 2.06 12.79
1/7/2023 10:45:00 AM 5.56 42.008 0.027 6.44 1.94 12.79
1/7/2023 11:00:00 AM 5.57 42.026 0.027 6.45 1.95 12.79
1/7/2023 11:15:00 AM 5.57 42.026 0.027 6.45 1.97 12.8
1/7/2023 11:30:00 AM 5.59 42.062 0.027 6.46 1.87 12.8
1/7/2023 11:45:00 AM 5.6 42.08 0.027 6.46 1.94 12.8
1/7/2023 12:00:00 PM 5.61 42.098 0.027 6.46 1.92 12.8
1/7/2023 12:15:00 PM 5.63 42.134 0.027 6.47 1.88 12.8
1/7/2023 12:30:00 PM 5.65 42.17 0.027 6.46 1.97 12.8
1/7/2023 12:45:00 PM 5.67 42.206 0.027 6.47 1.88 12.8
1/7/2023 1:00:00 PM 5.68 42.224 0.027 6.47 1.91 12.79
1/7/2023 1:15:00 PM 5.7 42.26 0.027 6.47 1.87 12.78
1/7/2023 1:30:00 PM 5.71 42.278 0.027 6.47 1.89 12.76
1/7/2023 1:45:00 PM 5.73 42.314 0.027 6.47 2 12.76
1/7/2023 2:00:00 PM 5.76 42.368 0.027 6.47 1.97 12.76
1/7/2023 2:15:00 PM 5.77 42.386 0.027 6.47 1.94 12.76
1/7/2023 2:30:00 PM 5.79 42.422 0.027 6.47 2.08 12.76
1/7/2023 2:45:00 PM 5.8 42.44 0.027 6.47 2 12.75
1/7/2023 3:00:00 PM 5.81 42.458 0.027 6.47 2 12.74
1/7/2023 3:15:00 PM 5.82 42.476 0.027 6.47 1.93 12.74
1/7/2023 3:30:00 PM 5.82 42.476 0.027 6.48 2.04 12.74
1/7/2023 3:45:00 PM 5.82 42.476 0.027 6.47 2 12.73
1/7/2023 4:00:00 PM 5.8 42.44 0.027 6.46 2.07 12.7
1/7/2023 4:15:00 PM 5.78 42.404 0.027 6.45 1.99 12.7
1/7/2023 4:30:00 PM 5.73 42.314 0.027 6.44 1.96 12.69
1/7/2023 4:45:00 PM 5.7 42.26 0.027 6.45 2.01 12.7
1/7/2023 5:00:00 PM 5.64 42.152 0.027 6.44 1.99 12.7
1/7/2023 5:15:00 PM 5.61 42.098 0.027 6.44 2.11 12.71
1/7/2023 5:30:00 PM 5.58 42.044 0.027 6.44 2.17 12.73
1/7/2023 5:45:00 PM 5.55 41.99 0.027 6.43 2.31 12.73
1/7/2023 6:00:00 PM 5.53 41.954 0.027 6.43 2.38 12.74
1/7/2023 6:15:00 PM 5.51 41.918 0.027 6.43 2.31 12.75
1/7/2023 6:30:00 PM 5.5 41.9 0.027 6.43 2.12 12.76
1/7/2023 6:45:00 PM 5.48 41.864 0.027 6.43 2.08 12.76
1/7/2023 7:00:00 PM 5.47 41.846 0.027 6.43 2.15 12.77
1/7/2023 7:15:00 PM 5.47 41.846 0.027 6.43 2.11 12.77
1/7/2023 7:30:00 PM 5.46 41.828 0.027 6.43 2.23 12.77
1/7/2023 7:45:00 PM 5.46 41.828 0.027 6.43 2.15 12.78
1/7/2023 8:00:00 PM 5.45 41.81 0.027 6.44 2.19 12.78
1/7/2023 8:15:00 PM 5.44 41.792 0.027 6.42 2.23 12.79
1/7/2023 8:30:00 PM 5.44 41.792 0.027 6.43 2.15 12.79
1/7/2023 8:45:00 PM 5.43 41.774 0.027 6.44 2.12 12.79
1/7/2023 9:00:00 PM 5.43 41.774 0.027 6.43 2.14 12.8
1/7/2023 9:15:00 PM 5.43 41.774 0.027 6.44 2.16 12.8
1/7/2023 9:30:00 PM 5.42 41.756 0.027 6.43 2.07 12.8
1/7/2023 9:45:00 PM 5.42 41.756 0.027 6.43 2.12 12.8
1/7/2023 10:00:00 PM 5.41 41.738 0.027 6.43 2.11 12.8
1/7/2023 10:15:00 PM 5.4 41.72 0.027 6.43 2.07 12.81
1/7/2023 10:30:00 PM 5.39 41.702 0.027 6.44 2.12 12.81
1/7/2023 10:45:00 PM 5.38 41.684 0.027 6.43 2.02 12.81
1/7/2023 11:00:00 PM 5.38 41.684 0.027 6.43 1.97 12.82
1/7/2023 11:15:00 PM 5.37 41.666 0.027 6.43 1.96 12.81
1/7/2023 11:30:00 PM 5.37 41.666 0.027 6.43 2.02 12.82
1/7/2023 11:45:00 PM 5.36 41.648 0.027 6.43 1.97 12.82
1/8/2023 12:00:00 AM 5.35 41.63 0.027 6.43 1.93 12.82
1/8/2023 12:15:00 AM 5.34 41.612 0.027 6.45 1.87 12.83
1/8/2023 12:30:00 AM 5.34 41.612 0.027 6.44 1.98 12.82
1/8/2023 12:45:00 AM 5.33 41.594 0.027 6.43 1.94 12.83
1/8/2023 1:00:00 AM 5.32 41.576 0.027 6.43 1.9 12.83
1/8/2023 1:15:00 AM 5.31 41.558 0.027 6.43 1.88 12.83
1/8/2023 1:30:00 AM 5.29 41.522 0.027 6.44 1.89 12.84
1/8/2023 1:45:00 AM 5.28 41.504 0.027 6.44 1.93 12.84
1/8/2023 2:00:00 AM 5.27 41.486 0.027 6.44 1.9 12.84
1/8/2023 2:15:00 AM 5.26 41.468 0.027 6.44 1.92 12.85
1/8/2023 2:30:00 AM 5.25 41.45 0.027 6.44 1.94 12.86
1/8/2023 2:45:00 AM 5.24 41.432 0.027 6.44 1.88 12.86
1/8/2023 3:00:00 AM 5.23 41.414 0.027 6.44 1.91 12.86
1/8/2023 3:15:00 AM 5.22 41.396 0.027 6.44 1.86 12.86
1/8/2023 3:30:00 AM 5.21 41.378 0.027 6.44 1.88 12.87
1/8/2023 3:45:00 AM 5.2 41.36 0.027 6.44 1.87 12.87
1/8/2023 4:00:00 AM 5.18 41.324 0.027 6.44 1.86 12.87
1/8/2023 4:15:00 AM 5.16 41.288 0.027 6.44 1.86 12.88
1/8/2023 4:30:00 AM 5.15 41.27 0.027 6.44 1.82 12.88
1/8/2023 4:45:00 AM 5.14 41.252 0.027 6.44 1.88 12.88
1/8/2023 5:00:00 AM 5.13 41.234 0.027 6.44 1.85 12.88
1/8/2023 5:15:00 AM 5.12 41.216 0.027 6.44 1.87 12.89
1/8/2023 5:30:00 AM 5.1 41.18 0.027 6.44 1.88 12.89
1/8/2023 5:45:00 AM 5.09 41.162 0.027 6.44 1.9 12.9
1/8/2023 6:00:00 AM 5.08 41.144 0.027 6.44 1.86 12.9
1/8/2023 6:15:00 AM 5.06 41.108 0.027 6.44 1.84 12.9
1/8/2023 6:30:00 AM 5.05 41.09 0.027 6.44 1.86 12.91
1/8/2023 6:45:00 AM 5.04 41.072 0.027 6.44 1.92 12.91
1/8/2023 7:00:00 AM 5.02 41.036 0.027 6.44 1.82 12.92
1/8/2023 7:15:00 AM 5.01 41.018 0.027 6.44 1.9 12.92
1/8/2023 7:30:00 AM 4.99 40.982 0.027 6.44 1.9 12.93
1/8/2023 7:45:00 AM 4.97 40.946 0.027 6.44 1.83 12.93
1/8/2023 8:00:00 AM 4.96 40.928 0.027 6.44 1.74 12.94
1/8/2023 8:15:00 AM 4.95 40.91 0.027 6.44 1.83 12.96
1/8/2023 8:30:00 AM 4.93 40.874 0.027 6.45 1.78 12.97
1/8/2023 8:45:00 AM 4.93 40.874 0.027 6.45 1.76 12.99
1/8/2023 9:00:00 AM 4.93 40.874 0.027 6.46 1.85 13.01
1/8/2023 9:15:00 AM 4.92 40.856 0.027 6.47 1.7 13.03
1/8/2023 9:30:00 AM 4.92 40.856 0.027 6.47 1.73 13.04
1/8/2023 9:45:00 AM 4.92 40.856 0.027 6.47 1.75 13.05
1/8/2023 10:00:00 AM 4.93 40.874 0.027 6.47 1.72 13.06
1/8/2023 10:15:00 AM 4.94 40.892 0.027 6.48 1.75 13.06
1/8/2023 10:30:00 AM 4.95 40.91 0.027 6.48 1.74 13.07
1/8/2023 10:45:00 AM 4.95 40.91 0.027 6.48 1.72 13.07
1/8/2023 11:00:00 AM 4.98 40.964 0.027 6.48 1.73 13.07
1/8/2023 11:15:00 AM 5 41 0.027 6.48 1.74 13.06
1/8/2023 11:30:00 AM 5.03 41.054 0.027 6.49 1.72 13.06
1/8/2023 11:45:00 AM 5.06 41.108 0.027 6.49 1.73 13.05
1/8/2023 12:00:00 PM 5.1 41.18 0.027 6.49 1.71 13.04
1/8/2023 12:15:00 PM 5.13 41.234 0.027 6.49 1.72 13.02
1/8/2023 12:30:00 PM 5.15 41.27 0.027 6.49 1.68 13.02
1/8/2023 12:45:00 PM 5.15 41.27 0.027 6.49 1.7 13
1/8/2023 1:00:00 PM 5.18 41.324 0.027 6.49 1.69 12.99
1/8/2023 1:15:00 PM 5.19 41.342 0.027 6.48 11.74 12.98
1/8/2023 1:30:00 PM 5.21 41.378 0.027 6.49 1.73 12.97
1/8/2023 1:45:00 PM 5.23 41.414 0.027 6.48 1.68 12.96
1/8/2023 2:00:00 PM 5.27 41.486 0.027 6.49 1.75 12.94
1/8/2023 2:15:00 PM 5.29 41.522 0.027 6.49 1.71 12.94
1/8/2023 2:30:00 PM 5.32 41.576 0.027 6.49 1.7 12.93
1/8/2023 2:45:00 PM 5.31 41.558 0.027 6.49 1.72 12.92
1/8/2023 3:00:00 PM 5.3 41.54 0.027 6.49 1.68 12.91
1/8/2023 3:15:00 PM 5.28 41.504 0.027 6.49 1.7 12.91
1/8/2023 3:30:00 PM 5.3 41.54 0.027 6.49 1.73 12.9
1/8/2023 3:45:00 PM 5.3 41.54 0.027 6.49 1.67 12.9
1/8/2023 4:00:00 PM 5.29 41.522 0.027 6.49 1.66 12.89
1/8/2023 4:15:00 PM 5.29 41.522 0.027 6.48 1.72 12.87
1/8/2023 4:30:00 PM 5.27 41.486 0.027 6.48 1.78 12.85
1/8/2023 4:45:00 PM 5.25 41.45 0.027 6.47 1.69 12.83
1/8/2023 5:00:00 PM 5.24 41.432 0.027 6.46 1.64 12.81
1/8/2023 5:15:00 PM 5.22 41.396 0.027 6.46 1.66 12.8
1/8/2023 5:30:00 PM 5.2 41.36 0.027 6.45 1.76 12.79
1/8/2023 5:45:00 PM 5.16 41.288 0.028 6.45 1.71 12.79
1/8/2023 6:00:00 PM 5.13 41.234 0.028 6.45 1.72 12.79
1/8/2023 6:15:00 PM 5.09 41.162 0.028 6.44 1.73 12.8
1/8/2023 6:30:00 PM 5.07 41.126 0.028 6.44 1.75 12.81
1/8/2023 6:45:00 PM 5.04 41.072 0.028 6.44 1.75 12.82
1/8/2023 7:00:00 PM 5.02 41.036 0.028 6.44 1.73 12.82
1/8/2023 7:15:00 PM 5 41 0.028 6.45 1.76 12.83
1/8/2023 7:30:00 PM 4.99 40.982 0.028 6.44 1.73 12.83
1/8/2023 7:45:00 PM 4.98 40.964 0.028 6.44 1.71 12.84
1/8/2023 8:00:00 PM 4.96 40.928 0.028 6.45 1.73 12.84
1/8/2023 8:15:00 PM 4.95 40.91 0.028 6.44 1.7 12.84
1/8/2023 8:30:00 PM 4.93 40.874 0.028 6.44 1.72 12.84
1/8/2023 8:45:00 PM 4.91 40.838 0.028 6.44 1.77 12.84
1/8/2023 9:00:00 PM 4.89 40.802 0.028 6.44 1.76 12.85
1/8/2023 9:15:00 PM 4.86 40.748 0.028 6.44 1.73 12.85
1/8/2023 9:30:00 PM 4.83 40.694 0.028 6.44 1.72 12.85
1/8/2023 9:45:00 PM 4.81 40.658 0.028 6.44 1.67 12.86
1/8/2023 10:00:00 PM 4.78 40.604 0.028 6.44 1.77 12.87
1/8/2023 10:15:00 PM 4.76 40.568 0.028 6.44 1.73 12.87
1/8/2023 10:30:00 PM 4.74 40.532 0.028 6.44 1.7 12.88
1/8/2023 10:45:00 PM 4.73 40.514 0.028 6.44 1.76 12.89
1/8/2023 11:00:00 PM 4.72 40.496 0.028 6.44 1.67 12.89
1/8/2023 11:15:00 PM 4.71 40.478 0.028 6.45 1.69 12.9
1/8/2023 11:30:00 PM 4.7 40.46 0.028 6.44 1.74 12.9
1/8/2023 11:45:00 PM 4.69 40.442 0.028 6.44 1.69 12.9
1/9/2023 12:00:00 AM 4.68 40.424 0.028 6.44 1.68 12.9
1/9/2023 12:15:00 AM 4.67 40.406 0.028 6.44 1.7 12.91
1/9/2023 12:30:00 AM 4.66 40.388 0.028 6.44 1.73 12.91
1/9/2023 12:45:00 AM 4.65 40.37 0.028 6.44 1.7 12.91
1/9/2023 1:00:00 AM 4.64 40.352 0.028 6.45 1.68 12.91
1/9/2023 1:15:00 AM 4.63 40.334 0.028 6.44 1.66 12.91
1/9/2023 1:30:00 AM 4.62 40.316 0.028 6.45 1.65 12.92
1/9/2023 1:45:00 AM 4.61 40.298 0.028 6.44 1.76 12.92
1/9/2023 2:00:00 AM 4.59 40.262 0.028 6.44 1.7 12.92
1/9/2023 2:15:00 AM 4.58 40.244 0.028 6.44 1.65 12.93
1/9/2023 2:30:00 AM 4.56 40.208 0.028 6.44 1.73 12.93
1/9/2023 2:45:00 AM 4.53 40.154 0.028 6.44 1.68 12.94
1/9/2023 3:00:00 AM 4.51 40.118 0.028 6.44 1.64 12.95
1/9/2023 3:15:00 AM 4.49 40.082 0.028 6.45 1.65 12.96
1/9/2023 3:30:00 AM 4.46 40.028 0.028 6.44 1.6 12.97
1/9/2023 3:45:00 AM 4.43 39.974 0.028 6.44 1.66 12.97
1/9/2023 4:00:00 AM 4.42 39.956 0.028 6.44 1.66 12.98
1/9/2023 4:15:00 AM 4.42 39.956 0.028 6.44 1.67 12.98
1/9/2023 4:30:00 AM 4.41 39.938 0.028 6.45 1.66 12.99
1/9/2023 4:45:00 AM 4.4 39.92 0.028 6.45 1.65 12.99
1/9/2023 5:00:00 AM 4.39 39.902 0.028 6.44 1.64 12.99
1/9/2023 5:15:00 AM 4.38 39.884 0.028 6.44 1.64 12.99
1/9/2023 5:30:00 AM 4.38 39.884 0.028 6.45 1.76 13
1/9/2023 5:45:00 AM 4.37 39.866 0.028 6.45 1.58 13
1/9/2023 6:00:00 AM 4.37 39.866 0.028 6.44 1.69 13
1/9/2023 6:15:00 AM 4.37 39.866 0.028 6.44 1.6 13
1/9/2023 6:30:00 AM 4.36 39.848 0.028 6.45 1.61 13.01
1/9/2023 6:45:00 AM 4.34 39.812 0.028 6.45 1.64 13.01
1/9/2023 7:00:00 AM 4.34 39.812 0.028 6.45 1.62 13.02
1/9/2023 7:15:00 AM 4.32 39.776 0.028 6.45 1.62 13.02
1/9/2023 7:30:00 AM 4.31 39.758 0.028 6.45 1.59 13.03
1/9/2023 7:45:00 AM 4.3 39.74 0.028 6.46 1.64 13.03
1/9/2023 8:00:00 AM 4.31 39.758 0.028 6.45 1.59 13.04
1/9/2023 8:15:00 AM 4.29 39.722 0.028 6.46 1.6 13.05
1/9/2023 8:30:00 AM 4.28 39.704 0.028 6.46 1.59 13.07
1/9/2023 8:45:00 AM 4.27 39.686 0.028 6.47 1.59 13.09
1/9/2023 9:00:00 AM 4.26 39.668 0.028 6.47 1.6 13.1
1/9/2023 9:15:00 AM 4.26 39.668 0.028 6.48 1.56 13.13
1/9/2023 9:30:00 AM 4.25 39.65 0.028 6.48 1.57 13.15
1/9/2023 9:45:00 AM 4.25 39.65 0.028 6.49 1.62 13.17
1/9/2023 10:00:00 AM 4.28 39.704 0.028 6.5 1.55 13.19
1/9/2023 10:15:00 AM 4.31 39.758 0.028 6.5 1.57 13.19
1/9/2023 10:30:00 AM 4.33 39.794 0.028 6.5 1.55 13.2
1/9/2023 10:45:00 AM 4.35 39.83 0.028 6.5 1.55 13.19
1/9/2023 11:00:00 AM 4.39 39.902 0.028 6.5 1.56 13.19
1/9/2023 11:15:00 AM 4.41 39.938 0.028 6.5 1.54 13.18
1/9/2023 11:30:00 AM 4.45 40.01 0.028 6.51 1.51 13.17
1/9/2023 11:45:00 AM 4.48 40.064 0.028 6.51 1.57 13.16
1/9/2023 12:00:00 PM 4.52 40.136 0.028 6.51 1.6 13.14
1/9/2023 12:15:00 PM 4.53 40.154 0.028 6.51 1.58 13.13
1/9/2023 12:30:00 PM 4.56 40.208 0.028 6.51 1.57 13.12
1/9/2023 12:45:00 PM 4.59 40.262 0.028 6.51 1.53 13.1
1/9/2023 1:00:00 PM 4.62 40.316 0.028 6.5 1.57 13.08
1/9/2023 1:15:00 PM 4.66 40.388 0.028 6.51 1.54 13.06
1/9/2023 1:30:00 PM 4.71 40.478 0.028 6.5 1.59 13.05
1/9/2023 1:45:00 PM 4.75 40.55 0.028 6.51 1.48 13.03
1/9/2023 2:00:00 PM 4.78 40.604 0.028 6.51 1.51 13.02
1/9/2023 2:15:00 PM 4.79 40.622 0.028 6.51 1.54 13.01
1/9/2023 2:30:00 PM 4.82 40.676 0.028 6.51 1.58 13
1/9/2023 2:45:00 PM 4.84 40.712 0.028 6.51 1.58 12.99
1/9/2023 3:00:00 PM 4.83 40.694 0.028 6.51 1.53 12.98
1/9/2023 3:15:00 PM 4.81 40.658 0.028 6.5 1.55 12.98
1/9/2023 3:30:00 PM 4.78 40.604 0.028 6.5 1.6 12.97
1/9/2023 3:45:00 PM 4.75 40.55 0.028 6.51 1.53 12.98
1/9/2023 4:00:00 PM 4.71 40.478 0.028 6.5 1.58 12.98
1/9/2023 4:15:00 PM 4.68 40.424 0.028 6.5 1.57 12.98
1/9/2023 4:30:00 PM 4.65 40.37 0.028 6.49 1.53 12.97
1/9/2023 4:45:00 PM 4.62 40.316 0.028 6.48 1.54 12.96
1/9/2023 5:00:00 PM 4.59 40.262 0.028 6.48 1.59 12.96
1/9/2023 5:15:00 PM 4.56 40.208 0.028 6.48 1.53 12.95
1/9/2023 5:30:00 PM 4.53 40.154 0.028 6.47 1.54 12.95
1/9/2023 5:45:00 PM 4.49 40.082 0.028 6.47 1.63 12.96
1/9/2023 6:00:00 PM 4.46 40.028 0.028 6.46 1.61 12.97
1/9/2023 6:15:00 PM 4.43 39.974 0.028 6.46 1.59 12.97
1/9/2023 6:30:00 PM 4.4 39.92 0.028 6.46 1.57 12.98
1/9/2023 6:45:00 PM 4.37 39.866 0.028 6.46 1.63 12.99
1/9/2023 7:00:00 PM 4.34 39.812 0.028 6.46 1.61 13
1/9/2023 7:15:00 PM 4.31 39.758 0.028 6.46 1.58 13
1/9/2023 7:30:00 PM 4.28 39.704 0.028 6.46 1.57 13.01
1/9/2023 7:45:00 PM 4.25 39.65 0.028 6.46 1.59 13.03
1/9/2023 8:00:00 PM 4.22 39.596 0.028 6.46 1.56 13.04
1/9/2023 8:15:00 PM 4.19 39.542 0.028 6.45 1.63 13.04
1/9/2023 8:30:00 PM 4.17 39.506 0.028 6.45 1.6 13.05
1/9/2023 8:45:00 PM 4.17 39.506 0.028 6.46 1.65 13.06
1/9/2023 9:00:00 PM 4.16 39.488 0.028 6.46 1.59 13.06
1/9/2023 9:15:00 PM 4.14 39.452 0.028 6.46 1.58 13.07
1/9/2023 9:30:00 PM 4.11 39.398 0.028 6.46 1.58 13.08
1/9/2023 9:45:00 PM 4.11 39.398 0.028 6.45 1.61 13.08
1/9/2023 10:00:00 PM 4.12 39.416 0.028 6.46 1.55 13.08
1/9/2023 10:15:00 PM 4.12 39.416 0.028 6.46 1.6 13.09
1/9/2023 10:30:00 PM 4.12 39.416 0.028 6.46 1.65 13.09
1/9/2023 10:45:00 PM 4.13 39.434 0.028 6.46 1.53 13.09
1/9/2023 11:00:00 PM 4.13 39.434 0.028 6.46 1.54 13.08
1/9/2023 11:15:00 PM 4.15 39.47 0.028 6.46 1.62 13.09
1/9/2023 11:30:00 PM 4.16 39.488 0.028 6.46 1.62 13.08
1/9/2023 11:45:00 PM 4.17 39.506 0.028 6.46 1.57 13.07
1/10/2023 12:00:00 AM 4.18 39.524 0.028 6.46 1.64 13.07
1/10/2023 12:15:00 AM 4.19 39.542 0.028 6.46 1.6 13.07
1/10/2023 12:30:00 AM 4.2 39.56 0.028 6.47 1.61 13.07
1/10/2023 12:45:00 AM 4.21 39.578 0.028 6.47 1.58 13.06
1/10/2023 1:00:00 AM 4.22 39.596 0.028 6.46 1.57 13.06
1/10/2023 1:15:00 AM 4.22 39.596 0.028 6.46 1.57 13.05
1/10/2023 1:30:00 AM 4.23 39.614 0.028 6.48 1.6 13.06
1/10/2023 1:45:00 AM 4.23 39.614 0.028 6.46 1.53 13.05
1/10/2023 2:00:00 AM 4.24 39.632 0.028 6.46 1.58 13.05
1/10/2023 2:15:00 AM 4.23 39.614 0.028 6.46 1.57 13.05
1/10/2023 2:30:00 AM 4.24 39.632 0.028 6.47 1.61 13.05
1/10/2023 2:45:00 AM 4.24 39.632 0.028 6.47 1.52 13.05
1/10/2023 3:00:00 AM 4.24 39.632 0.028 6.46 1.55 13.05
1/10/2023 3:15:00 AM 4.24 39.632 0.028 6.46 1.54 13.05
1/10/2023 3:30:00 AM 4.24 39.632 0.028 6.45 1.55 13.06
1/10/2023 3:45:00 AM 4.24 39.632 0.028 6.48 1.56 13.05
1/10/2023 4:00:00 AM 4.24 39.632 0.028 6.46 1.54 13.05
1/10/2023 4:15:00 AM 4.24 39.632 0.028 6.47 1.55 13.05
1/10/2023 4:30:00 AM 4.24 39.632 0.028 6.47 1.58 13.04
1/10/2023 4:45:00 AM 4.24 39.632 0.028 6.47 1.54 13.05
1/10/2023 5:00:00 AM 4.24 39.632 0.028 6.46 1.54 13.05
1/10/2023 5:15:00 AM 4.24 39.632 0.028 6.47 1.54 13.05
1/10/2023 5:30:00 AM 4.24 39.632 0.028 6.47 1.56 13.05
1/10/2023 5:45:00 AM 4.24 39.632 0.028 6.47 1.57 13.05
1/10/2023 6:00:00 AM 4.25 39.65 0.028 6.47 1.48 13.04
1/10/2023 6:15:00 AM 4.25 39.65 0.028 6.47 1.52 13.05
1/10/2023 6:30:00 AM 4.25 39.65 0.028 6.47 1.67 13.04
1/10/2023 6:45:00 AM 4.25 39.65 0.028 6.47 1.63 13.05
1/10/2023 7:00:00 AM 4.25 39.65 0.028 6.46 1.59 13.04
1/10/2023 7:15:00 AM 4.25 39.65 0.028 6.46 1.58 13.05
1/10/2023 7:30:00 AM 4.25 39.65 0.028 6.46 1.54 13.04
1/10/2023 7:45:00 AM 4.25 39.65 0.028 6.48 1.5 13.05
1/10/2023 8:00:00 AM 4.25 39.65 0.028 6.47 1.48 13.06
1/10/2023 8:15:00 AM 4.25 39.65 0.028 6.47 1.54 13.07
1/10/2023 8:30:00 AM 4.24 39.632 0.028 6.48 1.51 13.08
1/10/2023 8:45:00 AM 4.23 39.614 0.028 6.48 1.58 13.11
1/10/2023 9:00:00 AM 4.23 39.614 0.028 6.49 1.49 13.14
1/10/2023 9:15:00 AM 4.24 39.632 0.028 6.5 1.52 13.16
1/10/2023 9:30:00 AM 4.26 39.668 0.028 6.51 1.5 13.17
1/10/2023 9:45:00 AM 4.28 39.704 0.028 6.52 1.46 13.18
1/10/2023 10:00:00 AM 4.31 39.758 0.028 6.5 1.46 13.19
1/10/2023 10:15:00 AM 4.34 39.812 0.028 6.52 1.49 13.19
1/10/2023 10:30:00 AM 4.37 39.866 0.028 6.52 1.42 13.18
1/10/2023 10:45:00 AM 4.4 39.92 0.028 6.53 1.51 13.18
1/10/2023 11:00:00 AM 4.43 39.974 0.028 6.5 1.47 13.17
1/10/2023 11:15:00 AM 4.45 40.01 0.028 6.52 1.49 13.16
1/10/2023 11:30:00 AM 4.47 40.046 0.028 6.52 2.2 13.15
1/10/2023 11:45:00 AM 4.52 40.136 0.028 6.52 1.46 13.14
1/10/2023 12:00:00 PM 4.58 40.244 0.028 6.53 1.56 13.13
1/10/2023 12:15:00 PM 4.62 40.316 0.028 6.53 1.54 13.11
1/10/2023 12:30:00 PM 4.66 40.388 0.028 6.53 1.51 13.09
1/10/2023 12:45:00 PM 4.71 40.478 0.028 6.53 1.53 13.07
1/10/2023 1:00:00 PM 4.77 40.586 0.028 6.53 1.48 13.06
1/10/2023 1:15:00 PM 4.8 40.64 0.028 6.53 1.42 13.04
1/10/2023 1:30:00 PM 4.83 40.694 0.028 6.52 1.49 13.03
1/10/2023 1:45:00 PM 4.86 40.748 0.028 6.52 1.45 13.01
1/10/2023 2:00:00 PM 4.89 40.802 0.028 6.52 1.47 12.99
1/10/2023 2:15:00 PM 4.91 40.838 0.028 6.53 1.52 12.98
1/10/2023 2:30:00 PM 4.92 40.856 0.028 6.53 1.51 12.97
1/10/2023 2:45:00 PM 4.94 40.892 0.028 6.53 1.46 12.97
1/10/2023 3:00:00 PM 4.96 40.928 0.028 6.53 1.59 12.96
1/10/2023 3:15:00 PM 4.95 40.91 0.028 6.53 1.54 12.95
1/10/2023 3:30:00 PM 4.94 40.892 0.028 6.52 1.45 12.95
1/10/2023 3:45:00 PM 4.92 40.856 0.028 6.53 1.43 12.94
1/10/2023 4:00:00 PM 4.92 40.856 0.028 6.52 1.5 12.93
1/10/2023 4:15:00 PM 4.91 40.838 0.028 6.52 1.53 12.92
1/10/2023 4:30:00 PM 4.89 40.802 0.028 6.51 1.56 12.91
1/10/2023 4:45:00 PM 4.86 40.748 0.028 6.5 1.46 12.89
1/10/2023 5:00:00 PM 4.84 40.712 0.028 6.51 1.52 12.87
1/10/2023 5:15:00 PM 4.82 40.676 0.028 6.49 1.54 12.86
1/10/2023 5:30:00 PM 4.79 40.622 0.028 6.48 1.53 12.86
1/10/2023 5:45:00 PM 4.76 40.568 0.028 6.48 1.55 12.86
1/10/2023 6:00:00 PM 4.73 40.514 0.028 6.48 1.56 12.87
1/10/2023 6:15:00 PM 4.71 40.478 0.028 6.47 1.56 12.87
1/10/2023 6:30:00 PM 4.68 40.424 0.028 6.48 1.49 12.88
1/10/2023 6:45:00 PM 4.66 40.388 0.028 6.47 1.55 12.89
1/10/2023 7:00:00 PM 4.65 40.37 0.028 6.47 1.56 12.89
1/10/2023 7:15:00 PM 4.63 40.334 0.028 6.48 1.51 12.9
1/10/2023 7:30:00 PM 4.61 40.298 0.028 6.47 1.56 12.91
1/10/2023 7:45:00 PM 4.6 40.28 0.028 6.47 1.52 12.91
1/10/2023 8:00:00 PM 4.58 40.244 0.028 6.47 1.52 12.92
1/10/2023 8:15:00 PM 4.56 40.208 0.028 6.47 1.54 12.93
1/10/2023 8:30:00 PM 4.55 40.19 0.028 6.47 1.58 12.94
1/10/2023 8:45:00 PM 4.53 40.154 0.028 6.47 1.55 12.95
1/10/2023 9:00:00 PM 4.52 40.136 0.028 6.47 1.45 12.95
1/10/2023 9:15:00 PM 4.51 40.118 0.028 6.46 1.56 12.95
1/10/2023 9:30:00 PM 4.49 40.082 0.028 6.46 1.51 12.96
1/10/2023 9:45:00 PM 4.48 40.064 0.028 6.46 1.61 12.97
1/10/2023 10:00:00 PM 4.46 40.028 0.028 6.46 1.55 12.97
1/10/2023 10:15:00 PM 4.43 39.974 0.028 6.47 1.55 12.98
1/10/2023 10:30:00 PM 4.39 39.902 0.028 6.46 1.54 12.99
1/10/2023 10:45:00 PM 4.36 39.848 0.028 6.46 1.49 13
1/10/2023 11:00:00 PM 4.34 39.812 0.028 6.47 1.45 13.01
1/10/2023 11:15:00 PM 4.32 39.776 0.028 6.46 1.51 13.02
1/10/2023 11:30:00 PM 4.32 39.776 0.028 6.46 1.5 13.03
1/10/2023 11:45:00 PM 4.31 39.758 0.028 6.46 1.57 13.03
1/11/2023 12:00:00 AM 4.3 39.74 0.028 6.46 1.52 13.03
1/11/2023 12:15:00 AM 4.29 39.722 0.028 6.46 1.56 13.03
1/11/2023 12:30:00 AM 4.27 39.686 0.028 6.46 1.53 13.04
1/11/2023 12:45:00 AM 4.25 39.65 0.028 6.46 1.47 13.04
1/11/2023 1:00:00 AM 4.25 39.65 0.028 6.46 1.49 13.04
1/11/2023 1:15:00 AM 4.25 39.65 0.028 6.46 1.46 13.05
1/11/2023 1:30:00 AM 4.25 39.65 0.028 6.46 1.52 13.05
1/11/2023 1:45:00 AM 4.25 39.65 0.028 6.46 1.47 13.05
1/11/2023 2:00:00 AM 4.25 39.65 0.028 6.46 1.49 13.06
1/11/2023 2:15:00 AM 4.25 39.65 0.028 6.46 1.5 13.06
1/11/2023 2:30:00 AM 4.25 39.65 0.028 6.46 1.52 13.06
1/11/2023 2:45:00 AM 4.25 39.65 0.028 6.46 1.49 13.06
1/11/2023 3:00:00 AM 4.25 39.65 0.028 6.46 1.5 13.06
1/11/2023 3:15:00 AM 4.25 39.65 0.028 6.46 1.51 13.06
1/11/2023 3:30:00 AM 4.25 39.65 0.028 6.45 1.46 13.06
1/11/2023 3:45:00 AM 4.24 39.632 0.029 6.46 1.47 13.05
1/11/2023 4:00:00 AM 4.24 39.632 0.028 6.46 1.46 13.05
1/11/2023 4:15:00 AM 4.24 39.632 0.029 6.45 1.42 13.05
1/11/2023 4:30:00 AM 4.24 39.632 0.028 6.47 1.42 13.06
1/11/2023 4:45:00 AM 4.23 39.614 0.029 6.46 1.55 13.06
1/11/2023 5:00:00 AM 4.2 39.56 0.029 6.47 1.5 13.06
1/11/2023 5:15:00 AM 4.17 39.506 0.028 6.46 1.48 13.07
1/11/2023 5:30:00 AM 4.15 39.47 0.029 6.45 1.48 13.07
1/11/2023 5:45:00 AM 4.12 39.416 0.029 6.45 1.52 13.08
1/11/2023 6:00:00 AM 4.1 39.38 0.029 6.46 1.44 13.09
1/11/2023 6:15:00 AM 4.07 39.326 0.029 6.46 1.49 13.1
1/11/2023 6:30:00 AM 4.04 39.272 0.029 6.45 1.53 13.11
1/11/2023 6:45:00 AM 4.01 39.218 0.029 6.46 1.41 13.12
1/11/2023 7:00:00 AM 3.98 39.164 0.029 6.46 1.44 13.13
1/11/2023 7:15:00 AM 3.95 39.11 0.029 6.46 1.46 13.14
1/11/2023 7:30:00 AM 3.92 39.056 0.029 6.46 1.53 13.15
1/11/2023 7:45:00 AM 3.9 39.02 0.029 6.46 1.48 13.17
1/11/2023 8:00:00 AM 3.87 38.966 0.029 6.46 1.47 13.19
1/11/2023 8:15:00 AM 3.86 38.948 0.029 6.47 1.47 13.22
1/11/2023 8:30:00 AM 3.85 38.93 0.028 6.48 1.44 13.26
1/11/2023 8:45:00 AM 3.85 38.93 0.028 6.48 1.46 13.28
1/11/2023 9:00:00 AM 3.85 38.93 0.028 6.49 1.4 13.31
1/11/2023 9:15:00 AM 3.86 38.948 0.028 6.5 1.37 13.32
1/11/2023 9:30:00 AM 3.88 38.984 0.028 6.5 1.37 13.33
1/11/2023 9:45:00 AM 3.91 39.038 0.028 6.5 1.5 13.34
1/11/2023 10:00:00 AM 3.94 39.092 0.028 6.51 1.51 13.34
1/11/2023 10:15:00 AM 3.98 39.164 0.028 6.51 1.39 13.33
1/11/2023 10:30:00 AM 4.02 39.236 0.028 6.51 1.41 13.33
1/11/2023 10:45:00 AM 4.07 39.326 0.028 6.51 1.4 13.32
1/11/2023 11:00:00 AM 4.12 39.416 0.028 6.51 1.37 13.31
1/11/2023 11:15:00 AM 4.17 39.506 0.028 6.52 1.38 13.3
1/11/2023 11:30:00 AM 4.22 39.596 0.028 6.52 1.37 13.27
1/11/2023 11:45:00 AM 4.3 39.74 0.028 6.53 1.35 13.25
1/11/2023 12:00:00 PM 4.37 39.866 0.028 6.53 1.38 13.23
1/11/2023 12:15:00 PM 4.45 40.01 0.028 6.53 1.42 13.21
1/11/2023 12:30:00 PM 4.51 40.118 0.028 6.53 1.36 13.18
1/11/2023 12:45:00 PM 4.54 40.172 0.028 6.53 1.37 13.16
1/11/2023 1:00:00 PM 4.58 40.244 0.028 6.54 1.37 13.13
1/11/2023 1:15:00 PM 4.65 40.37 0.028 6.53 1.45 13.11
1/11/2023 1:30:00 PM 4.71 40.478 0.028 6.53 1.39 13.08
1/11/2023 1:45:00 PM 4.77 40.586 0.028 6.54 1.39 13.07
1/11/2023 2:00:00 PM 4.81 40.658 0.028 6.54 1.35 13.05
1/11/2023 2:15:00 PM 4.84 40.712 0.028 6.54 1.4 13.03
1/11/2023 2:30:00 PM 4.87 40.766 0.028 6.54 1.37 13.01
1/11/2023 2:45:00 PM 4.9 40.82 0.028 6.54 1.39 12.99
1/11/2023 3:00:00 PM 4.92 40.856 0.028 6.53 1.33 12.97
1/11/2023 3:15:00 PM 4.94 40.892 0.028 6.53 1.35 12.96
1/11/2023 3:30:00 PM 4.95 40.91 0.028 6.54 1.37 12.95
1/11/2023 3:45:00 PM 4.97 40.946 0.028 6.52 1.43 12.93
1/11/2023 4:00:00 PM 4.99 40.982 0.028 6.53 1.38 12.92
1/11/2023 4:15:00 PM 5 41 0.028 6.53 1.34 12.91
1/11/2023 4:30:00 PM 5 41 0.028 6.53 1.36 12.91
1/11/2023 4:45:00 PM 4.97 40.946 0.028 6.52 1.4 12.89
1/11/2023 5:00:00 PM 4.93 40.874 0.028 6.51 1.39 12.86
1/11/2023 5:15:00 PM 4.9 40.82 0.028 6.51 1.4 12.84
1/11/2023 5:30:00 PM 4.86 40.748 0.028 6.5 1.42 12.83
1/11/2023 5:45:00 PM 4.82 40.676 0.028 6.5 1.43 12.83
1/11/2023 6:00:00 PM 4.78 40.604 0.028 6.5 1.44 12.84
1/11/2023 6:15:00 PM 4.74 40.532 0.029 6.5 1.58 12.84
1/11/2023 6:30:00 PM 4.72 40.496 0.029 6.49 1.4 12.86
1/11/2023 6:45:00 PM 4.7 40.46 0.029 6.49 1.52 12.86
1/11/2023 7:00:00 PM 4.68 40.424 0.029 6.49 1.46 12.88
1/11/2023 7:15:00 PM 4.65 40.37 0.029 6.49 1.45 12.89
1/11/2023 7:30:00 PM 4.64 40.352 0.029 6.48 1.49 12.9
1/11/2023 7:45:00 PM 4.62 40.316 0.029 6.49 1.52 12.9
1/11/2023 8:00:00 PM 4.59 40.262 0.029 6.49 1.46 12.91
1/11/2023 8:15:00 PM 4.56 40.208 0.029 6.49 1.47 12.92
1/11/2023 8:30:00 PM 4.52 40.136 0.029 6.49 1.47 12.93
1/11/2023 8:45:00 PM 4.49 40.082 0.029 6.48 1.48 12.94
1/11/2023 9:00:00 PM 4.47 40.046 0.029 6.49 1.5 12.95
1/11/2023 9:15:00 PM 4.44 39.992 0.029 6.49 1.43 12.95
1/11/2023 9:30:00 PM 4.41 39.938 0.029 6.48 1.47 12.97
1/11/2023 9:45:00 PM 4.39 39.902 0.029 6.49 1.43 12.97
1/11/2023 10:00:00 PM 4.36 39.848 0.029 6.48 1.41 12.98
1/11/2023 10:15:00 PM 4.33 39.794 0.029 6.48 1.47 12.99
1/11/2023 10:30:00 PM 4.32 39.776 0.029 6.49 1.44 12.99
1/11/2023 10:45:00 PM 4.31 39.758 0.029 6.48 1.53 13
1/11/2023 11:00:00 PM 4.3 39.74 0.029 6.5 1.44 13.01
1/11/2023 11:15:00 PM 4.29 39.722 0.029 6.49 1.4 13.01
1/11/2023 11:30:00 PM 4.28 39.704 0.029 6.47 1.39 13.01
1/11/2023 11:45:00 PM 4.27 39.686 0.029 6.48 1.47 13.02
1/12/2023 12:00:00 AM 4.26 39.668 0.029 6.48 1.48 13.02
1/12/2023 12:15:00 AM 4.26 39.668 0.029 6.47 1.44 13.02
1/12/2023 12:30:00 AM 4.27 39.686 0.029 6.49 1.51 13.01
1/12/2023 12:45:00 AM 4.27 39.686 0.029 6.48 1.46 13.01
1/12/2023 1:00:00 AM 4.27 39.686 0.029 6.48 1.55 13.01
1/12/2023 1:15:00 AM 4.28 39.704 0.029 6.47 1.48 13.01
1/12/2023 1:30:00 AM 4.28 39.704 0.029 6.48 1.46 13
1/12/2023 1:45:00 AM 4.29 39.722 0.029 6.49 1.47 13
1/12/2023 2:00:00 AM 4.3 39.74 0.029 6.48 1.44 13
1/12/2023 2:15:00 AM 4.3 39.74 0.029 6.49 1.47 13
1/12/2023 2:30:00 AM 4.31 39.758 0.029 6.49 1.43 13
1/12/2023 2:45:00 AM 4.32 39.776 0.029 6.48 1.42 12.99
1/12/2023 3:00:00 AM 4.33 39.794 0.029 6.48 1.46 12.99
1/12/2023 3:15:00 AM 4.34 39.812 0.029 6.48 1.42 12.98
1/12/2023 3:30:00 AM 4.35 39.83 0.029 6.48 1.43 12.98
1/12/2023 3:45:00 AM 4.36 39.848 0.029 6.48 1.41 12.97
1/12/2023 4:00:00 AM 4.37 39.866 0.029 6.48 1.45 12.97
1/12/2023 4:15:00 AM 4.38 39.884 0.029 6.48 1.47 12.97
1/12/2023 4:30:00 AM 4.39 39.902 0.029 6.49 1.5 12.96
1/12/2023 4:45:00 AM 4.4 39.92 0.029 6.47 1.56 12.95
1/12/2023 5:00:00 AM 4.41 39.938 0.029 6.48 1.48 12.95
1/12/2023 5:15:00 AM 4.42 39.956 0.029 6.48 1.6 12.95
1/12/2023 5:30:00 AM 4.43 39.974 0.029 6.48 1.64 12.95
1/12/2023 5:45:00 AM 4.44 39.992 0.029 6.49 1.72 12.94
1/12/2023 6:00:00 AM 4.45 40.01 0.029 6.49 1.58 12.94
1/12/2023 6:15:00 AM 4.47 40.046 0.029 6.48 1.7 12.93
1/12/2023 6:30:00 AM 4.48 40.064 0.029 6.49 1.89 12.93
1/12/2023 6:45:00 AM 4.49 40.082 0.029 6.49 2 12.93
1/12/2023 7:00:00 AM 4.5 40.1 0.029 6.48 1.95 12.92
1/12/2023 7:15:00 AM 4.51 40.118 0.029 6.49 1.81 12.92
1/12/2023 7:30:00 AM 4.52 40.136 0.029 6.49 1.65 12.91
1/12/2023 7:45:00 AM 4.53 40.154 0.029 6.48 1.72 12.91
1/12/2023 8:00:00 AM 4.54 40.172 0.029 6.49 1.6 12.91
1/12/2023 8:15:00 AM 4.56 40.208 0.029 6.49 1.58 12.91
1/12/2023 8:30:00 AM 4.57 40.226 0.029 6.49 1.56 12.92
1/12/2023 8:45:00 AM 4.58 40.244 0.029 6.49 1.63 12.92
1/12/2023 9:00:00 AM 4.6 40.28 0.029 6.49 1.52 12.92
1/12/2023 9:15:00 AM 4.61 40.298 0.029 6.5 1.53 12.93
1/12/2023 9:30:00 AM 4.63 40.334 0.029 6.5 1.6 12.94
1/12/2023 9:45:00 AM 4.64 40.352 0.029 6.5 1.59 12.93
1/12/2023 10:00:00 AM 4.66 40.388 0.029 6.51 1.68 12.93
1/12/2023 10:15:00 AM 4.68 40.424 0.029 6.51 1.61 12.94
1/12/2023 10:30:00 AM 4.7 40.46 0.029 6.52 1.66 12.94
1/12/2023 10:45:00 AM 4.73 40.514 0.029 6.52 1.63 12.94
1/12/2023 11:00:00 AM 4.75 40.55 0.029 6.52 1.64 12.93
1/12/2023 11:15:00 AM 4.77 40.586 0.029 6.52 1.7 12.92
1/12/2023 11:30:00 AM 4.8 40.64 0.029 6.52 1.66 12.92
1/12/2023 11:45:00 AM 4.83 40.694 0.029 6.53 1.59 12.92
1/12/2023 12:00:00 PM 4.84 40.712 0.029 6.53 1.62 12.89
1/12/2023 12:15:00 PM 4.86 40.748 0.029 6.53 1.55 12.88
1/12/2023 12:30:00 PM 4.89 40.802 0.029 6.54 1.58 12.89
1/12/2023 12:45:00 PM 4.93 40.874 0.029 6.54 1.56 12.89
1/12/2023 1:00:00 PM 4.96 40.928 0.029 6.54 1.47 12.88
1/12/2023 1:15:00 PM 4.97 40.946 0.029 6.54 1.51 12.86
1/12/2023 1:30:00 PM 4.99 40.982 0.029 6.53 1.48 12.83
1/12/2023 1:45:00 PM 5 41 0.029 6.53 1.47 12.8
1/12/2023 2:00:00 PM 5 41 0.029 6.53 1.43 12.78
1/12/2023 2:15:00 PM 5.02 41.036 0.028 6.53 1.48 12.78
1/12/2023 2:30:00 PM 5.03 41.054 0.028 6.53 1.59 12.78
1/12/2023 2:45:00 PM 5.04 41.072 0.028 6.53 1.56 12.77
1/12/2023 3:00:00 PM 5.05 41.09 0.028 6.53 1.5 12.76
1/12/2023 3:15:00 PM 5.05 41.09 0.028 6.52 2 12.73
1/12/2023 3:30:00 PM 5.06 41.108 0.028 6.52 3.69 12.72
1/12/2023 3:45:00 PM 5.06 41.108 0.028 6.53 4.94 12.71
1/12/2023 4:00:00 PM 5.07 41.126 0.028 6.53 5.2 12.69
1/12/2023 4:15:00 PM 5.07 41.126 0.029 6.52 5.59 12.68
1/12/2023 4:30:00 PM 5.07 41.126 0.028 6.52 6.23 12.67
1/12/2023 4:45:00 PM 5.08 41.144 0.028 6.52 5.62 12.67
1/12/2023 5:00:00 PM 5.08 41.144 0.029 6.51 5.86 12.65
1/12/2023 5:15:00 PM 5.08 41.144 0.029 6.52 6.64 12.64
1/12/2023 5:30:00 PM 5.09 41.162 0.029 6.5 6.33 12.62
1/12/2023 5:45:00 PM 5.09 41.162 0.029 6.51 5.42 12.63
1/12/2023 6:00:00 PM 5.09 41.162 0.029 6.52 4.73 12.62
1/12/2023 6:15:00 PM 5.1 41.18 0.029 6.5 5.33 12.62
1/12/2023 6:30:00 PM 5.11 41.198 0.029 6.5 6.14 12.62
1/12/2023 6:45:00 PM 5.11 41.198 0.028 6.5 5.7 12.61
1/12/2023 7:00:00 PM 5.11 41.198 0.028 6.5 5.49 12.61
1/12/2023 7:15:00 PM 5.12 41.216 0.028 6.5 5.24 12.61
1/12/2023 7:30:00 PM 5.13 41.234 0.028 6.5 5 12.6
1/12/2023 7:45:00 PM 5.13 41.234 0.028 6.49 5.13 12.6
1/12/2023 8:00:00 PM 5.14 41.252 0.028 6.49 5.6 12.6
1/12/2023 8:15:00 PM 5.14 41.252 0.028 6.49 5.9 12.59
1/12/2023 8:30:00 PM 5.15 41.27 0.028 6.49 6.44 12.59
1/12/2023 8:45:00 PM 5.16 41.288 0.028 6.49 6.67 12.59
1/12/2023 9:00:00 PM 5.17 41.306 0.028 6.49 7.01 12.58
1/12/2023 9:15:00 PM 5.18 41.324 0.028 6.49 7.22 12.57
1/12/2023 9:30:00 PM 5.19 41.342 0.028 6.49 7.14 12.57
1/12/2023 9:45:00 PM 5.2 41.36 0.028 6.49 6.42 12.57
1/12/2023 10:00:00 PM 5.21 41.378 0.028 6.49 6.25 12.57
1/12/2023 10:15:00 PM 5.22 41.396 0.028 6.48 5.52 12.56
1/12/2023 10:30:00 PM 5.23 41.414 0.028 6.48 5.66 12.56
1/12/2023 10:45:00 PM 5.24 41.432 0.028 6.47 5.22 12.55
1/12/2023 11:00:00 PM 5.25 41.45 0.028 6.47 5.24 12.55
1/12/2023 11:15:00 PM 5.26 41.468 0.028 6.47 4.82 12.55
1/12/2023 11:30:00 PM 5.27 41.486 0.028 6.47 4.88 12.54
1/12/2023 11:45:00 PM 5.27 41.486 0.028 6.47 5.07 12.54
1/13/2023 12:00:00 AM 5.28 41.504 0.028 6.47 4.95 12.53
1/13/2023 12:15:00 AM 5.29 41.522 0.028 6.47 5.17 12.53
1/13/2023 12:30:00 AM 5.3 41.54 0.028 6.46 4.73 12.52
1/13/2023 12:45:00 AM 5.31 41.558 0.028 6.46 4.78 12.51
1/13/2023 1:00:00 AM 5.32 41.576 0.028 6.46 4.71 12.51
1/13/2023 1:15:00 AM 5.32 41.576 0.028 6.46 4.44 12.5
1/13/2023 1:30:00 AM 5.33 41.594 0.027 6.46 4.16 12.5
1/13/2023 1:45:00 AM 5.34 41.612 0.027 6.45 4.14 12.5
1/13/2023 2:00:00 AM 5.35 41.63 0.027 6.45 4 12.5
1/13/2023 2:15:00 AM 5.36 41.648 0.027 6.45 3.74 12.49
1/13/2023 2:30:00 AM 5.36 41.648 0.027 6.45 3.72 12.49
1/13/2023 2:45:00 AM 5.37 41.666 0.027 6.45 3.69 12.49
1/13/2023 3:00:00 AM 5.38 41.684 0.027 6.45 3.67 12.49
1/13/2023 3:15:00 AM 5.39 41.702 0.027 6.45 3.5 12.49
1/13/2023 3:30:00 AM 5.39 41.702 0.027 6.45 3.45 12.49
1/13/2023 3:45:00 AM 5.4 41.72 0.027 6.45 3.5 12.48
1/13/2023 4:00:00 AM 5.41 41.738 0.027 6.45 3.41 12.48
1/13/2023 4:15:00 AM 5.41 41.738 0.027 6.46 3.39 12.49
1/13/2023 4:30:00 AM 5.41 41.738 0.027 6.46 3.4 12.49
1/13/2023 4:45:00 AM 5.42 41.756 0.027 6.46 3.29 12.49
1/13/2023 5:00:00 AM 5.42 41.756 0.027 6.46 3.21 12.5
1/13/2023 5:15:00 AM 5.41 41.738 0.027 6.46 3.4 12.5
1/13/2023 5:30:00 AM 5.4 41.72 0.027 6.46 3.27 12.51
1/13/2023 5:45:00 AM 5.38 41.684 0.027 6.46 3.17 12.52
1/13/2023 6:00:00 AM 5.36 41.648 0.027 6.46 3.16 12.53
1/13/2023 6:15:00 AM 5.35 41.63 0.027 6.46 3.18 12.54
1/13/2023 6:30:00 AM 5.33 41.594 0.027 6.46 3.11 12.55
1/13/2023 6:45:00 AM 5.31 41.558 0.027 6.46 3.07 12.56
1/13/2023 7:00:00 AM 5.29 41.522 0.027 6.46 2.94 12.57
1/13/2023 7:15:00 AM 5.27 41.486 0.027 6.45 3.03 12.58
1/13/2023 7:30:00 AM 5.25 41.45 0.027 6.45 2.97 12.59
1/13/2023 7:45:00 AM 5.23 41.414 0.027 6.46 2.89 12.6
1/13/2023 8:00:00 AM 5.21 41.378 0.027 6.46 2.88 12.62
1/13/2023 8:15:00 AM 5.18 41.324 0.027 6.46 2.76 12.63
1/13/2023 8:30:00 AM 5.16 41.288 0.027 6.46 2.9 12.64
1/13/2023 8:45:00 AM 5.15 41.27 0.027 6.47 2.8 12.67
1/13/2023 9:00:00 AM 5.14 41.252 0.027 6.47 2.73 12.69
1/13/2023 9:15:00 AM 5.13 41.234 0.027 6.47 2.61 12.71
1/13/2023 9:30:00 AM 5.12 41.216 0.027 6.48 2.64 12.74
1/13/2023 9:45:00 AM 5.1 41.18 0.027 6.48 2.56 12.76
1/13/2023 10:00:00 AM 5.09 41.162 0.027 6.49 2.41 12.77
1/13/2023 10:15:00 AM 5.07 41.126 0.027 6.49 2.35 12.77
1/13/2023 10:30:00 AM 5.05 41.09 0.027 6.48 2.47 12.78
1/13/2023 10:45:00 AM 5.04 41.072 0.027 6.49 2.41 12.8
1/13/2023 11:00:00 AM 5.04 41.072 0.027 6.49 2.37 12.82
1/13/2023 11:15:00 AM 5.02 41.036 0.027 6.48 2.31 12.81
1/13/2023 11:30:00 AM 5 41 0.027 6.49 2.23 12.81
1/13/2023 11:45:00 AM 4.99 40.982 0.027 6.49 2.23 12.82
1/13/2023 12:00:00 PM 4.97 40.946 0.027 6.49 2.17 12.82
1/13/2023 12:15:00 PM 4.94 40.892 0.027 6.49 2.19 12.83
1/13/2023 12:30:00 PM 4.93 40.874 0.027 6.49 2.19 12.83
1/13/2023 12:45:00 PM 4.91 40.838 0.027 6.49 2.15 12.84
1/13/2023 1:00:00 PM 4.9 40.82 0.027 6.49 2.12 12.85
1/13/2023 1:15:00 PM 4.9 40.82 0.027 6.49 2.11 12.86
1/13/2023 1:30:00 PM 4.87 40.766 0.027 6.5 2.06 12.86
1/13/2023 1:45:00 PM 4.86 40.748 0.027 6.49 2.19 12.85
1/13/2023 2:00:00 PM 4.84 40.712 0.027 6.5 2.09 12.86
1/13/2023 2:15:00 PM 4.82 40.676 0.027 6.5 2.08 12.87
1/13/2023 2:30:00 PM 4.8 40.64 0.027 6.49 2.11 12.88
1/13/2023 2:45:00 PM 4.78 40.604 0.027 6.5 2.12 12.88
1/13/2023 3:00:00 PM 4.75 40.55 0.027 6.49 2.03 12.87
1/13/2023 3:15:00 PM 4.73 40.514 0.027 6.49 2.08 12.87
1/13/2023 3:30:00 PM 4.7 40.46 0.027 6.48 2.07 12.88
1/13/2023 3:45:00 PM 4.68 40.424 0.027 6.48 2.02 12.88
1/13/2023 4:00:00 PM 4.65 40.37 0.027 6.48 2.08 12.88
1/13/2023 4:15:00 PM 4.63 40.334 0.027 6.48 2.11 12.88
1/13/2023 4:30:00 PM 4.6 40.28 0.027 6.48 2.05 12.88
1/13/2023 4:45:00 PM 4.58 40.244 0.027 6.48 2.06 12.88
1/13/2023 5:00:00 PM 4.56 40.208 0.027 6.48 2.06 12.89
1/13/2023 5:15:00 PM 4.54 40.172 0.027 6.48 2.04 12.89
1/13/2023 5:30:00 PM 4.51 40.118 0.027 6.48 2.1 12.9
1/13/2023 5:45:00 PM 4.49 40.082 0.027 6.48 2.01 12.91
1/13/2023 6:00:00 PM 4.47 40.046 0.027 6.48 2.14 12.91
1/13/2023 6:15:00 PM 4.45 40.01 0.027 6.48 2.12 12.93
1/13/2023 6:30:00 PM 4.43 39.974 0.027 6.48 2.09 12.93
1/13/2023 6:45:00 PM 4.4 39.92 0.027 6.48 1.97 12.94
1/13/2023 7:00:00 PM 4.38 39.884 0.028 6.48 2.1 12.95
1/13/2023 7:15:00 PM 4.36 39.848 0.028 6.48 2.13 12.96
1/13/2023 7:30:00 PM 4.34 39.812 0.028 6.48 2.04 12.96
1/13/2023 7:45:00 PM 4.32 39.776 0.028 6.48 2.04 12.97
1/13/2023 8:00:00 PM 4.3 39.74 0.028 6.49 2.09 12.98
1/13/2023 8:15:00 PM 4.28 39.704 0.028 6.47 2.03 12.99
1/13/2023 8:30:00 PM 4.26 39.668 0.028 6.48 2.03 13
1/13/2023 8:45:00 PM 4.23 39.614 0.028 6.48 2.02 13.01
1/13/2023 9:00:00 PM 4.2 39.56 0.028 6.48 2.08 13.02
1/13/2023 9:15:00 PM 4.18 39.524 0.028 6.48 2.02 13.03
1/13/2023 9:30:00 PM 4.16 39.488 0.028 6.47 2.01 13.04
1/13/2023 9:45:00 PM 4.15 39.47 0.028 6.48 2.02 13.04
1/13/2023 10:00:00 PM 4.13 39.434 0.028 6.48 2 13.05
1/13/2023 10:15:00 PM 4.1 39.38 0.028 6.48 2.04 13.05
1/13/2023 10:30:00 PM 4.08 39.344 0.028 6.48 2.07 13.06
1/13/2023 10:45:00 PM 4.06 39.308 0.028 6.48 2.04 13.07
1/13/2023 11:00:00 PM 4.05 39.29 0.028 6.48 2.11 13.07
1/13/2023 11:15:00 PM 4.03 39.254 0.028 6.48 2.06 13.08
1/13/2023 11:30:00 PM 4.01 39.218 0.028 6.48 2.04 13.08
1/13/2023 11:45:00 PM 4 39.2 0.028 6.48 2.02 13.08
1/14/2023 12:00:00 AM 3.97 39.146 0.028 6.48 1.95 13.09
1/14/2023 12:15:00 AM 3.95 39.11 0.028 6.48 1.98 13.09
1/14/2023 12:30:00 AM 3.93 39.074 0.028 6.48 1.96 13.1
1/14/2023 12:45:00 AM 3.9 39.02 0.028 6.48 2.01 13.11
1/14/2023 1:00:00 AM 3.89 39.002 0.028 6.48 2.01 13.12
1/14/2023 1:15:00 AM 3.87 38.966 0.028 6.48 1.99 13.12
1/14/2023 1:30:00 AM 3.86 38.948 0.028 6.48 1.92 13.12
1/14/2023 1:45:00 AM 3.86 38.948 0.028 6.47 2 13.13
1/14/2023 2:00:00 AM 3.83 38.894 0.028 6.49 1.95 13.14
1/14/2023 2:15:00 AM 3.82 38.876 0.028 6.48 1.93 13.14
1/14/2023 2:30:00 AM 3.81 38.858 0.028 6.48 1.95 13.15
1/14/2023 2:45:00 AM 3.8 38.84 0.028 6.48 1.98 13.15
1/14/2023 3:00:00 AM 3.78 38.804 0.028 6.48 1.96 13.16
1/14/2023 3:15:00 AM 3.77 38.786 0.028 6.48 1.89 13.17
1/14/2023 3:30:00 AM 3.75 38.75 0.028 6.48 1.88 13.17
1/14/2023 3:45:00 AM 3.73 38.714 0.028 6.48 1.88 13.18
1/14/2023 4:00:00 AM 3.72 38.696 0.028 6.48 1.89 13.18
1/14/2023 4:15:00 AM 3.71 38.678 0.028 6.48 1.83 13.19
1/14/2023 4:30:00 AM 3.7 38.66 0.028 6.48 1.89 13.19
1/14/2023 4:45:00 AM 3.69 38.642 0.028 6.48 1.91 13.2
1/14/2023 5:00:00 AM 3.68 38.624 0.028 6.48 1.87 13.2
1/14/2023 5:15:00 AM 3.67 38.606 0.028 6.48 1.94 13.21
1/14/2023 5:30:00 AM 3.65 38.57 0.028 6.48 1.84 13.22
1/14/2023 5:45:00 AM 3.63 38.534 0.028 6.48 1.87 13.22
1/14/2023 6:00:00 AM 3.62 38.516 0.028 6.47 1.86 13.23
1/14/2023 6:15:00 AM 3.61 38.498 0.028 6.48 1.88 13.23
1/14/2023 6:30:00 AM 3.6 38.48 0.028 6.48 1.86 13.24
1/14/2023 6:45:00 AM 3.58 38.444 0.028 6.48 1.87 13.25
1/14/2023 7:00:00 AM 3.58 38.444 0.028 6.48 1.83 13.25
1/14/2023 7:15:00 AM 3.56 38.408 0.028 6.48 1.93 13.25
1/14/2023 7:30:00 AM 3.56 38.408 0.028 6.49 1.89 13.26
1/14/2023 7:45:00 AM 3.54 38.372 0.028 6.48 1.83 13.27
1/14/2023 8:00:00 AM 3.53 38.354 0.028 6.49 1.86 13.28
1/14/2023 8:15:00 AM 3.52 38.336 0.028 6.49 1.79 13.29
1/14/2023 8:30:00 AM 3.5 38.3 0.028 6.5 1.75 13.31
1/14/2023 8:45:00 AM 3.49 38.282 0.028 6.5 1.83 13.33
1/14/2023 9:00:00 AM 3.49 38.282 0.028 6.5 1.79 13.34
1/14/2023 9:15:00 AM 3.48 38.264 0.028 6.5 1.82 13.36
1/14/2023 9:30:00 AM 3.48 38.264 0.028 6.51 1.82 13.38
1/14/2023 9:45:00 AM 3.48 38.264 0.028 6.52 1.87 13.4
1/14/2023 10:00:00 AM 3.48 38.264 0.028 6.52 1.86 13.41
1/14/2023 10:15:00 AM 3.49 38.282 0.028 6.52 1.76 13.42
1/14/2023 10:30:00 AM 3.5 38.3 0.028 6.53 1.77 13.43
1/14/2023 10:45:00 AM 3.51 38.318 0.028 6.53 1.82 13.43
1/14/2023 11:00:00 AM 3.53 38.354 0.028 6.53 1.79 13.44
1/14/2023 11:15:00 AM 3.54 38.372 0.028 6.53 1.81 13.44
1/14/2023 11:30:00 AM 3.55 38.39 0.028 6.54 1.76 13.44
1/14/2023 11:45:00 AM 3.56 38.408 0.028 6.54 1.78 13.43
1/14/2023 12:00:00 PM 3.58 38.444 0.028 6.54 1.74 13.43
1/14/2023 12:15:00 PM 3.6 38.48 0.028 6.55 1.72 13.42
1/14/2023 12:30:00 PM 3.61 38.498 0.028 6.55 1.77 13.42
1/14/2023 12:45:00 PM 3.63 38.534 0.028 6.54 1.77 13.41
1/14/2023 1:00:00 PM 3.65 38.57 0.028 6.55 1.8 13.4
1/14/2023 1:15:00 PM 3.67 38.606 0.028 6.54 1.72 13.4
1/14/2023 1:30:00 PM 3.7 38.66 0.028 6.55 1.76 13.39
1/14/2023 1:45:00 PM 3.71 38.678 0.028 6.55 1.71 13.39
1/14/2023 2:00:00 PM 3.73 38.714 0.028 6.55 1.71 13.38
1/14/2023 2:15:00 PM 3.74 38.732 0.028 6.55 1.77 13.37
1/14/2023 2:30:00 PM 3.74 38.732 0.028 6.56 1.82 13.37
1/14/2023 2:45:00 PM 3.74 38.732 0.028 6.55 1.76 13.36
1/14/2023 3:00:00 PM 3.74 38.732 0.028 6.56 1.68 13.36
1/14/2023 3:15:00 PM 3.73 38.714 0.028 6.55 1.75 13.36
1/14/2023 3:30:00 PM 3.72 38.696 0.028 6.55 1.7 13.35
1/14/2023 3:45:00 PM 3.71 38.678 0.028 6.55 1.75 13.35
1/14/2023 4:00:00 PM 3.71 38.678 0.028 6.55 1.78 13.35
1/14/2023 4:15:00 PM 3.71 38.678 0.028 6.55 1.71 13.35
1/14/2023 4:30:00 PM 3.69 38.642 0.028 6.54 1.76 13.34
1/14/2023 4:45:00 PM 3.67 38.606 0.028 6.53 1.74 13.32
1/14/2023 5:00:00 PM 3.65 38.57 0.028 6.53 1.75 13.31
1/14/2023 5:15:00 PM 3.63 38.534 0.028 6.52 1.84 13.31
1/14/2023 5:30:00 PM 3.61 38.498 0.028 6.52 1.78 13.31
1/14/2023 5:45:00 PM 3.58 38.444 0.028 6.52 1.75 13.31
1/14/2023 6:00:00 PM 3.55 38.39 0.028 6.52 1.71 13.32
1/14/2023 6:15:00 PM 3.53 38.354 0.029 6.5 1.77 13.33
1/14/2023 6:30:00 PM 3.51 38.318 0.029 6.5 1.79 13.33
1/14/2023 6:45:00 PM 3.5 38.3 0.029 6.5 1.85 13.34
1/14/2023 7:00:00 PM 3.48 38.264 0.029 6.5 1.81 13.34
1/14/2023 7:15:00 PM 3.47 38.246 0.029 6.5 1.82 13.35
1/14/2023 7:30:00 PM 3.46 38.228 0.029 6.5 1.78 13.36
1/14/2023 7:45:00 PM 3.44 38.192 0.029 6.5 1.76 13.36
1/14/2023 8:00:00 PM 3.43 38.174 0.029 6.5 1.8 13.37
1/14/2023 8:15:00 PM 3.42 38.156 0.029 6.5 1.77 13.37
1/14/2023 8:30:00 PM 3.42 38.156 0.029 6.5 1.77 13.38
1/14/2023 8:45:00 PM 3.4 38.12 0.029 6.5 1.72 13.38
1/14/2023 9:00:00 PM 3.39 38.102 0.029 6.5 1.84 13.38
1/14/2023 9:15:00 PM 3.38 38.084 0.029 6.5 1.83 13.39
1/14/2023 9:30:00 PM 3.37 38.066 0.029 6.5 1.82 13.39
1/14/2023 9:45:00 PM 3.36 38.048 0.029 6.49 1.84 13.4
1/14/2023 10:00:00 PM 3.35 38.03 0.029 6.49 1.81 13.4
1/14/2023 10:15:00 PM 3.34 38.012 0.029 6.5 1.74 13.4
1/14/2023 10:30:00 PM 3.34 38.012 0.029 6.49 1.81 13.4
1/14/2023 10:45:00 PM 3.33 37.994 0.029 6.49 1.77 13.41
1/14/2023 11:00:00 PM 3.33 37.994 0.029 6.5 1.76 13.41
1/14/2023 11:15:00 PM 3.32 37.976 0.029 6.5 1.75 13.41
1/14/2023 11:30:00 PM 3.31 37.958 0.029 6.49 1.75 13.41
1/14/2023 11:45:00 PM 3.3 37.94 0.029 6.49 1.74 13.41
1/15/2023 12:00:00 AM 3.3 37.94 0.029 6.5 1.82 13.41
1/15/2023 12:15:00 AM 3.3 37.94 0.029 6.5 1.79 13.41
1/15/2023 12:30:00 AM 3.29 37.922 0.029 6.49 1.74 13.42
1/15/2023 12:45:00 AM 3.28 37.904 0.029 6.5 1.74 13.41
1/15/2023 1:00:00 AM 3.27 37.886 0.029 6.5 1.73 13.42
1/15/2023 1:15:00 AM 3.28 37.904 0.029 6.49 1.75 13.42
1/15/2023 1:30:00 AM 3.27 37.886 0.029 6.5 1.72 13.42
1/15/2023 1:45:00 AM 3.27 37.886 0.029 6.5 1.75 13.43
1/15/2023 2:00:00 AM 3.27 37.886 0.029 6.5 1.72 13.43
1/15/2023 2:15:00 AM 3.27 37.886 0.029 6.5 1.85 13.44
1/15/2023 2:30:00 AM 3.27 37.886 0.029 6.5 1.77 13.44
1/15/2023 2:45:00 AM 3.27 37.886 0.029 6.5 1.75 13.44
1/15/2023 3:00:00 AM 3.27 37.886 0.029 6.5 1.78 13.44
1/15/2023 3:15:00 AM 3.28 37.904 0.029 6.5 1.73 13.44
1/15/2023 3:30:00 AM 3.28 37.904 0.029 6.5 1.71 13.44
1/15/2023 3:45:00 AM 3.27 37.886 0.029 6.5 1.69 13.44
1/15/2023 4:00:00 AM 3.27 37.886 0.029 6.49 1.75 13.44
1/15/2023 4:15:00 AM 3.27 37.886 0.029 6.5 1.67 13.44
1/15/2023 4:30:00 AM 3.27 37.886 0.029 6.5 1.64 13.45
1/15/2023 4:45:00 AM 3.26 37.868 0.029 6.5 1.72 13.45
1/15/2023 5:00:00 AM 3.26 37.868 0.029 6.5 1.7 13.45
1/15/2023 5:15:00 AM 3.25 37.85 0.029 6.5 1.65 13.45
1/15/2023 5:30:00 AM 3.24 37.832 0.029 6.49 1.69 13.45
1/15/2023 5:45:00 AM 3.23 37.814 0.029 6.49 1.7 13.46
1/15/2023 6:00:00 AM 3.22 37.796 0.029 6.49 1.74 13.46
1/15/2023 6:15:00 AM 3.22 37.796 0.029 6.49 1.74 13.47
1/15/2023 6:30:00 AM 3.21 37.778 0.029 6.5 1.67 13.47
1/15/2023 6:45:00 AM 3.19 37.742 0.029 6.5 1.66 13.48
1/15/2023 7:00:00 AM 3.18 37.724 0.029 6.5 1.72 13.48
1/15/2023 7:15:00 AM 3.17 37.706 0.029 6.49 1.69 13.49
1/15/2023 7:30:00 AM 3.16 37.688 0.029 6.49 1.72 13.49
1/15/2023 7:45:00 AM 3.16 37.688 0.029 6.5 1.63 13.5
1/15/2023 8:00:00 AM 3.16 37.688 0.029 6.5 1.66 13.52
1/15/2023 8:15:00 AM 3.15 37.67 0.029 6.5 1.68 13.53
1/15/2023 8:30:00 AM 3.15 37.67 0.029 6.51 1.71 13.56
1/15/2023 8:45:00 AM 3.16 37.688 0.029 6.51 1.68 13.58
1/15/2023 9:00:00 AM 3.18 37.724 0.029 6.52 1.69 13.59
1/15/2023 9:15:00 AM 3.19 37.742 0.029 6.52 1.67 13.61
1/15/2023 9:30:00 AM 3.19 37.742 0.029 6.53 1.64 13.62
1/15/2023 9:45:00 AM 3.2 37.76 0.029 6.53 1.58 13.62
1/15/2023 10:00:00 AM 3.2 37.76 0.028 6.53 1.63 13.62
1/15/2023 10:15:00 AM 3.21 37.778 0.028 6.53 1.61 13.63
1/15/2023 10:30:00 AM 3.24 37.832 0.028 6.53 1.63 13.63
1/15/2023 10:45:00 AM 3.28 37.904 0.028 6.54 1.62 13.63
1/15/2023 11:00:00 AM 3.29 37.922 0.028 6.53 1.56 13.62
1/15/2023 11:15:00 AM 3.32 37.976 0.028 6.54 1.61 13.61
1/15/2023 11:30:00 AM 3.36 38.048 0.028 6.54 1.6 13.6
1/15/2023 11:45:00 AM 3.4 38.12 0.028 6.54 1.57 13.58
1/15/2023 12:00:00 PM 3.44 38.192 0.028 6.54 1.61 13.57
1/15/2023 12:15:00 PM 3.49 38.282 0.028 6.55 1.61 13.55
1/15/2023 12:30:00 PM 3.55 38.39 0.028 6.55 1.56 13.53
1/15/2023 12:45:00 PM 3.62 38.516 0.028 6.55 1.63 13.5
1/15/2023 1:00:00 PM 3.68 38.624 0.028 6.55 1.58 13.49
1/15/2023 1:15:00 PM 3.73 38.714 0.028 6.55 1.57 13.46
1/15/2023 1:30:00 PM 3.8 38.84 0.028 6.55 1.53 13.44
1/15/2023 1:45:00 PM 3.86 38.948 0.028 6.55 1.6 13.41
1/15/2023 2:00:00 PM 3.92 39.056 0.028 6.55 1.56 13.39
1/15/2023 2:15:00 PM 3.97 39.146 0.028 6.56 1.56 13.38
1/15/2023 2:30:00 PM 4 39.2 0.028 6.56 1.59 13.36
1/15/2023 2:45:00 PM 4.03 39.254 0.028 6.55 1.62 13.35
1/15/2023 3:00:00 PM 4.04 39.272 0.028 6.56 1.62 13.34
1/15/2023 3:15:00 PM 4.02 39.236 0.028 6.55 1.56 13.33
1/15/2023 3:30:00 PM 4 39.2 0.028 6.55 1.63 13.33
1/15/2023 3:45:00 PM 3.97 39.146 0.028 6.55 1.64 13.32
1/15/2023 4:00:00 PM 3.95 39.11 0.028 6.55 1.62 13.31
1/15/2023 4:15:00 PM 3.93 39.074 0.028 6.54 1.54 13.31
1/15/2023 4:30:00 PM 3.91 39.038 0.028 6.54 1.64 13.3
1/15/2023 4:45:00 PM 3.89 39.002 0.028 6.53 1.57 13.28
1/15/2023 5:00:00 PM 3.87 38.966 0.029 6.53 1.53 13.28
1/15/2023 5:15:00 PM 3.86 38.948 0.029 6.53 1.59 13.27
1/15/2023 5:30:00 PM 3.83 38.894 0.029 6.52 1.6 13.26
1/15/2023 5:45:00 PM 3.81 38.858 0.029 6.53 1.59 13.26
1/15/2023 6:00:00 PM 3.79 38.822 0.029 6.51 1.65 13.27
1/15/2023 6:15:00 PM 3.77 38.786 0.029 6.51 1.59 13.27
1/15/2023 6:30:00 PM 3.75 38.75 0.029 6.51 1.64 13.28
1/15/2023 6:45:00 PM 3.72 38.696 0.029 6.51 1.66 13.29
1/15/2023 7:00:00 PM 3.7 38.66 0.029 6.51 1.68 13.3
1/15/2023 7:15:00 PM 3.68 38.624 0.029 6.51 1.74 13.3
1/15/2023 7:30:00 PM 3.65 38.57 0.029 6.51 1.58 13.31
1/15/2023 7:45:00 PM 3.63 38.534 0.029 6.51 1.65 13.32
1/15/2023 8:00:00 PM 3.6 38.48 0.029 6.52 1.65 13.33
1/15/2023 8:15:00 PM 3.58 38.444 0.029 6.5 1.63 13.34
1/15/2023 8:30:00 PM 3.55 38.39 0.029 6.5 1.61 13.34
1/15/2023 8:45:00 PM 3.52 38.336 0.029 6.5 1.72 13.35
1/15/2023 9:00:00 PM 3.5 38.3 0.029 6.5 1.68 13.36
1/15/2023 9:15:00 PM 3.47 38.246 0.029 6.5 1.64 13.37
1/15/2023 9:30:00 PM 3.45 38.21 0.029 6.5 1.63 13.37
1/15/2023 9:45:00 PM 3.42 38.156 0.029 6.5 1.57 13.38
1/15/2023 10:00:00 PM 3.39 38.102 0.029 6.5 1.61 13.39
1/15/2023 10:15:00 PM 3.36 38.048 0.029 6.5 1.61 13.4
1/15/2023 10:30:00 PM 3.34 38.012 0.029 6.5 1.63 13.41
1/15/2023 10:45:00 PM 3.31 37.958 0.029 6.49 1.58 13.42
1/15/2023 11:00:00 PM 3.28 37.904 0.029 6.5 1.68 13.43
1/15/2023 11:15:00 PM 3.25 37.85 0.029 6.49 1.57 13.43
1/15/2023 11:30:00 PM 3.22 37.796 0.029 6.49 1.53 13.44
1/15/2023 11:45:00 PM 3.19 37.742 0.029 6.49 1.61 13.45
1/16/2023 12:00:00 AM 3.16 37.688 0.029 6.49 1.65 13.46
1/16/2023 12:15:00 AM 3.13 37.634 0.029 6.49 1.62 13.47
1/16/2023 12:30:00 AM 3.1 37.58 0.029 6.49 1.65 13.48
1/16/2023 12:45:00 AM 3.06 37.508 0.029 6.49 1.64 13.49
1/16/2023 1:00:00 AM 3.03 37.454 0.029 6.48 1.54 13.5
1/16/2023 1:15:00 AM 3 37.4 0.029 6.49 1.6 13.51
1/16/2023 1:30:00 AM 2.96 37.328 0.029 6.48 1.66 13.52
1/16/2023 1:45:00 AM 2.93 37.274 0.029 6.48 1.63 13.53
1/16/2023 2:00:00 AM 2.9 37.22 0.029 6.48 1.61 13.54
1/16/2023 2:15:00 AM 2.86 37.148 0.029 6.48 1.55 13.55
1/16/2023 2:30:00 AM 2.83 37.094 0.029 6.48 1.57 13.57
1/16/2023 2:45:00 AM 2.79 37.022 0.029 6.48 1.57 13.58
1/16/2023 3:00:00 AM 2.76 36.968 0.029 6.47 1.96 13.59
1/16/2023 3:15:00 AM 2.72 36.896 0.029 6.48 1.61 13.61
1/16/2023 3:30:00 AM 2.69 36.842 0.029 6.47 1.57 13.62
1/16/2023 3:45:00 AM 2.66 36.788 0.029 6.47 1.58 13.63
1/16/2023 4:00:00 AM 2.63 36.734 0.029 6.48 1.6 13.64
1/16/2023 4:15:00 AM 2.6 36.68 0.029 6.47 1.61 13.66
1/16/2023 4:30:00 AM 2.56 36.608 0.029 6.47 1.55 13.67
1/16/2023 4:45:00 AM 2.53 36.554 0.029 6.48 1.59 13.68
1/16/2023 5:00:00 AM 2.5 36.5 0.029 6.47 1.65 13.69
1/16/2023 5:15:00 AM 2.47 36.446 0.029 6.47 1.54 13.7
1/16/2023 5:30:00 AM 2.44 36.392 0.029 6.47 1.65 13.71
1/16/2023 5:45:00 AM 2.4 36.32 0.029 6.47 1.69 13.73
1/16/2023 6:00:00 AM 2.37 36.266 0.029 6.47 1.77 13.74
1/16/2023 6:15:00 AM 2.34 36.212 0.029 6.47 1.63 13.75
1/16/2023 6:30:00 AM 2.31 36.158 0.029 6.46 1.57 13.76
1/16/2023 6:45:00 AM 2.28 36.104 0.029 6.47 1.55 13.77
1/16/2023 7:00:00 AM 2.25 36.05 0.029 6.47 1.6 13.79
1/16/2023 7:15:00 AM 2.22 35.996 0.029 6.46 1.6 13.79
1/16/2023 7:30:00 AM 2.2 35.96 0.029 6.47 1.65 13.8
1/16/2023 7:45:00 AM 2.17 35.906 0.029 6.46 1.6 13.82
1/16/2023 8:00:00 AM 2.15 35.87 0.029 6.47 1.56 13.84
1/16/2023 8:15:00 AM 2.12 35.816 0.029 6.47 1.58 13.86
1/16/2023 8:30:00 AM 2.1 35.78 0.029 6.48 1.54 13.88
1/16/2023 8:45:00 AM 2.08 35.744 0.029 6.48 1.53 13.9
1/16/2023 9:00:00 AM 2.07 35.726 0.029 6.49 1.52 13.91
1/16/2023 9:15:00 AM 2.06